<?xml version="1.0" encoding="UTF-8" standalone="no" ?>
<gpx xmlns="http://www.topografix.com/GPX/1/1" xmlns:xsi="http://www.w3.org/2001/XMLSchema-instance" xsi:schemaLocation="http://www.topografix.com/GPX/1/1 http://www.topografix.com/GPX/1/1/gpx.xsd" version="1.1" creator="VisuGPX - https://www.visugpx.com">
  <metadata>
    <name>felines st marcel</name>
  </metadata>
  <trk>
    <name><![CDATA[felines st marcel_1]]></name>
    <extensions>
      <line xmlns="http://www.topografix.com/GPX/gpx_style/0/2">
        <color>0000FF</color>
        <width>4</width>
      </line>
    </extensions>
    <trkseg>
      <trkpt lat="45.31548" lon="4.72763">
        <ele>403.6</ele>
        <time>2021-07-11T05:33:56Z</time>
      </trkpt>
      <trkpt lat="45.31541" lon="4.72751">
        <ele>404</ele>
        <time>2021-07-11T05:34:03Z</time>
      </trkpt>
      <trkpt lat="45.31534" lon="4.7274">
        <ele>404.6</ele>
        <time>2021-07-11T05:34:09Z</time>
      </trkpt>
      <trkpt lat="45.3153" lon="4.72735">
        <ele>405.4</ele>
        <time>2021-07-11T05:34:12Z</time>
      </trkpt>
      <trkpt lat="45.31527" lon="4.72731">
        <ele>405.6</ele>
        <time>2021-07-11T05:34:14Z</time>
      </trkpt>
      <trkpt lat="45.3152" lon="4.72718">
        <ele>406.8</ele>
        <time>2021-07-11T05:34:20Z</time>
      </trkpt>
      <trkpt lat="45.31517" lon="4.72712">
        <ele>407.4</ele>
        <time>2021-07-11T05:34:23Z</time>
      </trkpt>
      <trkpt lat="45.31515" lon="4.72705">
        <ele>407.8</ele>
        <time>2021-07-11T05:34:26Z</time>
      </trkpt>
      <trkpt lat="45.31511" lon="4.72691">
        <ele>408.4</ele>
        <time>2021-07-11T05:34:31Z</time>
      </trkpt>
      <trkpt lat="45.31508" lon="4.72681">
        <ele>409</ele>
        <time>2021-07-11T05:34:35Z</time>
      </trkpt>
      <trkpt lat="45.31506" lon="4.7267">
        <ele>409.6</ele>
        <time>2021-07-11T05:34:39Z</time>
      </trkpt>
      <trkpt lat="45.31504" lon="4.7266">
        <ele>410.2</ele>
        <time>2021-07-11T05:34:43Z</time>
      </trkpt>
      <trkpt lat="45.31501" lon="4.72648">
        <ele>410.8</ele>
        <time>2021-07-11T05:34:48Z</time>
      </trkpt>
      <trkpt lat="45.31501" lon="4.72643">
        <ele>411.2</ele>
        <time>2021-07-11T05:34:50Z</time>
      </trkpt>
      <trkpt lat="45.31503" lon="4.72634">
        <ele>411.8</ele>
        <time>2021-07-11T05:34:54Z</time>
      </trkpt>
      <trkpt lat="45.31503" lon="4.72627">
        <ele>412.2</ele>
        <time>2021-07-11T05:34:57Z</time>
      </trkpt>
      <trkpt lat="45.31502" lon="4.72624">
        <ele>412.8</ele>
        <time>2021-07-11T05:34:59Z</time>
      </trkpt>
      <trkpt lat="45.31497" lon="4.72614">
        <ele>413.4</ele>
        <time>2021-07-11T05:35:04Z</time>
      </trkpt>
      <trkpt lat="45.31495" lon="4.72613">
        <ele>413.4</ele>
        <time>2021-07-11T05:35:05Z</time>
      </trkpt>
      <trkpt lat="45.31481" lon="4.72606">
        <ele>413.4</ele>
        <time>2021-07-11T05:35:10Z</time>
      </trkpt>
      <trkpt lat="45.31465" lon="4.72596">
        <ele>412.8</ele>
        <time>2021-07-11T05:35:13Z</time>
      </trkpt>
      <trkpt lat="45.3146" lon="4.7259">
        <ele>412.4</ele>
        <time>2021-07-11T05:35:14Z</time>
      </trkpt>
      <trkpt lat="45.31454" lon="4.72582">
        <ele>412</ele>
        <time>2021-07-11T05:35:15Z</time>
      </trkpt>
      <trkpt lat="45.31436" lon="4.72564">
        <ele>410.8</ele>
        <time>2021-07-11T05:35:18Z</time>
      </trkpt>
      <trkpt lat="45.31412" lon="4.72562">
        <ele>409.4</ele>
        <time>2021-07-11T05:35:21Z</time>
      </trkpt>
      <trkpt lat="45.31399" lon="4.72562">
        <ele>408.2</ele>
        <time>2021-07-11T05:35:23Z</time>
      </trkpt>
      <trkpt lat="45.3139" lon="4.72562">
        <ele>408</ele>
        <time>2021-07-11T05:35:25Z</time>
      </trkpt>
      <trkpt lat="45.31378" lon="4.72562">
        <ele>407.6</ele>
        <time>2021-07-11T05:35:29Z</time>
      </trkpt>
      <trkpt lat="45.31367" lon="4.72562">
        <ele>408.4</ele>
        <time>2021-07-11T05:35:35Z</time>
      </trkpt>
      <trkpt lat="45.31362" lon="4.72561">
        <ele>409.4</ele>
        <time>2021-07-11T05:35:38Z</time>
      </trkpt>
      <trkpt lat="45.31356" lon="4.72559">
        <ele>410.4</ele>
        <time>2021-07-11T05:35:42Z</time>
      </trkpt>
      <trkpt lat="45.31349" lon="4.72558">
        <ele>411.8</ele>
        <time>2021-07-11T05:35:47Z</time>
      </trkpt>
      <trkpt lat="45.31343" lon="4.72554">
        <ele>413</ele>
        <time>2021-07-11T05:35:52Z</time>
      </trkpt>
      <trkpt lat="45.31338" lon="4.72549">
        <ele>414.2</ele>
        <time>2021-07-11T05:35:56Z</time>
      </trkpt>
      <trkpt lat="45.31333" lon="4.7254">
        <ele>415</ele>
        <time>2021-07-11T05:36:00Z</time>
      </trkpt>
      <trkpt lat="45.31333" lon="4.72538">
        <ele>415.2</ele>
        <time>2021-07-11T05:36:01Z</time>
      </trkpt>
      <trkpt lat="45.31326" lon="4.72529">
        <ele>416.2</ele>
        <time>2021-07-11T05:36:06Z</time>
      </trkpt>
      <trkpt lat="45.31325" lon="4.72527">
        <ele>416.4</ele>
        <time>2021-07-11T05:36:07Z</time>
      </trkpt>
      <trkpt lat="45.31321" lon="4.72519">
        <ele>416.8</ele>
        <time>2021-07-11T05:36:10Z</time>
      </trkpt>
      <trkpt lat="45.31319" lon="4.72511">
        <ele>417.4</ele>
        <time>2021-07-11T05:36:13Z</time>
      </trkpt>
      <trkpt lat="45.31317" lon="4.72506">
        <ele>417.8</ele>
        <time>2021-07-11T05:36:15Z</time>
      </trkpt>
      <trkpt lat="45.31315" lon="4.725">
        <ele>418.6</ele>
        <time>2021-07-11T05:36:18Z</time>
      </trkpt>
      <trkpt lat="45.31312" lon="4.72492">
        <ele>419.6</ele>
        <time>2021-07-11T05:36:22Z</time>
      </trkpt>
      <trkpt lat="45.31312" lon="4.7249">
        <ele>419.8</ele>
        <time>2021-07-11T05:36:23Z</time>
      </trkpt>
      <trkpt lat="45.3131" lon="4.72482">
        <ele>420.8</ele>
        <time>2021-07-11T05:36:27Z</time>
      </trkpt>
      <trkpt lat="45.31309" lon="4.72478">
        <ele>421.2</ele>
        <time>2021-07-11T05:36:29Z</time>
      </trkpt>
      <trkpt lat="45.31308" lon="4.72477">
        <ele>421.4</ele>
        <time>2021-07-11T05:36:30Z</time>
      </trkpt>
      <trkpt lat="45.31306" lon="4.72474">
        <ele>421.8</ele>
        <time>2021-07-11T05:36:32Z</time>
      </trkpt>
      <trkpt lat="45.313" lon="4.7247">
        <ele>422.8</ele>
        <time>2021-07-11T05:36:36Z</time>
      </trkpt>
      <trkpt lat="45.31297" lon="4.72468">
        <ele>423</ele>
        <time>2021-07-11T05:36:38Z</time>
      </trkpt>
      <trkpt lat="45.31291" lon="4.72457">
        <ele>424</ele>
        <time>2021-07-11T05:36:45Z</time>
      </trkpt>
      <trkpt lat="45.31287" lon="4.72454">
        <ele>424</ele>
        <time>2021-07-11T05:36:47Z</time>
      </trkpt>
      <trkpt lat="45.31281" lon="4.72446">
        <ele>424.6</ele>
        <time>2021-07-11T05:36:51Z</time>
      </trkpt>
      <trkpt lat="45.31277" lon="4.7244">
        <ele>425</ele>
        <time>2021-07-11T05:36:54Z</time>
      </trkpt>
      <trkpt lat="45.31272" lon="4.72432">
        <ele>426.2</ele>
        <time>2021-07-11T05:37:00Z</time>
      </trkpt>
      <trkpt lat="45.31268" lon="4.72425">
        <ele>427.4</ele>
        <time>2021-07-11T05:37:05Z</time>
      </trkpt>
      <trkpt lat="45.31264" lon="4.72418">
        <ele>428.6</ele>
        <time>2021-07-11T05:37:09Z</time>
      </trkpt>
      <trkpt lat="45.31255" lon="4.7239">
        <ele>433</ele>
        <time>2021-07-11T05:37:24Z</time>
      </trkpt>
      <trkpt lat="45.31255" lon="4.72388">
        <ele>433.4</ele>
        <time>2021-07-11T05:37:25Z</time>
      </trkpt>
      <trkpt lat="45.31253" lon="4.72383">
        <ele>434.2</ele>
        <time>2021-07-11T05:37:28Z</time>
      </trkpt>
      <trkpt lat="45.31249" lon="4.72377">
        <ele>435</ele>
        <time>2021-07-11T05:37:32Z</time>
      </trkpt>
      <trkpt lat="45.31248" lon="4.72376">
        <ele>435.2</ele>
        <time>2021-07-11T05:37:33Z</time>
      </trkpt>
      <trkpt lat="45.31245" lon="4.72368">
        <ele>436.4</ele>
        <time>2021-07-11T05:37:39Z</time>
      </trkpt>
      <trkpt lat="45.31243" lon="4.72367">
        <ele>436.6</ele>
        <time>2021-07-11T05:37:40Z</time>
      </trkpt>
      <trkpt lat="45.31239" lon="4.72361">
        <ele>437.6</ele>
        <time>2021-07-11T05:37:44Z</time>
      </trkpt>
      <trkpt lat="45.31236" lon="4.72357">
        <ele>438.4</ele>
        <time>2021-07-11T05:37:47Z</time>
      </trkpt>
      <trkpt lat="45.31234" lon="4.72354">
        <ele>438.8</ele>
        <time>2021-07-11T05:37:49Z</time>
      </trkpt>
      <trkpt lat="45.31231" lon="4.72347">
        <ele>439.8</ele>
        <time>2021-07-11T05:37:54Z</time>
      </trkpt>
      <trkpt lat="45.3123" lon="4.72345">
        <ele>440.2</ele>
        <time>2021-07-11T05:37:55Z</time>
      </trkpt>
      <trkpt lat="45.31224" lon="4.72323">
        <ele>443</ele>
        <time>2021-07-11T05:38:08Z</time>
      </trkpt>
      <trkpt lat="45.31223" lon="4.72321">
        <ele>443.2</ele>
        <time>2021-07-11T05:38:09Z</time>
      </trkpt>
      <trkpt lat="45.31222" lon="4.72318">
        <ele>443.4</ele>
        <time>2021-07-11T05:38:10Z</time>
      </trkpt>
      <trkpt lat="45.31219" lon="4.72308">
        <ele>444.2</ele>
        <time>2021-07-11T05:38:15Z</time>
      </trkpt>
      <trkpt lat="45.31218" lon="4.72303">
        <ele>444.6</ele>
        <time>2021-07-11T05:38:17Z</time>
      </trkpt>
      <trkpt lat="45.31216" lon="4.72295">
        <ele>445.2</ele>
        <time>2021-07-11T05:38:21Z</time>
      </trkpt>
      <trkpt lat="45.31215" lon="4.7229">
        <ele>445.6</ele>
        <time>2021-07-11T05:38:24Z</time>
      </trkpt>
      <trkpt lat="45.31213" lon="4.72289">
        <ele>445.8</ele>
        <time>2021-07-11T05:38:25Z</time>
      </trkpt>
      <trkpt lat="45.3121" lon="4.72283">
        <ele>446</ele>
        <time>2021-07-11T05:38:28Z</time>
      </trkpt>
      <trkpt lat="45.31208" lon="4.72278">
        <ele>446.2</ele>
        <time>2021-07-11T05:38:30Z</time>
      </trkpt>
      <trkpt lat="45.31205" lon="4.7227">
        <ele>446.6</ele>
        <time>2021-07-11T05:38:34Z</time>
      </trkpt>
      <trkpt lat="45.31202" lon="4.72265">
        <ele>447.2</ele>
        <time>2021-07-11T05:38:37Z</time>
      </trkpt>
      <trkpt lat="45.31201" lon="4.72263">
        <ele>447.2</ele>
        <time>2021-07-11T05:38:38Z</time>
      </trkpt>
      <trkpt lat="45.31197" lon="4.72257">
        <ele>447.6</ele>
        <time>2021-07-11T05:38:44Z</time>
      </trkpt>
      <trkpt lat="45.31196" lon="4.72255">
        <ele>447.8</ele>
        <time>2021-07-11T05:38:45Z</time>
      </trkpt>
      <trkpt lat="45.3119" lon="4.7225">
        <ele>448</ele>
        <time>2021-07-11T05:38:50Z</time>
      </trkpt>
      <trkpt lat="45.3119" lon="4.72242">
        <ele>448.4</ele>
        <time>2021-07-11T05:38:54Z</time>
      </trkpt>
      <trkpt lat="45.31188" lon="4.7224">
        <ele>448.8</ele>
        <time>2021-07-11T05:38:56Z</time>
      </trkpt>
      <trkpt lat="45.31175" lon="4.72238">
        <ele>449</ele>
        <time>2021-07-11T05:39:03Z</time>
      </trkpt>
      <trkpt lat="45.31173" lon="4.72239">
        <ele>449.2</ele>
        <time>2021-07-11T05:39:04Z</time>
      </trkpt>
      <trkpt lat="45.31166" lon="4.72242">
        <ele>449.4</ele>
        <time>2021-07-11T05:39:08Z</time>
      </trkpt>
      <trkpt lat="45.31165" lon="4.72243">
        <ele>449.6</ele>
        <time>2021-07-11T05:39:09Z</time>
      </trkpt>
      <trkpt lat="45.3115" lon="4.72248">
        <ele>450.2</ele>
        <time>2021-07-11T05:39:17Z</time>
      </trkpt>
      <trkpt lat="45.31144" lon="4.72246">
        <ele>450.6</ele>
        <time>2021-07-11T05:39:20Z</time>
      </trkpt>
      <trkpt lat="45.31141" lon="4.72242">
        <ele>450.8</ele>
        <time>2021-07-11T05:39:22Z</time>
      </trkpt>
      <trkpt lat="45.31138" lon="4.72238">
        <ele>451.6</ele>
        <time>2021-07-11T05:39:24Z</time>
      </trkpt>
      <trkpt lat="45.31137" lon="4.72236">
        <ele>451.8</ele>
        <time>2021-07-11T05:39:25Z</time>
      </trkpt>
      <trkpt lat="45.31133" lon="4.72231">
        <ele>452.8</ele>
        <time>2021-07-11T05:39:28Z</time>
      </trkpt>
      <trkpt lat="45.31129" lon="4.72228">
        <ele>453.8</ele>
        <time>2021-07-11T05:39:31Z</time>
      </trkpt>
      <trkpt lat="45.31123" lon="4.72221">
        <ele>455</ele>
        <time>2021-07-11T05:39:36Z</time>
      </trkpt>
      <trkpt lat="45.31119" lon="4.72215">
        <ele>455.8</ele>
        <time>2021-07-11T05:39:40Z</time>
      </trkpt>
      <trkpt lat="45.31118" lon="4.72214">
        <ele>456</ele>
        <time>2021-07-11T05:39:41Z</time>
      </trkpt>
      <trkpt lat="45.31113" lon="4.72208">
        <ele>457</ele>
        <time>2021-07-11T05:39:46Z</time>
      </trkpt>
      <trkpt lat="45.31112" lon="4.72207">
        <ele>457.2</ele>
        <time>2021-07-11T05:39:47Z</time>
      </trkpt>
      <trkpt lat="45.31105" lon="4.72204">
        <ele>458.4</ele>
        <time>2021-07-11T05:39:52Z</time>
      </trkpt>
      <trkpt lat="45.31102" lon="4.72204">
        <ele>458.6</ele>
        <time>2021-07-11T05:39:54Z</time>
      </trkpt>
      <trkpt lat="45.311" lon="4.72204">
        <ele>458.8</ele>
        <time>2021-07-11T05:39:55Z</time>
      </trkpt>
      <trkpt lat="45.31096" lon="4.72204">
        <ele>459.4</ele>
        <time>2021-07-11T05:39:58Z</time>
      </trkpt>
      <trkpt lat="45.31088" lon="4.72204">
        <ele>460.4</ele>
        <time>2021-07-11T05:40:03Z</time>
      </trkpt>
      <trkpt lat="45.31086" lon="4.72204">
        <ele>460.4</ele>
        <time>2021-07-11T05:40:04Z</time>
      </trkpt>
      <trkpt lat="45.31079" lon="4.72201">
        <ele>461.4</ele>
        <time>2021-07-11T05:40:08Z</time>
      </trkpt>
      <trkpt lat="45.31076" lon="4.722">
        <ele>461.8</ele>
        <time>2021-07-11T05:40:10Z</time>
      </trkpt>
      <trkpt lat="45.31073" lon="4.72201">
        <ele>462.4</ele>
        <time>2021-07-11T05:40:12Z</time>
      </trkpt>
      <trkpt lat="45.31068" lon="4.722">
        <ele>463.2</ele>
        <time>2021-07-11T05:40:15Z</time>
      </trkpt>
      <trkpt lat="45.31064" lon="4.72199">
        <ele>463.8</ele>
        <time>2021-07-11T05:40:17Z</time>
      </trkpt>
      <trkpt lat="45.31059" lon="4.72195">
        <ele>464.6</ele>
        <time>2021-07-11T05:40:21Z</time>
      </trkpt>
      <trkpt lat="45.31058" lon="4.72194">
        <ele>464.8</ele>
        <time>2021-07-11T05:40:22Z</time>
      </trkpt>
      <trkpt lat="45.31056" lon="4.72194">
        <ele>465.2</ele>
        <time>2021-07-11T05:40:23Z</time>
      </trkpt>
      <trkpt lat="45.31051" lon="4.72191">
        <ele>466</ele>
        <time>2021-07-11T05:40:26Z</time>
      </trkpt>
      <trkpt lat="45.3105" lon="4.72189">
        <ele>466.2</ele>
        <time>2021-07-11T05:40:27Z</time>
      </trkpt>
      <trkpt lat="45.31049" lon="4.72188">
        <ele>466.4</ele>
        <time>2021-07-11T05:40:28Z</time>
      </trkpt>
      <trkpt lat="45.31047" lon="4.72185">
        <ele>467</ele>
        <time>2021-07-11T05:40:30Z</time>
      </trkpt>
      <trkpt lat="45.31046" lon="4.72183">
        <ele>467.2</ele>
        <time>2021-07-11T05:40:31Z</time>
      </trkpt>
      <trkpt lat="45.31042" lon="4.72178">
        <ele>468</ele>
        <time>2021-07-11T05:40:34Z</time>
      </trkpt>
      <trkpt lat="45.31037" lon="4.72172">
        <ele>469</ele>
        <time>2021-07-11T05:40:38Z</time>
      </trkpt>
      <trkpt lat="45.31032" lon="4.72166">
        <ele>470</ele>
        <time>2021-07-11T05:40:43Z</time>
      </trkpt>
      <trkpt lat="45.31026" lon="4.72158">
        <ele>470.8</ele>
        <time>2021-07-11T05:40:48Z</time>
      </trkpt>
      <trkpt lat="45.31024" lon="4.72155">
        <ele>471.2</ele>
        <time>2021-07-11T05:40:50Z</time>
      </trkpt>
      <trkpt lat="45.31018" lon="4.72143">
        <ele>472.2</ele>
        <time>2021-07-11T05:40:56Z</time>
      </trkpt>
      <trkpt lat="45.31011" lon="4.72127">
        <ele>473.4</ele>
        <time>2021-07-11T05:41:03Z</time>
      </trkpt>
      <trkpt lat="45.3101" lon="4.72123">
        <ele>473.8</ele>
        <time>2021-07-11T05:41:05Z</time>
      </trkpt>
      <trkpt lat="45.31" lon="4.72098">
        <ele>474.2</ele>
        <time>2021-07-11T05:41:13Z</time>
      </trkpt>
      <trkpt lat="45.30984" lon="4.72067">
        <ele>473.8</ele>
        <time>2021-07-11T05:41:20Z</time>
      </trkpt>
      <trkpt lat="45.30968" lon="4.72037">
        <ele>473</ele>
        <time>2021-07-11T05:41:25Z</time>
      </trkpt>
      <trkpt lat="45.30961" lon="4.72023">
        <ele>472.4</ele>
        <time>2021-07-11T05:41:27Z</time>
      </trkpt>
      <trkpt lat="45.30958" lon="4.72016">
        <ele>472</ele>
        <time>2021-07-11T05:41:28Z</time>
      </trkpt>
      <trkpt lat="45.30953" lon="4.72">
        <ele>471.2</ele>
        <time>2021-07-11T05:41:30Z</time>
      </trkpt>
      <trkpt lat="45.30951" lon="4.71992">
        <ele>470.8</ele>
        <time>2021-07-11T05:41:31Z</time>
      </trkpt>
      <trkpt lat="45.30946" lon="4.71978">
        <ele>470.2</ele>
        <time>2021-07-11T05:41:33Z</time>
      </trkpt>
      <trkpt lat="45.30934" lon="4.71953">
        <ele>469.2</ele>
        <time>2021-07-11T05:41:37Z</time>
      </trkpt>
      <trkpt lat="45.30931" lon="4.71947">
        <ele>469</ele>
        <time>2021-07-11T05:41:38Z</time>
      </trkpt>
      <trkpt lat="45.30916" lon="4.71912">
        <ele>468.8</ele>
        <time>2021-07-11T05:41:44Z</time>
      </trkpt>
      <trkpt lat="45.30905" lon="4.71878">
        <ele>469.4</ele>
        <time>2021-07-11T05:41:51Z</time>
      </trkpt>
      <trkpt lat="45.309" lon="4.71851">
        <ele>470</ele>
        <time>2021-07-11T05:41:58Z</time>
      </trkpt>
      <trkpt lat="45.309" lon="4.71847">
        <ele>470.2</ele>
        <time>2021-07-11T05:41:59Z</time>
      </trkpt>
      <trkpt lat="45.30897" lon="4.71831">
        <ele>471.4</ele>
        <time>2021-07-11T05:42:04Z</time>
      </trkpt>
      <trkpt lat="45.30895" lon="4.71825">
        <ele>471.8</ele>
        <time>2021-07-11T05:42:06Z</time>
      </trkpt>
      <trkpt lat="45.3089" lon="4.71814">
        <ele>472.4</ele>
        <time>2021-07-11T05:42:10Z</time>
      </trkpt>
      <trkpt lat="45.30888" lon="4.71809">
        <ele>473</ele>
        <time>2021-07-11T05:42:12Z</time>
      </trkpt>
      <trkpt lat="45.30883" lon="4.718">
        <ele>473.6</ele>
        <time>2021-07-11T05:42:15Z</time>
      </trkpt>
      <trkpt lat="45.30881" lon="4.7179">
        <ele>474</ele>
        <time>2021-07-11T05:42:18Z</time>
      </trkpt>
      <trkpt lat="45.30879" lon="4.7178">
        <ele>474.6</ele>
        <time>2021-07-11T05:42:21Z</time>
      </trkpt>
      <trkpt lat="45.30876" lon="4.71769">
        <ele>475.8</ele>
        <time>2021-07-11T05:42:25Z</time>
      </trkpt>
      <trkpt lat="45.30867" lon="4.71756">
        <ele>476.8</ele>
        <time>2021-07-11T05:42:30Z</time>
      </trkpt>
      <trkpt lat="45.30867" lon="4.71753">
        <ele>476.8</ele>
        <time>2021-07-11T05:42:31Z</time>
      </trkpt>
      <trkpt lat="45.30864" lon="4.71734">
        <ele>477.2</ele>
        <time>2021-07-11T05:42:37Z</time>
      </trkpt>
      <trkpt lat="45.30856" lon="4.71716">
        <ele>477.6</ele>
        <time>2021-07-11T05:42:43Z</time>
      </trkpt>
      <trkpt lat="45.30855" lon="4.71703">
        <ele>477.8</ele>
        <time>2021-07-11T05:42:48Z</time>
      </trkpt>
      <trkpt lat="45.30853" lon="4.71682">
        <ele>478.8</ele>
        <time>2021-07-11T05:42:55Z</time>
      </trkpt>
      <trkpt lat="45.30853" lon="4.71678">
        <ele>478.8</ele>
        <time>2021-07-11T05:42:56Z</time>
      </trkpt>
      <trkpt lat="45.30852" lon="4.71653">
        <ele>479</ele>
        <time>2021-07-11T05:43:03Z</time>
      </trkpt>
      <trkpt lat="45.30851" lon="4.71625">
        <ele>479</ele>
        <time>2021-07-11T05:43:10Z</time>
      </trkpt>
      <trkpt lat="45.30855" lon="4.71599">
        <ele>479.2</ele>
        <time>2021-07-11T05:43:16Z</time>
      </trkpt>
      <trkpt lat="45.3086" lon="4.71569">
        <ele>479.4</ele>
        <time>2021-07-11T05:43:23Z</time>
      </trkpt>
      <trkpt lat="45.30862" lon="4.71556">
        <ele>479.8</ele>
        <time>2021-07-11T05:43:26Z</time>
      </trkpt>
      <trkpt lat="45.30867" lon="4.71537">
        <ele>479.8</ele>
        <time>2021-07-11T05:43:30Z</time>
      </trkpt>
      <trkpt lat="45.30876" lon="4.71499">
        <ele>479.6</ele>
        <time>2021-07-11T05:43:38Z</time>
      </trkpt>
      <trkpt lat="45.30877" lon="4.71473">
        <ele>478.8</ele>
        <time>2021-07-11T05:43:44Z</time>
      </trkpt>
      <trkpt lat="45.30876" lon="4.7147">
        <ele>478.8</ele>
        <time>2021-07-11T05:43:45Z</time>
      </trkpt>
      <trkpt lat="45.3087" lon="4.71465">
        <ele>478.6</ele>
        <time>2021-07-11T05:43:47Z</time>
      </trkpt>
      <trkpt lat="45.30862" lon="4.71459">
        <ele>477.8</ele>
        <time>2021-07-11T05:43:49Z</time>
      </trkpt>
      <trkpt lat="45.30857" lon="4.71456">
        <ele>477.4</ele>
        <time>2021-07-11T05:43:50Z</time>
      </trkpt>
      <trkpt lat="45.30849" lon="4.71451">
        <ele>476.4</ele>
        <time>2021-07-11T05:43:52Z</time>
      </trkpt>
      <trkpt lat="45.30845" lon="4.71449">
        <ele>475.8</ele>
        <time>2021-07-11T05:43:53Z</time>
      </trkpt>
      <trkpt lat="45.30838" lon="4.71444">
        <ele>474.6</ele>
        <time>2021-07-11T05:43:55Z</time>
      </trkpt>
      <trkpt lat="45.30836" lon="4.71436">
        <ele>473.6</ele>
        <time>2021-07-11T05:43:57Z</time>
      </trkpt>
      <trkpt lat="45.30837" lon="4.71416">
        <ele>473.2</ele>
        <time>2021-07-11T05:44:02Z</time>
      </trkpt>
      <trkpt lat="45.30838" lon="4.71404">
        <ele>473.8</ele>
        <time>2021-07-11T05:44:05Z</time>
      </trkpt>
      <trkpt lat="45.30841" lon="4.71381">
        <ele>474.6</ele>
        <time>2021-07-11T05:44:11Z</time>
      </trkpt>
      <trkpt lat="45.30841" lon="4.71377">
        <ele>474.8</ele>
        <time>2021-07-11T05:44:12Z</time>
      </trkpt>
      <trkpt lat="45.30843" lon="4.71344">
        <ele>475.6</ele>
        <time>2021-07-11T05:44:20Z</time>
      </trkpt>
      <trkpt lat="45.30843" lon="4.7134">
        <ele>475.8</ele>
        <time>2021-07-11T05:44:21Z</time>
      </trkpt>
      <trkpt lat="45.30842" lon="4.71309">
        <ele>475.6</ele>
        <time>2021-07-11T05:44:27Z</time>
      </trkpt>
      <trkpt lat="45.30839" lon="4.71292">
        <ele>475.2</ele>
        <time>2021-07-11T05:44:30Z</time>
      </trkpt>
      <trkpt lat="45.30836" lon="4.71281">
        <ele>475.2</ele>
        <time>2021-07-11T05:44:32Z</time>
      </trkpt>
      <trkpt lat="45.30824" lon="4.71239">
        <ele>474.8</ele>
        <time>2021-07-11T05:44:40Z</time>
      </trkpt>
      <trkpt lat="45.30811" lon="4.71204">
        <ele>475.2</ele>
        <time>2021-07-11T05:44:48Z</time>
      </trkpt>
      <trkpt lat="45.30801" lon="4.71184">
        <ele>476.2</ele>
        <time>2021-07-11T05:44:54Z</time>
      </trkpt>
      <trkpt lat="45.30799" lon="4.71178">
        <ele>477</ele>
        <time>2021-07-11T05:44:56Z</time>
      </trkpt>
      <trkpt lat="45.30795" lon="4.7117">
        <ele>478</ele>
        <time>2021-07-11T05:44:59Z</time>
      </trkpt>
      <trkpt lat="45.3079" lon="4.71164">
        <ele>479.4</ele>
        <time>2021-07-11T05:45:02Z</time>
      </trkpt>
      <trkpt lat="45.30783" lon="4.71157">
        <ele>480.6</ele>
        <time>2021-07-11T05:45:06Z</time>
      </trkpt>
      <trkpt lat="45.30774" lon="4.71148">
        <ele>481.6</ele>
        <time>2021-07-11T05:45:11Z</time>
      </trkpt>
      <trkpt lat="45.30764" lon="4.71134">
        <ele>482.8</ele>
        <time>2021-07-11T05:45:17Z</time>
      </trkpt>
      <trkpt lat="45.30762" lon="4.71127">
        <ele>483.4</ele>
        <time>2021-07-11T05:45:20Z</time>
      </trkpt>
      <trkpt lat="45.3076" lon="4.71121">
        <ele>483.8</ele>
        <time>2021-07-11T05:45:22Z</time>
      </trkpt>
      <trkpt lat="45.30758" lon="4.71113">
        <ele>485</ele>
        <time>2021-07-11T05:45:25Z</time>
      </trkpt>
      <trkpt lat="45.30758" lon="4.71104">
        <ele>485.8</ele>
        <time>2021-07-11T05:45:28Z</time>
      </trkpt>
      <trkpt lat="45.30758" lon="4.71101">
        <ele>486</ele>
        <time>2021-07-11T05:45:29Z</time>
      </trkpt>
      <trkpt lat="45.30758" lon="4.71083">
        <ele>487.2</ele>
        <time>2021-07-11T05:45:35Z</time>
      </trkpt>
      <trkpt lat="45.30758" lon="4.71075">
        <ele>487.6</ele>
        <time>2021-07-11T05:45:38Z</time>
      </trkpt>
      <trkpt lat="45.30757" lon="4.71069">
        <ele>488.2</ele>
        <time>2021-07-11T05:45:40Z</time>
      </trkpt>
      <trkpt lat="45.30751" lon="4.71054">
        <ele>489</ele>
        <time>2021-07-11T05:45:46Z</time>
      </trkpt>
      <trkpt lat="45.30749" lon="4.7105">
        <ele>489.4</ele>
        <time>2021-07-11T05:45:48Z</time>
      </trkpt>
      <trkpt lat="45.30744" lon="4.71037">
        <ele>490.4</ele>
        <time>2021-07-11T05:45:53Z</time>
      </trkpt>
      <trkpt lat="45.30742" lon="4.71028">
        <ele>491.2</ele>
        <time>2021-07-11T05:45:56Z</time>
      </trkpt>
      <trkpt lat="45.30741" lon="4.71025">
        <ele>491.8</ele>
        <time>2021-07-11T05:45:57Z</time>
      </trkpt>
      <trkpt lat="45.30738" lon="4.71018">
        <ele>493.2</ele>
        <time>2021-07-11T05:46:00Z</time>
      </trkpt>
      <trkpt lat="45.30733" lon="4.71007">
        <ele>494.2</ele>
        <time>2021-07-11T05:46:05Z</time>
      </trkpt>
      <trkpt lat="45.30725" lon="4.71003">
        <ele>495.4</ele>
        <time>2021-07-11T05:46:09Z</time>
      </trkpt>
      <trkpt lat="45.30721" lon="4.71003">
        <ele>495.8</ele>
        <time>2021-07-11T05:46:11Z</time>
      </trkpt>
      <trkpt lat="45.30716" lon="4.71005">
        <ele>496.6</ele>
        <time>2021-07-11T05:46:13Z</time>
      </trkpt>
      <trkpt lat="45.30709" lon="4.71012">
        <ele>497.4</ele>
        <time>2021-07-11T05:46:17Z</time>
      </trkpt>
      <trkpt lat="45.30707" lon="4.71013">
        <ele>497.6</ele>
        <time>2021-07-11T05:46:18Z</time>
      </trkpt>
      <trkpt lat="45.30697" lon="4.71018">
        <ele>498.4</ele>
        <time>2021-07-11T05:46:23Z</time>
      </trkpt>
      <trkpt lat="45.30694" lon="4.71019">
        <ele>498.8</ele>
        <time>2021-07-11T05:46:25Z</time>
      </trkpt>
      <trkpt lat="45.30684" lon="4.7102">
        <ele>499.8</ele>
        <time>2021-07-11T05:46:30Z</time>
      </trkpt>
      <trkpt lat="45.30681" lon="4.71021">
        <ele>500.4</ele>
        <time>2021-07-11T05:46:32Z</time>
      </trkpt>
      <trkpt lat="45.30677" lon="4.71021">
        <ele>501</ele>
        <time>2021-07-11T05:46:34Z</time>
      </trkpt>
      <trkpt lat="45.30673" lon="4.71021">
        <ele>502.2</ele>
        <time>2021-07-11T05:46:37Z</time>
      </trkpt>
      <trkpt lat="45.30668" lon="4.71022">
        <ele>503</ele>
        <time>2021-07-11T05:46:40Z</time>
      </trkpt>
      <trkpt lat="45.30667" lon="4.71022">
        <ele>503.2</ele>
        <time>2021-07-11T05:46:41Z</time>
      </trkpt>
      <trkpt lat="45.30663" lon="4.71024">
        <ele>504.2</ele>
        <time>2021-07-11T05:46:45Z</time>
      </trkpt>
      <trkpt lat="45.30661" lon="4.71025">
        <ele>504.6</ele>
        <time>2021-07-11T05:46:46Z</time>
      </trkpt>
      <trkpt lat="45.30658" lon="4.71026">
        <ele>505.4</ele>
        <time>2021-07-11T05:46:49Z</time>
      </trkpt>
      <trkpt lat="45.30653" lon="4.71027">
        <ele>506.6</ele>
        <time>2021-07-11T05:46:53Z</time>
      </trkpt>
      <trkpt lat="45.30647" lon="4.71028">
        <ele>507.8</ele>
        <time>2021-07-11T05:46:57Z</time>
      </trkpt>
      <trkpt lat="45.3064" lon="4.7103">
        <ele>509</ele>
        <time>2021-07-11T05:47:01Z</time>
      </trkpt>
      <trkpt lat="45.30631" lon="4.71034">
        <ele>510</ele>
        <time>2021-07-11T05:47:06Z</time>
      </trkpt>
      <trkpt lat="45.30629" lon="4.71035">
        <ele>510.2</ele>
        <time>2021-07-11T05:47:07Z</time>
      </trkpt>
      <trkpt lat="45.30623" lon="4.71039">
        <ele>511.2</ele>
        <time>2021-07-11T05:47:11Z</time>
      </trkpt>
      <trkpt lat="45.3062" lon="4.71044">
        <ele>512</ele>
        <time>2021-07-11T05:47:14Z</time>
      </trkpt>
      <trkpt lat="45.30617" lon="4.71046">
        <ele>512.4</ele>
        <time>2021-07-11T05:47:16Z</time>
      </trkpt>
      <trkpt lat="45.30611" lon="4.71051">
        <ele>513.4</ele>
        <time>2021-07-11T05:47:20Z</time>
      </trkpt>
      <trkpt lat="45.30608" lon="4.71053">
        <ele>514</ele>
        <time>2021-07-11T05:47:22Z</time>
      </trkpt>
      <trkpt lat="45.30605" lon="4.71056">
        <ele>514.8</ele>
        <time>2021-07-11T05:47:24Z</time>
      </trkpt>
      <trkpt lat="45.30599" lon="4.71059">
        <ele>515.8</ele>
        <time>2021-07-11T05:47:28Z</time>
      </trkpt>
      <trkpt lat="45.30598" lon="4.7106">
        <ele>516</ele>
        <time>2021-07-11T05:47:29Z</time>
      </trkpt>
      <trkpt lat="45.30593" lon="4.71063">
        <ele>516.8</ele>
        <time>2021-07-11T05:47:32Z</time>
      </trkpt>
      <trkpt lat="45.30588" lon="4.71064">
        <ele>517.6</ele>
        <time>2021-07-11T05:47:35Z</time>
      </trkpt>
      <trkpt lat="45.30586" lon="4.71065">
        <ele>517.8</ele>
        <time>2021-07-11T05:47:36Z</time>
      </trkpt>
      <trkpt lat="45.30579" lon="4.71068">
        <ele>518.4</ele>
        <time>2021-07-11T05:47:40Z</time>
      </trkpt>
      <trkpt lat="45.30573" lon="4.71071">
        <ele>519</ele>
        <time>2021-07-11T05:47:43Z</time>
      </trkpt>
      <trkpt lat="45.30566" lon="4.71074">
        <ele>519.6</ele>
        <time>2021-07-11T05:47:47Z</time>
      </trkpt>
      <trkpt lat="45.30563" lon="4.71076">
        <ele>520</ele>
        <time>2021-07-11T05:47:49Z</time>
      </trkpt>
      <trkpt lat="45.30556" lon="4.71079">
        <ele>520.8</ele>
        <time>2021-07-11T05:47:53Z</time>
      </trkpt>
      <trkpt lat="45.30553" lon="4.7108">
        <ele>521.2</ele>
        <time>2021-07-11T05:47:55Z</time>
      </trkpt>
      <trkpt lat="45.30545" lon="4.71081">
        <ele>522.4</ele>
        <time>2021-07-11T05:48:00Z</time>
      </trkpt>
      <trkpt lat="45.30539" lon="4.71084">
        <ele>523.4</ele>
        <time>2021-07-11T05:48:04Z</time>
      </trkpt>
      <trkpt lat="45.30532" lon="4.71084">
        <ele>524.4</ele>
        <time>2021-07-11T05:48:09Z</time>
      </trkpt>
      <trkpt lat="45.30527" lon="4.71084">
        <ele>525.4</ele>
        <time>2021-07-11T05:48:13Z</time>
      </trkpt>
      <trkpt lat="45.30523" lon="4.71084">
        <ele>526.2</ele>
        <time>2021-07-11T05:48:16Z</time>
      </trkpt>
      <trkpt lat="45.30521" lon="4.71084">
        <ele>526.6</ele>
        <time>2021-07-11T05:48:17Z</time>
      </trkpt>
      <trkpt lat="45.30516" lon="4.71082">
        <ele>527.6</ele>
        <time>2021-07-11T05:48:21Z</time>
      </trkpt>
      <trkpt lat="45.30514" lon="4.71082">
        <ele>528.2</ele>
        <time>2021-07-11T05:48:23Z</time>
      </trkpt>
      <trkpt lat="45.3051" lon="4.71082">
        <ele>528.8</ele>
        <time>2021-07-11T05:48:25Z</time>
      </trkpt>
      <trkpt lat="45.30503" lon="4.71081">
        <ele>530</ele>
        <time>2021-07-11T05:48:30Z</time>
      </trkpt>
      <trkpt lat="45.30494" lon="4.71078">
        <ele>531.2</ele>
        <time>2021-07-11T05:48:35Z</time>
      </trkpt>
      <trkpt lat="45.30491" lon="4.71078">
        <ele>531.8</ele>
        <time>2021-07-11T05:48:37Z</time>
      </trkpt>
      <trkpt lat="45.30487" lon="4.71078">
        <ele>532.2</ele>
        <time>2021-07-11T05:48:39Z</time>
      </trkpt>
      <trkpt lat="45.3048" lon="4.71078">
        <ele>533.4</ele>
        <time>2021-07-11T05:48:44Z</time>
      </trkpt>
      <trkpt lat="45.30472" lon="4.71075">
        <ele>534.6</ele>
        <time>2021-07-11T05:48:49Z</time>
      </trkpt>
      <trkpt lat="45.30467" lon="4.71075">
        <ele>535.4</ele>
        <time>2021-07-11T05:48:52Z</time>
      </trkpt>
      <trkpt lat="45.30465" lon="4.71074">
        <ele>535.6</ele>
        <time>2021-07-11T05:48:53Z</time>
      </trkpt>
      <trkpt lat="45.30457" lon="4.71074">
        <ele>536.6</ele>
        <time>2021-07-11T05:48:58Z</time>
      </trkpt>
      <trkpt lat="45.30453" lon="4.71073">
        <ele>537.2</ele>
        <time>2021-07-11T05:49:00Z</time>
      </trkpt>
      <trkpt lat="45.30448" lon="4.71073">
        <ele>537.8</ele>
        <time>2021-07-11T05:49:03Z</time>
      </trkpt>
      <trkpt lat="45.3044" lon="4.71071">
        <ele>538.8</ele>
        <time>2021-07-11T05:49:08Z</time>
      </trkpt>
      <trkpt lat="45.30439" lon="4.7107">
        <ele>539</ele>
        <time>2021-07-11T05:49:09Z</time>
      </trkpt>
      <trkpt lat="45.3043" lon="4.71066">
        <ele>539.8</ele>
        <time>2021-07-11T05:49:14Z</time>
      </trkpt>
      <trkpt lat="45.30427" lon="4.71064">
        <ele>540.2</ele>
        <time>2021-07-11T05:49:16Z</time>
      </trkpt>
      <trkpt lat="45.3042" lon="4.71062">
        <ele>541</ele>
        <time>2021-07-11T05:49:20Z</time>
      </trkpt>
      <trkpt lat="45.30418" lon="4.71062">
        <ele>541.2</ele>
        <time>2021-07-11T05:49:21Z</time>
      </trkpt>
      <trkpt lat="45.30411" lon="4.71061">
        <ele>542</ele>
        <time>2021-07-11T05:49:25Z</time>
      </trkpt>
      <trkpt lat="45.30405" lon="4.71059">
        <ele>542.2</ele>
        <time>2021-07-11T05:49:28Z</time>
      </trkpt>
      <trkpt lat="45.30392" lon="4.71061">
        <ele>542.6</ele>
        <time>2021-07-11T05:49:34Z</time>
      </trkpt>
      <trkpt lat="45.3038" lon="4.71069">
        <ele>542.8</ele>
        <time>2021-07-11T05:49:39Z</time>
      </trkpt>
      <trkpt lat="45.30376" lon="4.71074">
        <ele>543</ele>
        <time>2021-07-11T05:49:42Z</time>
      </trkpt>
      <trkpt lat="45.30372" lon="4.7108">
        <ele>543.2</ele>
        <time>2021-07-11T05:49:45Z</time>
      </trkpt>
      <trkpt lat="45.30366" lon="4.71099">
        <ele>544.2</ele>
        <time>2021-07-11T05:49:52Z</time>
      </trkpt>
      <trkpt lat="45.30362" lon="4.71116">
        <ele>545.2</ele>
        <time>2021-07-11T05:49:58Z</time>
      </trkpt>
      <trkpt lat="45.3036" lon="4.71119">
        <ele>545.4</ele>
        <time>2021-07-11T05:49:59Z</time>
      </trkpt>
      <trkpt lat="45.30356" lon="4.71134">
        <ele>546.2</ele>
        <time>2021-07-11T05:50:05Z</time>
      </trkpt>
      <trkpt lat="45.30356" lon="4.71137">
        <ele>546.4</ele>
        <time>2021-07-11T05:50:06Z</time>
      </trkpt>
      <trkpt lat="45.30353" lon="4.71148">
        <ele>547.4</ele>
        <time>2021-07-11T05:50:11Z</time>
      </trkpt>
      <trkpt lat="45.30353" lon="4.71151">
        <ele>547.6</ele>
        <time>2021-07-11T05:50:12Z</time>
      </trkpt>
      <trkpt lat="45.30352" lon="4.7116">
        <ele>548.6</ele>
        <time>2021-07-11T05:50:15Z</time>
      </trkpt>
      <trkpt lat="45.30351" lon="4.71171">
        <ele>549.8</ele>
        <time>2021-07-11T05:50:19Z</time>
      </trkpt>
      <trkpt lat="45.30351" lon="4.71184">
        <ele>551</ele>
        <time>2021-07-11T05:50:24Z</time>
      </trkpt>
      <trkpt lat="45.30352" lon="4.71187">
        <ele>551.2</ele>
        <time>2021-07-11T05:50:25Z</time>
      </trkpt>
      <trkpt lat="45.30353" lon="4.71196">
        <ele>552</ele>
        <time>2021-07-11T05:50:28Z</time>
      </trkpt>
      <trkpt lat="45.30353" lon="4.71206">
        <ele>552.8</ele>
        <time>2021-07-11T05:50:32Z</time>
      </trkpt>
      <trkpt lat="45.30353" lon="4.71209">
        <ele>553.2</ele>
        <time>2021-07-11T05:50:33Z</time>
      </trkpt>
      <trkpt lat="45.30355" lon="4.71219">
        <ele>554.6</ele>
        <time>2021-07-11T05:50:37Z</time>
      </trkpt>
      <trkpt lat="45.30356" lon="4.71227">
        <ele>555.4</ele>
        <time>2021-07-11T05:50:40Z</time>
      </trkpt>
      <trkpt lat="45.30356" lon="4.7123">
        <ele>555.6</ele>
        <time>2021-07-11T05:50:41Z</time>
      </trkpt>
      <trkpt lat="45.30357" lon="4.71244">
        <ele>556.8</ele>
        <time>2021-07-11T05:50:46Z</time>
      </trkpt>
      <trkpt lat="45.30357" lon="4.71247">
        <ele>557</ele>
        <time>2021-07-11T05:50:47Z</time>
      </trkpt>
      <trkpt lat="45.30356" lon="4.7126">
        <ele>558</ele>
        <time>2021-07-11T05:50:52Z</time>
      </trkpt>
      <trkpt lat="45.30353" lon="4.71269">
        <ele>558.6</ele>
        <time>2021-07-11T05:50:55Z</time>
      </trkpt>
      <trkpt lat="45.30345" lon="4.71288">
        <ele>559</ele>
        <time>2021-07-11T05:51:01Z</time>
      </trkpt>
      <trkpt lat="45.30343" lon="4.71289">
        <ele>559</ele>
        <time>2021-07-11T05:51:02Z</time>
      </trkpt>
      <trkpt lat="45.30338" lon="4.7129">
        <ele>559.2</ele>
        <time>2021-07-11T05:51:04Z</time>
      </trkpt>
      <trkpt lat="45.30329" lon="4.71289">
        <ele>559.6</ele>
        <time>2021-07-11T05:51:07Z</time>
      </trkpt>
      <trkpt lat="45.30324" lon="4.71286">
        <ele>560.2</ele>
        <time>2021-07-11T05:51:09Z</time>
      </trkpt>
      <trkpt lat="45.30319" lon="4.71276">
        <ele>561.4</ele>
        <time>2021-07-11T05:51:12Z</time>
      </trkpt>
      <trkpt lat="45.30319" lon="4.71261">
        <ele>562.4</ele>
        <time>2021-07-11T05:51:16Z</time>
      </trkpt>
      <trkpt lat="45.3032" lon="4.71258">
        <ele>562.6</ele>
        <time>2021-07-11T05:51:17Z</time>
      </trkpt>
      <trkpt lat="45.3032" lon="4.71241">
        <ele>563.6</ele>
        <time>2021-07-11T05:51:22Z</time>
      </trkpt>
      <trkpt lat="45.3032" lon="4.71237">
        <ele>563.8</ele>
        <time>2021-07-11T05:51:23Z</time>
      </trkpt>
      <trkpt lat="45.30316" lon="4.71224">
        <ele>564.6</ele>
        <time>2021-07-11T05:51:27Z</time>
      </trkpt>
      <trkpt lat="45.30312" lon="4.71219">
        <ele>564.8</ele>
        <time>2021-07-11T05:51:29Z</time>
      </trkpt>
      <trkpt lat="45.30302" lon="4.71203">
        <ele>565.8</ele>
        <time>2021-07-11T05:51:36Z</time>
      </trkpt>
      <trkpt lat="45.30301" lon="4.71201">
        <ele>565.8</ele>
        <time>2021-07-11T05:51:37Z</time>
      </trkpt>
      <trkpt lat="45.3029" lon="4.71197">
        <ele>566.8</ele>
        <time>2021-07-11T05:51:42Z</time>
      </trkpt>
      <trkpt lat="45.30287" lon="4.71197">
        <ele>567</ele>
        <time>2021-07-11T05:51:43Z</time>
      </trkpt>
      <trkpt lat="45.30276" lon="4.71196">
        <ele>568</ele>
        <time>2021-07-11T05:51:47Z</time>
      </trkpt>
      <trkpt lat="45.30265" lon="4.71198">
        <ele>569.2</ele>
        <time>2021-07-11T05:51:51Z</time>
      </trkpt>
      <trkpt lat="45.30263" lon="4.71197">
        <ele>569.4</ele>
        <time>2021-07-11T05:51:52Z</time>
      </trkpt>
      <trkpt lat="45.30256" lon="4.71196">
        <ele>570.2</ele>
        <time>2021-07-11T05:51:55Z</time>
      </trkpt>
      <trkpt lat="45.30249" lon="4.71198">
        <ele>571</ele>
        <time>2021-07-11T05:51:59Z</time>
      </trkpt>
      <trkpt lat="45.30247" lon="4.71198">
        <ele>571.2</ele>
        <time>2021-07-11T05:52:00Z</time>
      </trkpt>
      <trkpt lat="45.30239" lon="4.71197">
        <ele>572.2</ele>
        <time>2021-07-11T05:52:05Z</time>
      </trkpt>
      <trkpt lat="45.30232" lon="4.71198">
        <ele>572.8</ele>
        <time>2021-07-11T05:52:09Z</time>
      </trkpt>
      <trkpt lat="45.3022" lon="4.71198">
        <ele>573</ele>
        <time>2021-07-11T05:52:16Z</time>
      </trkpt>
      <trkpt lat="45.30213" lon="4.71214">
        <ele>572.8</ele>
        <time>2021-07-11T05:52:20Z</time>
      </trkpt>
      <trkpt lat="45.30212" lon="4.7122">
        <ele>572.6</ele>
        <time>2021-07-11T05:52:21Z</time>
      </trkpt>
      <trkpt lat="45.30208" lon="4.71243">
        <ele>571.2</ele>
        <time>2021-07-11T05:52:24Z</time>
      </trkpt>
      <trkpt lat="45.30207" lon="4.71252">
        <ele>570.6</ele>
        <time>2021-07-11T05:52:25Z</time>
      </trkpt>
      <trkpt lat="45.30205" lon="4.7126">
        <ele>569.8</ele>
        <time>2021-07-11T05:52:26Z</time>
      </trkpt>
      <trkpt lat="45.30203" lon="4.71276">
        <ele>568.4</ele>
        <time>2021-07-11T05:52:28Z</time>
      </trkpt>
      <trkpt lat="45.30199" lon="4.71294">
        <ele>566.8</ele>
        <time>2021-07-11T05:52:30Z</time>
      </trkpt>
      <trkpt lat="45.30191" lon="4.71304">
        <ele>565</ele>
        <time>2021-07-11T05:52:32Z</time>
      </trkpt>
      <trkpt lat="45.30187" lon="4.71308">
        <ele>564</ele>
        <time>2021-07-11T05:52:33Z</time>
      </trkpt>
      <trkpt lat="45.30182" lon="4.71314">
        <ele>562.8</ele>
        <time>2021-07-11T05:52:34Z</time>
      </trkpt>
      <trkpt lat="45.30177" lon="4.71321">
        <ele>561.8</ele>
        <time>2021-07-11T05:52:35Z</time>
      </trkpt>
      <trkpt lat="45.30173" lon="4.71328">
        <ele>560.6</ele>
        <time>2021-07-11T05:52:36Z</time>
      </trkpt>
      <trkpt lat="45.3017" lon="4.71335">
        <ele>558.4</ele>
        <time>2021-07-11T05:52:37Z</time>
      </trkpt>
      <trkpt lat="45.30168" lon="4.71341">
        <ele>557.4</ele>
        <time>2021-07-11T05:52:38Z</time>
      </trkpt>
      <trkpt lat="45.30168" lon="4.71347">
        <ele>556.4</ele>
        <time>2021-07-11T05:52:39Z</time>
      </trkpt>
      <trkpt lat="45.30168" lon="4.71352">
        <ele>555.6</ele>
        <time>2021-07-11T05:52:40Z</time>
      </trkpt>
      <trkpt lat="45.30169" lon="4.71357">
        <ele>554.6</ele>
        <time>2021-07-11T05:52:41Z</time>
      </trkpt>
      <trkpt lat="45.30172" lon="4.71364">
        <ele>553</ele>
        <time>2021-07-11T05:52:43Z</time>
      </trkpt>
      <trkpt lat="45.30173" lon="4.71367">
        <ele>552.6</ele>
        <time>2021-07-11T05:52:44Z</time>
      </trkpt>
      <trkpt lat="45.30179" lon="4.71372">
        <ele>551.8</ele>
        <time>2021-07-11T05:52:46Z</time>
      </trkpt>
      <trkpt lat="45.30187" lon="4.71384">
        <ele>551.2</ele>
        <time>2021-07-11T05:52:49Z</time>
      </trkpt>
      <trkpt lat="45.30189" lon="4.71389">
        <ele>551</ele>
        <time>2021-07-11T05:52:50Z</time>
      </trkpt>
      <trkpt lat="45.30187" lon="4.71399">
        <ele>550.6</ele>
        <time>2021-07-11T05:52:52Z</time>
      </trkpt>
      <trkpt lat="45.30185" lon="4.71409">
        <ele>549.8</ele>
        <time>2021-07-11T05:52:54Z</time>
      </trkpt>
      <trkpt lat="45.30184" lon="4.71413">
        <ele>549.2</ele>
        <time>2021-07-11T05:52:55Z</time>
      </trkpt>
      <trkpt lat="45.3018" lon="4.71421">
        <ele>548.6</ele>
        <time>2021-07-11T05:52:56Z</time>
      </trkpt>
      <trkpt lat="45.30176" lon="4.71429">
        <ele>548</ele>
        <time>2021-07-11T05:52:57Z</time>
      </trkpt>
      <trkpt lat="45.30169" lon="4.71442">
        <ele>546.6</ele>
        <time>2021-07-11T05:52:59Z</time>
      </trkpt>
      <trkpt lat="45.30162" lon="4.71451">
        <ele>544</ele>
        <time>2021-07-11T05:53:01Z</time>
      </trkpt>
      <trkpt lat="45.30158" lon="4.71452">
        <ele>543</ele>
        <time>2021-07-11T05:53:02Z</time>
      </trkpt>
      <trkpt lat="45.30154" lon="4.71453">
        <ele>542</ele>
        <time>2021-07-11T05:53:03Z</time>
      </trkpt>
      <trkpt lat="45.30143" lon="4.71453">
        <ele>540.4</ele>
        <time>2021-07-11T05:53:05Z</time>
      </trkpt>
      <trkpt lat="45.30138" lon="4.71452">
        <ele>539.8</ele>
        <time>2021-07-11T05:53:06Z</time>
      </trkpt>
      <trkpt lat="45.30132" lon="4.7145">
        <ele>539.2</ele>
        <time>2021-07-11T05:53:07Z</time>
      </trkpt>
      <trkpt lat="45.30122" lon="4.71444">
        <ele>538.2</ele>
        <time>2021-07-11T05:53:09Z</time>
      </trkpt>
      <trkpt lat="45.30112" lon="4.71438">
        <ele>537.2</ele>
        <time>2021-07-11T05:53:11Z</time>
      </trkpt>
      <trkpt lat="45.301" lon="4.71432">
        <ele>535.6</ele>
        <time>2021-07-11T05:53:14Z</time>
      </trkpt>
      <trkpt lat="45.30094" lon="4.7143">
        <ele>534.6</ele>
        <time>2021-07-11T05:53:16Z</time>
      </trkpt>
      <trkpt lat="45.30085" lon="4.71428">
        <ele>533.4</ele>
        <time>2021-07-11T05:53:19Z</time>
      </trkpt>
      <trkpt lat="45.30075" lon="4.71425">
        <ele>532</ele>
        <time>2021-07-11T05:53:23Z</time>
      </trkpt>
      <trkpt lat="45.30073" lon="4.71423">
        <ele>531.4</ele>
        <time>2021-07-11T05:53:24Z</time>
      </trkpt>
      <trkpt lat="45.30071" lon="4.71421">
        <ele>530.8</ele>
        <time>2021-07-11T05:53:25Z</time>
      </trkpt>
      <trkpt lat="45.30069" lon="4.71418">
        <ele>530.4</ele>
        <time>2021-07-11T05:53:27Z</time>
      </trkpt>
      <trkpt lat="45.30067" lon="4.71411">
        <ele>530.4</ele>
        <time>2021-07-11T05:53:30Z</time>
      </trkpt>
      <trkpt lat="45.30067" lon="4.71399">
        <ele>530.8</ele>
        <time>2021-07-11T05:53:34Z</time>
      </trkpt>
      <trkpt lat="45.30066" lon="4.71387">
        <ele>532</ele>
        <time>2021-07-11T05:53:39Z</time>
      </trkpt>
      <trkpt lat="45.30066" lon="4.71382">
        <ele>532.8</ele>
        <time>2021-07-11T05:53:42Z</time>
      </trkpt>
      <trkpt lat="45.30065" lon="4.71381">
        <ele>533</ele>
        <time>2021-07-11T05:53:43Z</time>
      </trkpt>
      <trkpt lat="45.30063" lon="4.71373">
        <ele>534</ele>
        <time>2021-07-11T05:53:47Z</time>
      </trkpt>
      <trkpt lat="45.30063" lon="4.71369">
        <ele>534.8</ele>
        <time>2021-07-11T05:53:49Z</time>
      </trkpt>
      <trkpt lat="45.30061" lon="4.71364">
        <ele>535.2</ele>
        <time>2021-07-11T05:53:51Z</time>
      </trkpt>
      <trkpt lat="45.30058" lon="4.71352">
        <ele>536.4</ele>
        <time>2021-07-11T05:53:56Z</time>
      </trkpt>
      <trkpt lat="45.30053" lon="4.71342">
        <ele>537.6</ele>
        <time>2021-07-11T05:54:00Z</time>
      </trkpt>
      <trkpt lat="45.30048" lon="4.71331">
        <ele>538.6</ele>
        <time>2021-07-11T05:54:04Z</time>
      </trkpt>
      <trkpt lat="45.30035" lon="4.71313">
        <ele>539.4</ele>
        <time>2021-07-11T05:54:11Z</time>
      </trkpt>
      <trkpt lat="45.30022" lon="4.71286">
        <ele>539.6</ele>
        <time>2021-07-11T05:54:20Z</time>
      </trkpt>
      <trkpt lat="45.3001" lon="4.71264">
        <ele>539</ele>
        <time>2021-07-11T05:54:25Z</time>
      </trkpt>
      <trkpt lat="45.29995" lon="4.71235">
        <ele>538.4</ele>
        <time>2021-07-11T05:54:32Z</time>
      </trkpt>
      <trkpt lat="45.29995" lon="4.7122">
        <ele>539.8</ele>
        <time>2021-07-11T05:54:37Z</time>
      </trkpt>
      <trkpt lat="45.2999" lon="4.7119">
        <ele>540.6</ele>
        <time>2021-07-11T05:54:44Z</time>
      </trkpt>
      <trkpt lat="45.29987" lon="4.71171">
        <ele>540.2</ele>
        <time>2021-07-11T05:54:49Z</time>
      </trkpt>
      <trkpt lat="45.29976" lon="4.71143">
        <ele>540.4</ele>
        <time>2021-07-11T05:54:57Z</time>
      </trkpt>
      <trkpt lat="45.29969" lon="4.71129">
        <ele>541</ele>
        <time>2021-07-11T05:55:01Z</time>
      </trkpt>
      <trkpt lat="45.29968" lon="4.71116">
        <ele>541.6</ele>
        <time>2021-07-11T05:55:04Z</time>
      </trkpt>
      <trkpt lat="45.29965" lon="4.71104">
        <ele>542.2</ele>
        <time>2021-07-11T05:55:07Z</time>
      </trkpt>
      <trkpt lat="45.29961" lon="4.71092">
        <ele>542.4</ele>
        <time>2021-07-11T05:55:10Z</time>
      </trkpt>
      <trkpt lat="45.29958" lon="4.71075">
        <ele>543.2</ele>
        <time>2021-07-11T05:55:14Z</time>
      </trkpt>
      <trkpt lat="45.29956" lon="4.71071">
        <ele>543.4</ele>
        <time>2021-07-11T05:55:15Z</time>
      </trkpt>
      <trkpt lat="45.29952" lon="4.71054">
        <ele>544.2</ele>
        <time>2021-07-11T05:55:20Z</time>
      </trkpt>
      <trkpt lat="45.2995" lon="4.7105">
        <ele>544.2</ele>
        <time>2021-07-11T05:55:21Z</time>
      </trkpt>
      <trkpt lat="45.29939" lon="4.71019">
        <ele>543.6</ele>
        <time>2021-07-11T05:55:26Z</time>
      </trkpt>
      <trkpt lat="45.29943" lon="4.70996">
        <ele>543.6</ele>
        <time>2021-07-11T05:55:31Z</time>
      </trkpt>
      <trkpt lat="45.29951" lon="4.70974">
        <ele>545.2</ele>
        <time>2021-07-11T05:55:38Z</time>
      </trkpt>
      <trkpt lat="45.29951" lon="4.70971">
        <ele>545.4</ele>
        <time>2021-07-11T05:55:39Z</time>
      </trkpt>
      <trkpt lat="45.29954" lon="4.70956">
        <ele>546.4</ele>
        <time>2021-07-11T05:55:44Z</time>
      </trkpt>
      <trkpt lat="45.29957" lon="4.70931">
        <ele>546.4</ele>
        <time>2021-07-11T05:55:51Z</time>
      </trkpt>
      <trkpt lat="45.29959" lon="4.70918">
        <ele>546.4</ele>
        <time>2021-07-11T05:55:56Z</time>
      </trkpt>
      <trkpt lat="45.29961" lon="4.70911">
        <ele>546.4</ele>
        <time>2021-07-11T05:55:58Z</time>
      </trkpt>
      <trkpt lat="45.2996" lon="4.70891">
        <ele>547</ele>
        <time>2021-07-11T05:56:05Z</time>
      </trkpt>
      <trkpt lat="45.29959" lon="4.70868">
        <ele>547.8</ele>
        <time>2021-07-11T05:56:13Z</time>
      </trkpt>
      <trkpt lat="45.2996" lon="4.70865">
        <ele>548</ele>
        <time>2021-07-11T05:56:14Z</time>
      </trkpt>
      <trkpt lat="45.2996" lon="4.70853">
        <ele>548.8</ele>
        <time>2021-07-11T05:56:18Z</time>
      </trkpt>
      <trkpt lat="45.29963" lon="4.70842">
        <ele>550</ele>
        <time>2021-07-11T05:56:23Z</time>
      </trkpt>
      <trkpt lat="45.2998" lon="4.70783">
        <ele>558.2</ele>
        <time>2021-07-11T05:56:51Z</time>
      </trkpt>
      <trkpt lat="45.29983" lon="4.70779">
        <ele>558.6</ele>
        <time>2021-07-11T05:56:54Z</time>
      </trkpt>
      <trkpt lat="45.29988" lon="4.70772">
        <ele>559.4</ele>
        <time>2021-07-11T05:56:58Z</time>
      </trkpt>
      <trkpt lat="45.29943" lon="4.70671">
        <ele>578.2</ele>
        <time>2021-07-11T05:58:55Z</time>
      </trkpt>
      <trkpt lat="45.29942" lon="4.70671">
        <ele>578.4</ele>
        <time>2021-07-11T05:58:56Z</time>
      </trkpt>
      <trkpt lat="45.29935" lon="4.70669">
        <ele>579.4</ele>
        <time>2021-07-11T05:59:00Z</time>
      </trkpt>
      <trkpt lat="45.29933" lon="4.70668">
        <ele>579.4</ele>
        <time>2021-07-11T05:59:01Z</time>
      </trkpt>
      <trkpt lat="45.29931" lon="4.70667">
        <ele>580</ele>
        <time>2021-07-11T05:59:03Z</time>
      </trkpt>
      <trkpt lat="45.29928" lon="4.70663">
        <ele>580.4</ele>
        <time>2021-07-11T05:59:06Z</time>
      </trkpt>
      <trkpt lat="45.29927" lon="4.70662">
        <ele>580.6</ele>
        <time>2021-07-11T05:59:07Z</time>
      </trkpt>
      <trkpt lat="45.29923" lon="4.70654">
        <ele>581</ele>
        <time>2021-07-11T05:59:12Z</time>
      </trkpt>
      <trkpt lat="45.29918" lon="4.70649">
        <ele>581.4</ele>
        <time>2021-07-11T05:59:16Z</time>
      </trkpt>
      <trkpt lat="45.29913" lon="4.70644">
        <ele>581.8</ele>
        <time>2021-07-11T05:59:19Z</time>
      </trkpt>
      <trkpt lat="45.29905" lon="4.70639">
        <ele>582.6</ele>
        <time>2021-07-11T05:59:25Z</time>
      </trkpt>
      <trkpt lat="45.29897" lon="4.70634">
        <ele>583.8</ele>
        <time>2021-07-11T05:59:30Z</time>
      </trkpt>
      <trkpt lat="45.29894" lon="4.70632">
        <ele>584</ele>
        <time>2021-07-11T05:59:32Z</time>
      </trkpt>
      <trkpt lat="45.29882" lon="4.7063">
        <ele>584.8</ele>
        <time>2021-07-11T05:59:38Z</time>
      </trkpt>
      <trkpt lat="45.29879" lon="4.70629">
        <ele>584.8</ele>
        <time>2021-07-11T05:59:39Z</time>
      </trkpt>
      <trkpt lat="45.29864" lon="4.70635">
        <ele>585.2</ele>
        <time>2021-07-11T05:59:47Z</time>
      </trkpt>
      <trkpt lat="45.29859" lon="4.70641">
        <ele>585.8</ele>
        <time>2021-07-11T05:59:50Z</time>
      </trkpt>
      <trkpt lat="45.2985" lon="4.70648">
        <ele>586.4</ele>
        <time>2021-07-11T05:59:55Z</time>
      </trkpt>
      <trkpt lat="45.29841" lon="4.70657">
        <ele>586.8</ele>
        <time>2021-07-11T06:00:00Z</time>
      </trkpt>
      <trkpt lat="45.29837" lon="4.7066">
        <ele>587.2</ele>
        <time>2021-07-11T06:00:02Z</time>
      </trkpt>
      <trkpt lat="45.29826" lon="4.70663">
        <ele>588</ele>
        <time>2021-07-11T06:00:07Z</time>
      </trkpt>
      <trkpt lat="45.29822" lon="4.70662">
        <ele>588.2</ele>
        <time>2021-07-11T06:00:09Z</time>
      </trkpt>
      <trkpt lat="45.29811" lon="4.70658">
        <ele>589</ele>
        <time>2021-07-11T06:00:14Z</time>
      </trkpt>
      <trkpt lat="45.29807" lon="4.70658">
        <ele>589.2</ele>
        <time>2021-07-11T06:00:16Z</time>
      </trkpt>
      <trkpt lat="45.29798" lon="4.70671">
        <ele>590</ele>
        <time>2021-07-11T06:00:23Z</time>
      </trkpt>
      <trkpt lat="45.29791" lon="4.70687">
        <ele>590</ele>
        <time>2021-07-11T06:00:29Z</time>
      </trkpt>
      <trkpt lat="45.29791" lon="4.70702">
        <ele>589.8</ele>
        <time>2021-07-11T06:00:32Z</time>
      </trkpt>
      <trkpt lat="45.29791" lon="4.70709">
        <ele>589.6</ele>
        <time>2021-07-11T06:00:33Z</time>
      </trkpt>
      <trkpt lat="45.29792" lon="4.70736">
        <ele>588.8</ele>
        <time>2021-07-11T06:00:36Z</time>
      </trkpt>
      <trkpt lat="45.29789" lon="4.70755">
        <ele>586.8</ele>
        <time>2021-07-11T06:00:38Z</time>
      </trkpt>
      <trkpt lat="45.29787" lon="4.70763">
        <ele>585.8</ele>
        <time>2021-07-11T06:00:39Z</time>
      </trkpt>
      <trkpt lat="45.29784" lon="4.7077">
        <ele>584.6</ele>
        <time>2021-07-11T06:00:40Z</time>
      </trkpt>
      <trkpt lat="45.29781" lon="4.70776">
        <ele>583.6</ele>
        <time>2021-07-11T06:00:41Z</time>
      </trkpt>
      <trkpt lat="45.29778" lon="4.70782">
        <ele>582.6</ele>
        <time>2021-07-11T06:00:42Z</time>
      </trkpt>
      <trkpt lat="45.29775" lon="4.70788">
        <ele>581.4</ele>
        <time>2021-07-11T06:00:43Z</time>
      </trkpt>
      <trkpt lat="45.29773" lon="4.70795">
        <ele>580.4</ele>
        <time>2021-07-11T06:00:44Z</time>
      </trkpt>
      <trkpt lat="45.29769" lon="4.70802">
        <ele>579.2</ele>
        <time>2021-07-11T06:00:45Z</time>
      </trkpt>
      <trkpt lat="45.29765" lon="4.7081">
        <ele>578.2</ele>
        <time>2021-07-11T06:00:46Z</time>
      </trkpt>
      <trkpt lat="45.29761" lon="4.70816">
        <ele>577</ele>
        <time>2021-07-11T06:00:47Z</time>
      </trkpt>
      <trkpt lat="45.29757" lon="4.70821">
        <ele>576</ele>
        <time>2021-07-11T06:00:48Z</time>
      </trkpt>
      <trkpt lat="45.29754" lon="4.70827">
        <ele>574.6</ele>
        <time>2021-07-11T06:00:49Z</time>
      </trkpt>
      <trkpt lat="45.29753" lon="4.70832">
        <ele>573.2</ele>
        <time>2021-07-11T06:00:50Z</time>
      </trkpt>
      <trkpt lat="45.29752" lon="4.70837">
        <ele>572</ele>
        <time>2021-07-11T06:00:51Z</time>
      </trkpt>
      <trkpt lat="45.2975" lon="4.70841">
        <ele>570.8</ele>
        <time>2021-07-11T06:00:52Z</time>
      </trkpt>
      <trkpt lat="45.29749" lon="4.70844">
        <ele>569.6</ele>
        <time>2021-07-11T06:00:53Z</time>
      </trkpt>
      <trkpt lat="45.29748" lon="4.70848">
        <ele>568.4</ele>
        <time>2021-07-11T06:00:54Z</time>
      </trkpt>
      <trkpt lat="45.29746" lon="4.7085">
        <ele>567.4</ele>
        <time>2021-07-11T06:00:55Z</time>
      </trkpt>
      <trkpt lat="45.29744" lon="4.7085">
        <ele>566.2</ele>
        <time>2021-07-11T06:00:56Z</time>
      </trkpt>
      <trkpt lat="45.29742" lon="4.70851">
        <ele>565.2</ele>
        <time>2021-07-11T06:00:57Z</time>
      </trkpt>
      <trkpt lat="45.29739" lon="4.70851">
        <ele>564</ele>
        <time>2021-07-11T06:00:58Z</time>
      </trkpt>
      <trkpt lat="45.29736" lon="4.70852">
        <ele>563</ele>
        <time>2021-07-11T06:00:59Z</time>
      </trkpt>
      <trkpt lat="45.29731" lon="4.70856">
        <ele>561.4</ele>
        <time>2021-07-11T06:01:01Z</time>
      </trkpt>
      <trkpt lat="45.29729" lon="4.70857">
        <ele>560</ele>
        <time>2021-07-11T06:01:02Z</time>
      </trkpt>
      <trkpt lat="45.29728" lon="4.7086">
        <ele>559.2</ele>
        <time>2021-07-11T06:01:03Z</time>
      </trkpt>
      <trkpt lat="45.29727" lon="4.70864">
        <ele>558.4</ele>
        <time>2021-07-11T06:01:04Z</time>
      </trkpt>
      <trkpt lat="45.2973" lon="4.70873">
        <ele>556.6</ele>
        <time>2021-07-11T06:01:06Z</time>
      </trkpt>
      <trkpt lat="45.29738" lon="4.70882">
        <ele>555</ele>
        <time>2021-07-11T06:01:08Z</time>
      </trkpt>
      <trkpt lat="45.29743" lon="4.70885">
        <ele>554.4</ele>
        <time>2021-07-11T06:01:09Z</time>
      </trkpt>
      <trkpt lat="45.29747" lon="4.70888">
        <ele>553.6</ele>
        <time>2021-07-11T06:01:10Z</time>
      </trkpt>
      <trkpt lat="45.29757" lon="4.70891">
        <ele>552.2</ele>
        <time>2021-07-11T06:01:12Z</time>
      </trkpt>
      <trkpt lat="45.29766" lon="4.70888">
        <ele>550.6</ele>
        <time>2021-07-11T06:01:14Z</time>
      </trkpt>
      <trkpt lat="45.29775" lon="4.70882">
        <ele>548.8</ele>
        <time>2021-07-11T06:01:16Z</time>
      </trkpt>
      <trkpt lat="45.29784" lon="4.70875">
        <ele>547.4</ele>
        <time>2021-07-11T06:01:18Z</time>
      </trkpt>
      <trkpt lat="45.29789" lon="4.70871">
        <ele>546.8</ele>
        <time>2021-07-11T06:01:19Z</time>
      </trkpt>
      <trkpt lat="45.29793" lon="4.70867">
        <ele>546.4</ele>
        <time>2021-07-11T06:01:20Z</time>
      </trkpt>
      <trkpt lat="45.29798" lon="4.70863">
        <ele>545.8</ele>
        <time>2021-07-11T06:01:21Z</time>
      </trkpt>
      <trkpt lat="45.29811" lon="4.70856">
        <ele>544.8</ele>
        <time>2021-07-11T06:01:23Z</time>
      </trkpt>
      <trkpt lat="45.29824" lon="4.70848">
        <ele>543.6</ele>
        <time>2021-07-11T06:01:25Z</time>
      </trkpt>
      <trkpt lat="45.29831" lon="4.70847">
        <ele>542.2</ele>
        <time>2021-07-11T06:01:26Z</time>
      </trkpt>
      <trkpt lat="45.29838" lon="4.70847">
        <ele>541.4</ele>
        <time>2021-07-11T06:01:27Z</time>
      </trkpt>
      <trkpt lat="45.29844" lon="4.70849">
        <ele>540.6</ele>
        <time>2021-07-11T06:01:28Z</time>
      </trkpt>
      <trkpt lat="45.29855" lon="4.70857">
        <ele>538.8</ele>
        <time>2021-07-11T06:01:30Z</time>
      </trkpt>
      <trkpt lat="45.2986" lon="4.7086">
        <ele>537.8</ele>
        <time>2021-07-11T06:01:31Z</time>
      </trkpt>
      <trkpt lat="45.29864" lon="4.70863">
        <ele>536.8</ele>
        <time>2021-07-11T06:01:32Z</time>
      </trkpt>
      <trkpt lat="45.29866" lon="4.70866">
        <ele>535.8</ele>
        <time>2021-07-11T06:01:33Z</time>
      </trkpt>
      <trkpt lat="45.29868" lon="4.70869">
        <ele>534.6</ele>
        <time>2021-07-11T06:01:34Z</time>
      </trkpt>
      <trkpt lat="45.29869" lon="4.70873">
        <ele>533.8</ele>
        <time>2021-07-11T06:01:35Z</time>
      </trkpt>
      <trkpt lat="45.2987" lon="4.70877">
        <ele>532.8</ele>
        <time>2021-07-11T06:01:36Z</time>
      </trkpt>
      <trkpt lat="45.2987" lon="4.70885">
        <ele>531.4</ele>
        <time>2021-07-11T06:01:38Z</time>
      </trkpt>
      <trkpt lat="45.29869" lon="4.70895">
        <ele>530.4</ele>
        <time>2021-07-11T06:01:40Z</time>
      </trkpt>
      <trkpt lat="45.29866" lon="4.709">
        <ele>526</ele>
        <time>2021-07-11T06:01:46Z</time>
      </trkpt>
      <trkpt lat="45.2986" lon="4.70903">
        <ele>524.6</ele>
        <time>2021-07-11T06:01:48Z</time>
      </trkpt>
      <trkpt lat="45.29853" lon="4.70906">
        <ele>523.2</ele>
        <time>2021-07-11T06:01:50Z</time>
      </trkpt>
      <trkpt lat="45.29849" lon="4.70909">
        <ele>522.8</ele>
        <time>2021-07-11T06:01:51Z</time>
      </trkpt>
      <trkpt lat="45.29844" lon="4.70915">
        <ele>522</ele>
        <time>2021-07-11T06:01:53Z</time>
      </trkpt>
      <trkpt lat="45.29836" lon="4.70922">
        <ele>520.4</ele>
        <time>2021-07-11T06:01:56Z</time>
      </trkpt>
      <trkpt lat="45.29833" lon="4.70924">
        <ele>519.8</ele>
        <time>2021-07-11T06:01:57Z</time>
      </trkpt>
      <trkpt lat="45.29831" lon="4.70926">
        <ele>519.4</ele>
        <time>2021-07-11T06:01:58Z</time>
      </trkpt>
      <trkpt lat="45.29819" lon="4.70936">
        <ele>514.4</ele>
        <time>2021-07-11T06:02:15Z</time>
      </trkpt>
      <trkpt lat="45.29817" lon="4.70938">
        <ele>514.2</ele>
        <time>2021-07-11T06:02:16Z</time>
      </trkpt>
      <trkpt lat="45.29815" lon="4.7094">
        <ele>514.2</ele>
        <time>2021-07-11T06:02:17Z</time>
      </trkpt>
      <trkpt lat="45.29808" lon="4.70952">
        <ele>513.6</ele>
        <time>2021-07-11T06:02:20Z</time>
      </trkpt>
      <trkpt lat="45.29804" lon="4.70956">
        <ele>513.2</ele>
        <time>2021-07-11T06:02:21Z</time>
      </trkpt>
      <trkpt lat="45.29795" lon="4.70967">
        <ele>512.2</ele>
        <time>2021-07-11T06:02:23Z</time>
      </trkpt>
      <trkpt lat="45.29791" lon="4.70972">
        <ele>511.8</ele>
        <time>2021-07-11T06:02:24Z</time>
      </trkpt>
      <trkpt lat="45.29778" lon="4.70989">
        <ele>510.6</ele>
        <time>2021-07-11T06:02:27Z</time>
      </trkpt>
      <trkpt lat="45.29767" lon="4.71004">
        <ele>509.6</ele>
        <time>2021-07-11T06:02:30Z</time>
      </trkpt>
      <trkpt lat="45.29764" lon="4.71009">
        <ele>509.6</ele>
        <time>2021-07-11T06:02:31Z</time>
      </trkpt>
      <trkpt lat="45.29743" lon="4.7104">
        <ele>509.2</ele>
        <time>2021-07-11T06:02:38Z</time>
      </trkpt>
      <trkpt lat="45.29729" lon="4.71051">
        <ele>509</ele>
        <time>2021-07-11T06:02:43Z</time>
      </trkpt>
      <trkpt lat="45.29722" lon="4.71054">
        <ele>508.4</ele>
        <time>2021-07-11T06:02:46Z</time>
      </trkpt>
      <trkpt lat="45.29714" lon="4.71056">
        <ele>507.8</ele>
        <time>2021-07-11T06:02:48Z</time>
      </trkpt>
      <trkpt lat="45.2971" lon="4.7106">
        <ele>507.4</ele>
        <time>2021-07-11T06:02:49Z</time>
      </trkpt>
      <trkpt lat="45.29701" lon="4.71073">
        <ele>506.2</ele>
        <time>2021-07-11T06:02:52Z</time>
      </trkpt>
      <trkpt lat="45.29691" lon="4.71085">
        <ele>506</ele>
        <time>2021-07-11T06:02:55Z</time>
      </trkpt>
      <trkpt lat="45.2967" lon="4.7111">
        <ele>505.6</ele>
        <time>2021-07-11T06:03:01Z</time>
      </trkpt>
      <trkpt lat="45.29666" lon="4.71115">
        <ele>505</ele>
        <time>2021-07-11T06:03:02Z</time>
      </trkpt>
      <trkpt lat="45.2965" lon="4.7113">
        <ele>504</ele>
        <time>2021-07-11T06:03:07Z</time>
      </trkpt>
      <trkpt lat="45.29635" lon="4.71129">
        <ele>503.6</ele>
        <time>2021-07-11T06:03:11Z</time>
      </trkpt>
      <trkpt lat="45.29623" lon="4.71125">
        <ele>503.2</ele>
        <time>2021-07-11T06:03:13Z</time>
      </trkpt>
      <trkpt lat="45.2961" lon="4.71126">
        <ele>503</ele>
        <time>2021-07-11T06:03:15Z</time>
      </trkpt>
      <trkpt lat="45.29576" lon="4.71135">
        <ele>501.8</ele>
        <time>2021-07-11T06:03:21Z</time>
      </trkpt>
      <trkpt lat="45.29571" lon="4.71136">
        <ele>501.8</ele>
        <time>2021-07-11T06:03:22Z</time>
      </trkpt>
      <trkpt lat="45.29547" lon="4.71144">
        <ele>500.8</ele>
        <time>2021-07-11T06:03:28Z</time>
      </trkpt>
      <trkpt lat="45.29543" lon="4.71145">
        <ele>500.6</ele>
        <time>2021-07-11T06:03:29Z</time>
      </trkpt>
      <trkpt lat="45.29536" lon="4.71144">
        <ele>500.4</ele>
        <time>2021-07-11T06:03:31Z</time>
      </trkpt>
      <trkpt lat="45.29525" lon="4.71137">
        <ele>500.4</ele>
        <time>2021-07-11T06:03:36Z</time>
      </trkpt>
      <trkpt lat="45.29518" lon="4.71127">
        <ele>502</ele>
        <time>2021-07-11T06:03:41Z</time>
      </trkpt>
      <trkpt lat="45.29513" lon="4.7112">
        <ele>502.8</ele>
        <time>2021-07-11T06:03:44Z</time>
      </trkpt>
      <trkpt lat="45.29509" lon="4.71115">
        <ele>503.2</ele>
        <time>2021-07-11T06:03:46Z</time>
      </trkpt>
      <trkpt lat="45.29506" lon="4.71104">
        <ele>503.4</ele>
        <time>2021-07-11T06:03:49Z</time>
      </trkpt>
      <trkpt lat="45.295" lon="4.71077">
        <ele>503.4</ele>
        <time>2021-07-11T06:03:56Z</time>
      </trkpt>
      <trkpt lat="45.29492" lon="4.71049">
        <ele>503.8</ele>
        <time>2021-07-11T06:04:04Z</time>
      </trkpt>
      <trkpt lat="45.29483" lon="4.71016">
        <ele>503.6</ele>
        <time>2021-07-11T06:04:12Z</time>
      </trkpt>
      <trkpt lat="45.29473" lon="4.71002">
        <ele>502.8</ele>
        <time>2021-07-11T06:04:17Z</time>
      </trkpt>
      <trkpt lat="45.29454" lon="4.70994">
        <ele>502.4</ele>
        <time>2021-07-11T06:04:24Z</time>
      </trkpt>
      <trkpt lat="45.2944" lon="4.70993">
        <ele>502.8</ele>
        <time>2021-07-11T06:04:30Z</time>
      </trkpt>
      <trkpt lat="45.29421" lon="4.70993">
        <ele>503</ele>
        <time>2021-07-11T06:04:36Z</time>
      </trkpt>
      <trkpt lat="45.29404" lon="4.71">
        <ele>502.8</ele>
        <time>2021-07-11T06:04:42Z</time>
      </trkpt>
      <trkpt lat="45.29387" lon="4.71018">
        <ele>502</ele>
        <time>2021-07-11T06:04:48Z</time>
      </trkpt>
      <trkpt lat="45.29383" lon="4.71019">
        <ele>501.8</ele>
        <time>2021-07-11T06:04:49Z</time>
      </trkpt>
      <trkpt lat="45.29354" lon="4.71031">
        <ele>502.6</ele>
        <time>2021-07-11T06:04:57Z</time>
      </trkpt>
      <trkpt lat="45.29341" lon="4.71037">
        <ele>503</ele>
        <time>2021-07-11T06:05:01Z</time>
      </trkpt>
      <trkpt lat="45.29333" lon="4.7104">
        <ele>503.6</ele>
        <time>2021-07-11T06:05:04Z</time>
      </trkpt>
      <trkpt lat="45.29315" lon="4.71043">
        <ele>504.2</ele>
        <time>2021-07-11T06:05:10Z</time>
      </trkpt>
      <trkpt lat="45.29313" lon="4.71044">
        <ele>504.6</ele>
        <time>2021-07-11T06:05:11Z</time>
      </trkpt>
      <trkpt lat="45.29304" lon="4.71043">
        <ele>505.4</ele>
        <time>2021-07-11T06:05:14Z</time>
      </trkpt>
      <trkpt lat="45.29295" lon="4.71044">
        <ele>506.4</ele>
        <time>2021-07-11T06:05:17Z</time>
      </trkpt>
      <trkpt lat="45.29292" lon="4.71044">
        <ele>506.8</ele>
        <time>2021-07-11T06:05:18Z</time>
      </trkpt>
      <trkpt lat="45.29287" lon="4.71044">
        <ele>507.6</ele>
        <time>2021-07-11T06:05:20Z</time>
      </trkpt>
      <trkpt lat="45.29276" lon="4.71045">
        <ele>508.6</ele>
        <time>2021-07-11T06:05:24Z</time>
      </trkpt>
      <trkpt lat="45.29258" lon="4.71044">
        <ele>509.6</ele>
        <time>2021-07-11T06:05:31Z</time>
      </trkpt>
      <trkpt lat="45.29253" lon="4.71043">
        <ele>509.8</ele>
        <time>2021-07-11T06:05:33Z</time>
      </trkpt>
      <trkpt lat="45.2924" lon="4.71042">
        <ele>510.2</ele>
        <time>2021-07-11T06:05:38Z</time>
      </trkpt>
      <trkpt lat="45.29218" lon="4.7104">
        <ele>510.6</ele>
        <time>2021-07-11T06:05:45Z</time>
      </trkpt>
      <trkpt lat="45.29198" lon="4.71041">
        <ele>510.4</ele>
        <time>2021-07-11T06:05:49Z</time>
      </trkpt>
      <trkpt lat="45.29192" lon="4.7104">
        <ele>510</ele>
        <time>2021-07-11T06:05:50Z</time>
      </trkpt>
      <trkpt lat="45.29179" lon="4.71038">
        <ele>509</ele>
        <time>2021-07-11T06:05:53Z</time>
      </trkpt>
      <trkpt lat="45.29175" lon="4.71036">
        <ele>508.6</ele>
        <time>2021-07-11T06:05:54Z</time>
      </trkpt>
      <trkpt lat="45.29168" lon="4.71026">
        <ele>507.6</ele>
        <time>2021-07-11T06:05:56Z</time>
      </trkpt>
      <trkpt lat="45.29166" lon="4.7102">
        <ele>507</ele>
        <time>2021-07-11T06:05:57Z</time>
      </trkpt>
      <trkpt lat="45.29166" lon="4.71013">
        <ele>506.4</ele>
        <time>2021-07-11T06:05:58Z</time>
      </trkpt>
      <trkpt lat="45.29166" lon="4.70998">
        <ele>505.4</ele>
        <time>2021-07-11T06:06:00Z</time>
      </trkpt>
      <trkpt lat="45.29166" lon="4.70984">
        <ele>504.6</ele>
        <time>2021-07-11T06:06:02Z</time>
      </trkpt>
      <trkpt lat="45.29164" lon="4.70971">
        <ele>504.4</ele>
        <time>2021-07-11T06:06:04Z</time>
      </trkpt>
      <trkpt lat="45.2916" lon="4.70951">
        <ele>504.2</ele>
        <time>2021-07-11T06:06:07Z</time>
      </trkpt>
      <trkpt lat="45.29152" lon="4.70926">
        <ele>504</ele>
        <time>2021-07-11T06:06:11Z</time>
      </trkpt>
      <trkpt lat="45.29137" lon="4.70899">
        <ele>503.6</ele>
        <time>2021-07-11T06:06:16Z</time>
      </trkpt>
      <trkpt lat="45.29135" lon="4.70894">
        <ele>503.4</ele>
        <time>2021-07-11T06:06:17Z</time>
      </trkpt>
      <trkpt lat="45.29133" lon="4.7089">
        <ele>503</ele>
        <time>2021-07-11T06:06:18Z</time>
      </trkpt>
      <trkpt lat="45.29128" lon="4.70874">
        <ele>502</ele>
        <time>2021-07-11T06:06:22Z</time>
      </trkpt>
      <trkpt lat="45.29119" lon="4.70845">
        <ele>503.4</ele>
        <time>2021-07-11T06:06:30Z</time>
      </trkpt>
      <trkpt lat="45.29116" lon="4.70836">
        <ele>504</ele>
        <time>2021-07-11T06:06:33Z</time>
      </trkpt>
      <trkpt lat="45.29113" lon="4.70828">
        <ele>505</ele>
        <time>2021-07-11T06:06:36Z</time>
      </trkpt>
      <trkpt lat="45.29113" lon="4.70825">
        <ele>505.2</ele>
        <time>2021-07-11T06:06:37Z</time>
      </trkpt>
      <trkpt lat="45.29111" lon="4.70811">
        <ele>506.4</ele>
        <time>2021-07-11T06:06:41Z</time>
      </trkpt>
      <trkpt lat="45.29111" lon="4.70805">
        <ele>506.6</ele>
        <time>2021-07-11T06:06:43Z</time>
      </trkpt>
      <trkpt lat="45.29111" lon="4.7079">
        <ele>507.6</ele>
        <time>2021-07-11T06:06:48Z</time>
      </trkpt>
      <trkpt lat="45.29111" lon="4.70781">
        <ele>508</ele>
        <time>2021-07-11T06:06:51Z</time>
      </trkpt>
      <trkpt lat="45.29111" lon="4.70773">
        <ele>508.6</ele>
        <time>2021-07-11T06:06:54Z</time>
      </trkpt>
      <trkpt lat="45.29111" lon="4.70763">
        <ele>509.2</ele>
        <time>2021-07-11T06:06:57Z</time>
      </trkpt>
      <trkpt lat="45.2911" lon="4.70756">
        <ele>509.8</ele>
        <time>2021-07-11T06:06:59Z</time>
      </trkpt>
      <trkpt lat="45.29106" lon="4.70746">
        <ele>510.8</ele>
        <time>2021-07-11T06:07:03Z</time>
      </trkpt>
      <trkpt lat="45.29104" lon="4.70743">
        <ele>511</ele>
        <time>2021-07-11T06:07:04Z</time>
      </trkpt>
      <trkpt lat="45.291" lon="4.70731">
        <ele>512</ele>
        <time>2021-07-11T06:07:09Z</time>
      </trkpt>
      <trkpt lat="45.29097" lon="4.70728">
        <ele>512.4</ele>
        <time>2021-07-11T06:07:11Z</time>
      </trkpt>
      <trkpt lat="45.29092" lon="4.70714">
        <ele>513.2</ele>
        <time>2021-07-11T06:07:16Z</time>
      </trkpt>
      <trkpt lat="45.2909" lon="4.7071">
        <ele>513.4</ele>
        <time>2021-07-11T06:07:18Z</time>
      </trkpt>
      <trkpt lat="45.2908" lon="4.70689">
        <ele>514</ele>
        <time>2021-07-11T06:07:23Z</time>
      </trkpt>
      <trkpt lat="45.29075" lon="4.70676">
        <ele>514.4</ele>
        <time>2021-07-11T06:07:27Z</time>
      </trkpt>
      <trkpt lat="45.29072" lon="4.70669">
        <ele>514.8</ele>
        <time>2021-07-11T06:07:30Z</time>
      </trkpt>
      <trkpt lat="45.29064" lon="4.70657">
        <ele>515.4</ele>
        <time>2021-07-11T06:07:35Z</time>
      </trkpt>
      <trkpt lat="45.29062" lon="4.70653">
        <ele>515.8</ele>
        <time>2021-07-11T06:07:37Z</time>
      </trkpt>
      <trkpt lat="45.29055" lon="4.70638">
        <ele>516.6</ele>
        <time>2021-07-11T06:07:42Z</time>
      </trkpt>
      <trkpt lat="45.29052" lon="4.70633">
        <ele>516.8</ele>
        <time>2021-07-11T06:07:44Z</time>
      </trkpt>
      <trkpt lat="45.29045" lon="4.70616">
        <ele>517.8</ele>
        <time>2021-07-11T06:07:50Z</time>
      </trkpt>
      <trkpt lat="45.29044" lon="4.70613">
        <ele>518</ele>
        <time>2021-07-11T06:07:51Z</time>
      </trkpt>
      <trkpt lat="45.29043" lon="4.70595">
        <ele>518.8</ele>
        <time>2021-07-11T06:07:58Z</time>
      </trkpt>
      <trkpt lat="45.29041" lon="4.70583">
        <ele>520</ele>
        <time>2021-07-11T06:08:03Z</time>
      </trkpt>
      <trkpt lat="45.29041" lon="4.70581">
        <ele>520.2</ele>
        <time>2021-07-11T06:08:04Z</time>
      </trkpt>
      <trkpt lat="45.29042" lon="4.70573">
        <ele>521</ele>
        <time>2021-07-11T06:08:08Z</time>
      </trkpt>
      <trkpt lat="45.29042" lon="4.70567">
        <ele>521.4</ele>
        <time>2021-07-11T06:08:10Z</time>
      </trkpt>
      <trkpt lat="45.29043" lon="4.70559">
        <ele>522</ele>
        <time>2021-07-11T06:08:13Z</time>
      </trkpt>
      <trkpt lat="45.29042" lon="4.70556">
        <ele>522.2</ele>
        <time>2021-07-11T06:08:14Z</time>
      </trkpt>
      <trkpt lat="45.29038" lon="4.70546">
        <ele>523.4</ele>
        <time>2021-07-11T06:08:18Z</time>
      </trkpt>
      <trkpt lat="45.29035" lon="4.70538">
        <ele>524</ele>
        <time>2021-07-11T06:08:21Z</time>
      </trkpt>
      <trkpt lat="45.29033" lon="4.70532">
        <ele>524.6</ele>
        <time>2021-07-11T06:08:23Z</time>
      </trkpt>
      <trkpt lat="45.2903" lon="4.7052">
        <ele>525.8</ele>
        <time>2021-07-11T06:08:28Z</time>
      </trkpt>
      <trkpt lat="45.29031" lon="4.70517">
        <ele>526</ele>
        <time>2021-07-11T06:08:29Z</time>
      </trkpt>
      <trkpt lat="45.29031" lon="4.70515">
        <ele>526.4</ele>
        <time>2021-07-11T06:08:30Z</time>
      </trkpt>
      <trkpt lat="45.2903" lon="4.70509">
        <ele>527</ele>
        <time>2021-07-11T06:08:32Z</time>
      </trkpt>
      <trkpt lat="45.29032" lon="4.705">
        <ele>528</ele>
        <time>2021-07-11T06:08:35Z</time>
      </trkpt>
      <trkpt lat="45.29033" lon="4.70495">
        <ele>528.6</ele>
        <time>2021-07-11T06:08:37Z</time>
      </trkpt>
      <trkpt lat="45.29033" lon="4.70489">
        <ele>529.2</ele>
        <time>2021-07-11T06:08:39Z</time>
      </trkpt>
      <trkpt lat="45.29029" lon="4.70473">
        <ele>530</ele>
        <time>2021-07-11T06:08:44Z</time>
      </trkpt>
      <trkpt lat="45.29029" lon="4.70466">
        <ele>530.4</ele>
        <time>2021-07-11T06:08:46Z</time>
      </trkpt>
      <trkpt lat="45.29029" lon="4.7045">
        <ele>531</ele>
        <time>2021-07-11T06:08:51Z</time>
      </trkpt>
      <trkpt lat="45.29031" lon="4.7043">
        <ele>531.4</ele>
        <time>2021-07-11T06:08:57Z</time>
      </trkpt>
      <trkpt lat="45.29028" lon="4.70404">
        <ele>532.4</ele>
        <time>2021-07-11T06:09:05Z</time>
      </trkpt>
      <trkpt lat="45.29028" lon="4.70401">
        <ele>532.6</ele>
        <time>2021-07-11T06:09:06Z</time>
      </trkpt>
      <trkpt lat="45.29026" lon="4.70385">
        <ele>533.2</ele>
        <time>2021-07-11T06:09:11Z</time>
      </trkpt>
      <trkpt lat="45.29024" lon="4.70376">
        <ele>533.6</ele>
        <time>2021-07-11T06:09:14Z</time>
      </trkpt>
      <trkpt lat="45.2902" lon="4.70364">
        <ele>534.2</ele>
        <time>2021-07-11T06:09:18Z</time>
      </trkpt>
      <trkpt lat="45.29018" lon="4.7035">
        <ele>534.8</ele>
        <time>2021-07-11T06:09:22Z</time>
      </trkpt>
      <trkpt lat="45.29015" lon="4.70337">
        <ele>535.4</ele>
        <time>2021-07-11T06:09:26Z</time>
      </trkpt>
      <trkpt lat="45.29014" lon="4.70334">
        <ele>535.8</ele>
        <time>2021-07-11T06:09:27Z</time>
      </trkpt>
      <trkpt lat="45.29018" lon="4.70308">
        <ele>536.8</ele>
        <time>2021-07-11T06:09:34Z</time>
      </trkpt>
      <trkpt lat="45.29018" lon="4.70304">
        <ele>536.8</ele>
        <time>2021-07-11T06:09:35Z</time>
      </trkpt>
      <trkpt lat="45.29022" lon="4.70285">
        <ele>538</ele>
        <time>2021-07-11T06:09:41Z</time>
      </trkpt>
      <trkpt lat="45.29022" lon="4.70282">
        <ele>538.2</ele>
        <time>2021-07-11T06:09:42Z</time>
      </trkpt>
      <trkpt lat="45.29025" lon="4.70268">
        <ele>539</ele>
        <time>2021-07-11T06:09:47Z</time>
      </trkpt>
      <trkpt lat="45.29025" lon="4.70265">
        <ele>539</ele>
        <time>2021-07-11T06:09:48Z</time>
      </trkpt>
      <trkpt lat="45.29028" lon="4.70249">
        <ele>540.2</ele>
        <time>2021-07-11T06:09:54Z</time>
      </trkpt>
      <trkpt lat="45.29028" lon="4.70245">
        <ele>540.4</ele>
        <time>2021-07-11T06:09:55Z</time>
      </trkpt>
      <trkpt lat="45.29032" lon="4.70232">
        <ele>541.2</ele>
        <time>2021-07-11T06:09:59Z</time>
      </trkpt>
      <trkpt lat="45.29035" lon="4.70226">
        <ele>541.6</ele>
        <time>2021-07-11T06:10:01Z</time>
      </trkpt>
      <trkpt lat="45.29041" lon="4.70214">
        <ele>542.4</ele>
        <time>2021-07-11T06:10:05Z</time>
      </trkpt>
      <trkpt lat="45.29045" lon="4.70207">
        <ele>542.8</ele>
        <time>2021-07-11T06:10:08Z</time>
      </trkpt>
      <trkpt lat="45.2905" lon="4.70198">
        <ele>543.4</ele>
        <time>2021-07-11T06:10:12Z</time>
      </trkpt>
      <trkpt lat="45.29053" lon="4.70195">
        <ele>543.6</ele>
        <time>2021-07-11T06:10:14Z</time>
      </trkpt>
      <trkpt lat="45.29057" lon="4.70185">
        <ele>544.4</ele>
        <time>2021-07-11T06:10:21Z</time>
      </trkpt>
      <trkpt lat="45.29058" lon="4.70181">
        <ele>544.6</ele>
        <time>2021-07-11T06:10:23Z</time>
      </trkpt>
      <trkpt lat="45.29063" lon="4.70168">
        <ele>545</ele>
        <time>2021-07-11T06:10:29Z</time>
      </trkpt>
      <trkpt lat="45.29074" lon="4.70157">
        <ele>545.4</ele>
        <time>2021-07-11T06:10:37Z</time>
      </trkpt>
      <trkpt lat="45.29075" lon="4.70156">
        <ele>545.6</ele>
        <time>2021-07-11T06:10:38Z</time>
      </trkpt>
      <trkpt lat="45.29085" lon="4.70149">
        <ele>546.6</ele>
        <time>2021-07-11T06:10:43Z</time>
      </trkpt>
      <trkpt lat="45.29086" lon="4.70148">
        <ele>546.8</ele>
        <time>2021-07-11T06:10:44Z</time>
      </trkpt>
      <trkpt lat="45.29094" lon="4.70137">
        <ele>547.2</ele>
        <time>2021-07-11T06:10:50Z</time>
      </trkpt>
      <trkpt lat="45.29098" lon="4.70119">
        <ele>547.4</ele>
        <time>2021-07-11T06:10:57Z</time>
      </trkpt>
      <trkpt lat="45.29099" lon="4.701">
        <ele>547.6</ele>
        <time>2021-07-11T06:11:02Z</time>
      </trkpt>
      <trkpt lat="45.291" lon="4.70096">
        <ele>548</ele>
        <time>2021-07-11T06:11:03Z</time>
      </trkpt>
      <trkpt lat="45.291" lon="4.70083">
        <ele>548.8</ele>
        <time>2021-07-11T06:11:07Z</time>
      </trkpt>
      <trkpt lat="45.29099" lon="4.70068">
        <ele>549.8</ele>
        <time>2021-07-11T06:11:11Z</time>
      </trkpt>
      <trkpt lat="45.29099" lon="4.70064">
        <ele>550</ele>
        <time>2021-07-11T06:11:12Z</time>
      </trkpt>
      <trkpt lat="45.291" lon="4.7005">
        <ele>551</ele>
        <time>2021-07-11T06:11:16Z</time>
      </trkpt>
      <trkpt lat="45.29102" lon="4.70043">
        <ele>551.4</ele>
        <time>2021-07-11T06:11:18Z</time>
      </trkpt>
      <trkpt lat="45.29104" lon="4.70035">
        <ele>552</ele>
        <time>2021-07-11T06:11:21Z</time>
      </trkpt>
      <trkpt lat="45.29108" lon="4.70022">
        <ele>553.2</ele>
        <time>2021-07-11T06:11:26Z</time>
      </trkpt>
      <trkpt lat="45.29112" lon="4.70013">
        <ele>554.2</ele>
        <time>2021-07-11T06:11:30Z</time>
      </trkpt>
      <trkpt lat="45.29115" lon="4.70004">
        <ele>555</ele>
        <time>2021-07-11T06:11:34Z</time>
      </trkpt>
      <trkpt lat="45.29116" lon="4.70001">
        <ele>555.2</ele>
        <time>2021-07-11T06:11:35Z</time>
      </trkpt>
      <trkpt lat="45.29122" lon="4.69988">
        <ele>556.2</ele>
        <time>2021-07-11T06:11:41Z</time>
      </trkpt>
      <trkpt lat="45.29126" lon="4.69981">
        <ele>557.2</ele>
        <time>2021-07-11T06:11:45Z</time>
      </trkpt>
      <trkpt lat="45.29129" lon="4.69973">
        <ele>558.2</ele>
        <time>2021-07-11T06:11:49Z</time>
      </trkpt>
      <trkpt lat="45.2913" lon="4.69971">
        <ele>558.4</ele>
        <time>2021-07-11T06:11:50Z</time>
      </trkpt>
      <trkpt lat="45.29133" lon="4.69966">
        <ele>559.4</ele>
        <time>2021-07-11T06:11:53Z</time>
      </trkpt>
      <trkpt lat="45.29134" lon="4.69962">
        <ele>560</ele>
        <time>2021-07-11T06:11:55Z</time>
      </trkpt>
      <trkpt lat="45.29136" lon="4.69958">
        <ele>560.6</ele>
        <time>2021-07-11T06:11:57Z</time>
      </trkpt>
      <trkpt lat="45.2914" lon="4.69949">
        <ele>561.8</ele>
        <time>2021-07-11T06:12:01Z</time>
      </trkpt>
      <trkpt lat="45.29141" lon="4.69947">
        <ele>562</ele>
        <time>2021-07-11T06:12:02Z</time>
      </trkpt>
      <trkpt lat="45.29143" lon="4.69943">
        <ele>562.8</ele>
        <time>2021-07-11T06:12:05Z</time>
      </trkpt>
      <trkpt lat="45.29147" lon="4.69937">
        <ele>563.6</ele>
        <time>2021-07-11T06:12:08Z</time>
      </trkpt>
      <trkpt lat="45.29149" lon="4.69934">
        <ele>564</ele>
        <time>2021-07-11T06:12:10Z</time>
      </trkpt>
      <trkpt lat="45.29152" lon="4.69925">
        <ele>565.4</ele>
        <time>2021-07-11T06:12:15Z</time>
      </trkpt>
      <trkpt lat="45.29156" lon="4.69916">
        <ele>566.6</ele>
        <time>2021-07-11T06:12:20Z</time>
      </trkpt>
      <trkpt lat="45.29158" lon="4.69909">
        <ele>567.4</ele>
        <time>2021-07-11T06:12:24Z</time>
      </trkpt>
      <trkpt lat="45.29158" lon="4.69907">
        <ele>567.6</ele>
        <time>2021-07-11T06:12:25Z</time>
      </trkpt>
      <trkpt lat="45.29161" lon="4.69889">
        <ele>568.6</ele>
        <time>2021-07-11T06:12:33Z</time>
      </trkpt>
      <trkpt lat="45.29161" lon="4.69884">
        <ele>568.8</ele>
        <time>2021-07-11T06:12:35Z</time>
      </trkpt>
      <trkpt lat="45.29163" lon="4.69874">
        <ele>569.2</ele>
        <time>2021-07-11T06:12:39Z</time>
      </trkpt>
      <trkpt lat="45.29168" lon="4.69859">
        <ele>569.4</ele>
        <time>2021-07-11T06:12:46Z</time>
      </trkpt>
      <trkpt lat="45.29174" lon="4.69852">
        <ele>569.8</ele>
        <time>2021-07-11T06:12:50Z</time>
      </trkpt>
      <trkpt lat="45.29179" lon="4.69848">
        <ele>570</ele>
        <time>2021-07-11T06:12:53Z</time>
      </trkpt>
      <trkpt lat="45.29192" lon="4.69841">
        <ele>570.4</ele>
        <time>2021-07-11T06:13:00Z</time>
      </trkpt>
      <trkpt lat="45.29209" lon="4.6983">
        <ele>570.6</ele>
        <time>2021-07-11T06:13:09Z</time>
      </trkpt>
      <trkpt lat="45.2923" lon="4.69819">
        <ele>570.4</ele>
        <time>2021-07-11T06:13:19Z</time>
      </trkpt>
      <trkpt lat="45.29249" lon="4.6981">
        <ele>570.2</ele>
        <time>2021-07-11T06:13:24Z</time>
      </trkpt>
      <trkpt lat="45.29278" lon="4.69788">
        <ele>568.8</ele>
        <time>2021-07-11T06:13:31Z</time>
      </trkpt>
      <trkpt lat="45.29304" lon="4.69758">
        <ele>568</ele>
        <time>2021-07-11T06:13:37Z</time>
      </trkpt>
      <trkpt lat="45.29309" lon="4.69751">
        <ele>567.8</ele>
        <time>2021-07-11T06:13:38Z</time>
      </trkpt>
      <trkpt lat="45.29329" lon="4.69729">
        <ele>566.2</ele>
        <time>2021-07-11T06:13:41Z</time>
      </trkpt>
      <trkpt lat="45.29343" lon="4.69715">
        <ele>564.8</ele>
        <time>2021-07-11T06:13:43Z</time>
      </trkpt>
      <trkpt lat="45.29358" lon="4.69696">
        <ele>563.4</ele>
        <time>2021-07-11T06:13:45Z</time>
      </trkpt>
      <trkpt lat="45.29366" lon="4.69688">
        <ele>562.8</ele>
        <time>2021-07-11T06:13:46Z</time>
      </trkpt>
      <trkpt lat="45.29373" lon="4.69681">
        <ele>562</ele>
        <time>2021-07-11T06:13:47Z</time>
      </trkpt>
      <trkpt lat="45.29385" lon="4.69664">
        <ele>560.2</ele>
        <time>2021-07-11T06:13:49Z</time>
      </trkpt>
      <trkpt lat="45.29388" lon="4.69655">
        <ele>559.2</ele>
        <time>2021-07-11T06:13:50Z</time>
      </trkpt>
      <trkpt lat="45.2939" lon="4.69646">
        <ele>556.8</ele>
        <time>2021-07-11T06:13:51Z</time>
      </trkpt>
      <trkpt lat="45.29391" lon="4.69637">
        <ele>555.4</ele>
        <time>2021-07-11T06:13:52Z</time>
      </trkpt>
      <trkpt lat="45.29391" lon="4.69627">
        <ele>554.2</ele>
        <time>2021-07-11T06:13:53Z</time>
      </trkpt>
      <trkpt lat="45.29391" lon="4.69617">
        <ele>553.2</ele>
        <time>2021-07-11T06:13:54Z</time>
      </trkpt>
      <trkpt lat="45.29393" lon="4.69597">
        <ele>551.6</ele>
        <time>2021-07-11T06:13:56Z</time>
      </trkpt>
      <trkpt lat="45.29397" lon="4.69588">
        <ele>551</ele>
        <time>2021-07-11T06:13:57Z</time>
      </trkpt>
      <trkpt lat="45.29402" lon="4.6958">
        <ele>550.6</ele>
        <time>2021-07-11T06:13:58Z</time>
      </trkpt>
      <trkpt lat="45.29414" lon="4.69567">
        <ele>549.8</ele>
        <time>2021-07-11T06:14:00Z</time>
      </trkpt>
      <trkpt lat="45.29419" lon="4.6956">
        <ele>549.2</ele>
        <time>2021-07-11T06:14:01Z</time>
      </trkpt>
      <trkpt lat="45.29428" lon="4.69548">
        <ele>548.6</ele>
        <time>2021-07-11T06:14:03Z</time>
      </trkpt>
      <trkpt lat="45.29431" lon="4.69543">
        <ele>548.6</ele>
        <time>2021-07-11T06:14:04Z</time>
      </trkpt>
      <trkpt lat="45.29445" lon="4.69524">
        <ele>549</ele>
        <time>2021-07-11T06:14:09Z</time>
      </trkpt>
      <trkpt lat="45.29451" lon="4.69512">
        <ele>550.4</ele>
        <time>2021-07-11T06:14:15Z</time>
      </trkpt>
      <trkpt lat="45.2945" lon="4.69506">
        <ele>551</ele>
        <time>2021-07-11T06:14:39Z</time>
      </trkpt>
      <trkpt lat="45.29453" lon="4.69499">
        <ele>551</ele>
        <time>2021-07-11T06:14:42Z</time>
      </trkpt>
      <trkpt lat="45.29461" lon="4.69476">
        <ele>550.8</ele>
        <time>2021-07-11T06:14:48Z</time>
      </trkpt>
      <trkpt lat="45.29476" lon="4.69442">
        <ele>549.8</ele>
        <time>2021-07-11T06:14:54Z</time>
      </trkpt>
      <trkpt lat="45.29481" lon="4.69431">
        <ele>549.4</ele>
        <time>2021-07-11T06:14:56Z</time>
      </trkpt>
      <trkpt lat="45.29497" lon="4.69401">
        <ele>548.6</ele>
        <time>2021-07-11T06:15:02Z</time>
      </trkpt>
      <trkpt lat="45.29503" lon="4.69392">
        <ele>548.4</ele>
        <time>2021-07-11T06:15:04Z</time>
      </trkpt>
      <trkpt lat="45.29513" lon="4.69376">
        <ele>548.2</ele>
        <time>2021-07-11T06:15:08Z</time>
      </trkpt>
      <trkpt lat="45.29537" lon="4.69343">
        <ele>548</ele>
        <time>2021-07-11T06:15:17Z</time>
      </trkpt>
      <trkpt lat="45.29554" lon="4.69326">
        <ele>547.6</ele>
        <time>2021-07-11T06:15:23Z</time>
      </trkpt>
      <trkpt lat="45.29569" lon="4.69321">
        <ele>547.6</ele>
        <time>2021-07-11T06:15:28Z</time>
      </trkpt>
      <trkpt lat="45.29591" lon="4.69316">
        <ele>549</ele>
        <time>2021-07-11T06:15:35Z</time>
      </trkpt>
      <trkpt lat="45.29597" lon="4.69314">
        <ele>549.4</ele>
        <time>2021-07-11T06:15:37Z</time>
      </trkpt>
      <trkpt lat="45.29612" lon="4.69309">
        <ele>550</ele>
        <time>2021-07-11T06:15:42Z</time>
      </trkpt>
      <trkpt lat="45.29618" lon="4.69305">
        <ele>550.4</ele>
        <time>2021-07-11T06:15:45Z</time>
      </trkpt>
      <trkpt lat="45.29626" lon="4.69299">
        <ele>551.4</ele>
        <time>2021-07-11T06:15:49Z</time>
      </trkpt>
      <trkpt lat="45.29629" lon="4.69298">
        <ele>551.6</ele>
        <time>2021-07-11T06:15:50Z</time>
      </trkpt>
      <trkpt lat="45.29641" lon="4.69291">
        <ele>552.6</ele>
        <time>2021-07-11T06:15:56Z</time>
      </trkpt>
      <trkpt lat="45.29643" lon="4.69289">
        <ele>552.8</ele>
        <time>2021-07-11T06:15:57Z</time>
      </trkpt>
      <trkpt lat="45.29649" lon="4.69277">
        <ele>553.4</ele>
        <time>2021-07-11T06:16:02Z</time>
      </trkpt>
      <trkpt lat="45.29656" lon="4.69238">
        <ele>552.6</ele>
        <time>2021-07-11T06:16:10Z</time>
      </trkpt>
      <trkpt lat="45.29655" lon="4.69214">
        <ele>551.8</ele>
        <time>2021-07-11T06:16:14Z</time>
      </trkpt>
      <trkpt lat="45.29653" lon="4.69208">
        <ele>551.2</ele>
        <time>2021-07-11T06:16:15Z</time>
      </trkpt>
      <trkpt lat="45.29647" lon="4.69189">
        <ele>550</ele>
        <time>2021-07-11T06:16:18Z</time>
      </trkpt>
      <trkpt lat="45.29645" lon="4.69171">
        <ele>549</ele>
        <time>2021-07-11T06:16:21Z</time>
      </trkpt>
      <trkpt lat="45.29649" lon="4.69151">
        <ele>548.6</ele>
        <time>2021-07-11T06:16:25Z</time>
      </trkpt>
      <trkpt lat="45.2965" lon="4.69148">
        <ele>548.6</ele>
        <time>2021-07-11T06:16:26Z</time>
      </trkpt>
      <trkpt lat="45.29654" lon="4.6915">
        <ele>548</ele>
        <time>2021-07-11T06:16:29Z</time>
      </trkpt>
      <trkpt lat="45.29657" lon="4.69155">
        <ele>548</ele>
        <time>2021-07-11T06:16:31Z</time>
      </trkpt>
      <trkpt lat="45.29663" lon="4.69155">
        <ele>548</ele>
        <time>2021-07-11T06:16:34Z</time>
      </trkpt>
      <trkpt lat="45.29667" lon="4.69144">
        <ele>548.4</ele>
        <time>2021-07-11T06:16:37Z</time>
      </trkpt>
      <trkpt lat="45.29672" lon="4.69118">
        <ele>548</ele>
        <time>2021-07-11T06:16:42Z</time>
      </trkpt>
      <trkpt lat="45.2968" lon="4.69089">
        <ele>547.2</ele>
        <time>2021-07-11T06:16:46Z</time>
      </trkpt>
      <trkpt lat="45.29682" lon="4.6908">
        <ele>546.8</ele>
        <time>2021-07-11T06:16:47Z</time>
      </trkpt>
      <trkpt lat="45.29689" lon="4.69053">
        <ele>545.4</ele>
        <time>2021-07-11T06:16:50Z</time>
      </trkpt>
      <trkpt lat="45.29695" lon="4.69029">
        <ele>544.4</ele>
        <time>2021-07-11T06:16:53Z</time>
      </trkpt>
      <trkpt lat="45.29702" lon="4.68998">
        <ele>543.8</ele>
        <time>2021-07-11T06:16:58Z</time>
      </trkpt>
      <trkpt lat="45.29705" lon="4.68983">
        <ele>543.2</ele>
        <time>2021-07-11T06:17:01Z</time>
      </trkpt>
      <trkpt lat="45.29709" lon="4.68955">
        <ele>542.4</ele>
        <time>2021-07-11T06:17:06Z</time>
      </trkpt>
      <trkpt lat="45.2971" lon="4.68941">
        <ele>542</ele>
        <time>2021-07-11T06:17:08Z</time>
      </trkpt>
      <trkpt lat="45.29715" lon="4.68911">
        <ele>541</ele>
        <time>2021-07-11T06:17:12Z</time>
      </trkpt>
      <trkpt lat="45.2972" lon="4.68878">
        <ele>539.8</ele>
        <time>2021-07-11T06:17:16Z</time>
      </trkpt>
      <trkpt lat="45.29723" lon="4.68859">
        <ele>539.2</ele>
        <time>2021-07-11T06:17:18Z</time>
      </trkpt>
      <trkpt lat="45.29727" lon="4.68839">
        <ele>538.4</ele>
        <time>2021-07-11T06:17:20Z</time>
      </trkpt>
      <trkpt lat="45.29732" lon="4.68819">
        <ele>537.4</ele>
        <time>2021-07-11T06:17:22Z</time>
      </trkpt>
      <trkpt lat="45.29738" lon="4.68797">
        <ele>536</ele>
        <time>2021-07-11T06:17:24Z</time>
      </trkpt>
      <trkpt lat="45.29746" lon="4.68779">
        <ele>534.4</ele>
        <time>2021-07-11T06:17:26Z</time>
      </trkpt>
      <trkpt lat="45.2975" lon="4.6877">
        <ele>533.2</ele>
        <time>2021-07-11T06:17:27Z</time>
      </trkpt>
      <trkpt lat="45.29753" lon="4.68762">
        <ele>532.8</ele>
        <time>2021-07-11T06:17:28Z</time>
      </trkpt>
      <trkpt lat="45.29759" lon="4.68749">
        <ele>532.2</ele>
        <time>2021-07-11T06:17:30Z</time>
      </trkpt>
      <trkpt lat="45.29766" lon="4.68733">
        <ele>532</ele>
        <time>2021-07-11T06:17:33Z</time>
      </trkpt>
      <trkpt lat="45.2978" lon="4.68704">
        <ele>532.4</ele>
        <time>2021-07-11T06:17:40Z</time>
      </trkpt>
      <trkpt lat="45.29787" lon="4.68688">
        <ele>533.2</ele>
        <time>2021-07-11T06:17:45Z</time>
      </trkpt>
      <trkpt lat="45.29791" lon="4.6868">
        <ele>533.8</ele>
        <time>2021-07-11T06:17:48Z</time>
      </trkpt>
      <trkpt lat="45.29793" lon="4.68674">
        <ele>534.2</ele>
        <time>2021-07-11T06:17:50Z</time>
      </trkpt>
      <trkpt lat="45.29797" lon="4.68666">
        <ele>535.4</ele>
        <time>2021-07-11T06:17:53Z</time>
      </trkpt>
      <trkpt lat="45.29801" lon="4.68656">
        <ele>536.2</ele>
        <time>2021-07-11T06:17:57Z</time>
      </trkpt>
      <trkpt lat="45.29802" lon="4.68653">
        <ele>536.6</ele>
        <time>2021-07-11T06:17:58Z</time>
      </trkpt>
      <trkpt lat="45.29809" lon="4.68637">
        <ele>537.6</ele>
        <time>2021-07-11T06:18:04Z</time>
      </trkpt>
      <trkpt lat="45.29814" lon="4.68626">
        <ele>538.8</ele>
        <time>2021-07-11T06:18:08Z</time>
      </trkpt>
      <trkpt lat="45.29815" lon="4.68623">
        <ele>539</ele>
        <time>2021-07-11T06:18:09Z</time>
      </trkpt>
      <trkpt lat="45.29822" lon="4.68605">
        <ele>540</ele>
        <time>2021-07-11T06:18:16Z</time>
      </trkpt>
      <trkpt lat="45.29825" lon="4.686">
        <ele>540.6</ele>
        <time>2021-07-11T06:18:18Z</time>
      </trkpt>
      <trkpt lat="45.29827" lon="4.68595">
        <ele>541.2</ele>
        <time>2021-07-11T06:18:20Z</time>
      </trkpt>
      <trkpt lat="45.29834" lon="4.68574">
        <ele>542</ele>
        <time>2021-07-11T06:18:27Z</time>
      </trkpt>
      <trkpt lat="45.29835" lon="4.68569">
        <ele>542.2</ele>
        <time>2021-07-11T06:18:29Z</time>
      </trkpt>
      <trkpt lat="45.2984" lon="4.68551">
        <ele>543.4</ele>
        <time>2021-07-11T06:18:35Z</time>
      </trkpt>
      <trkpt lat="45.29844" lon="4.6854">
        <ele>544.6</ele>
        <time>2021-07-11T06:18:40Z</time>
      </trkpt>
      <trkpt lat="45.29845" lon="4.68535">
        <ele>545</ele>
        <time>2021-07-11T06:18:42Z</time>
      </trkpt>
      <trkpt lat="45.29848" lon="4.68526">
        <ele>545.8</ele>
        <time>2021-07-11T06:18:46Z</time>
      </trkpt>
      <trkpt lat="45.2985" lon="4.68519">
        <ele>546.4</ele>
        <time>2021-07-11T06:18:49Z</time>
      </trkpt>
      <trkpt lat="45.29851" lon="4.68515">
        <ele>546.8</ele>
        <time>2021-07-11T06:18:51Z</time>
      </trkpt>
      <trkpt lat="45.29854" lon="4.68506">
        <ele>548</ele>
        <time>2021-07-11T06:18:55Z</time>
      </trkpt>
      <trkpt lat="45.29856" lon="4.68502">
        <ele>548.6</ele>
        <time>2021-07-11T06:18:57Z</time>
      </trkpt>
      <trkpt lat="45.29857" lon="4.68498">
        <ele>549.2</ele>
        <time>2021-07-11T06:18:59Z</time>
      </trkpt>
      <trkpt lat="45.29861" lon="4.6849">
        <ele>550.4</ele>
        <time>2021-07-11T06:19:03Z</time>
      </trkpt>
      <trkpt lat="45.29862" lon="4.68488">
        <ele>551</ele>
        <time>2021-07-11T06:19:04Z</time>
      </trkpt>
      <trkpt lat="45.29863" lon="4.68484">
        <ele>551.6</ele>
        <time>2021-07-11T06:19:06Z</time>
      </trkpt>
      <trkpt lat="45.29868" lon="4.68479">
        <ele>552.6</ele>
        <time>2021-07-11T06:19:10Z</time>
      </trkpt>
      <trkpt lat="45.2987" lon="4.68478">
        <ele>553</ele>
        <time>2021-07-11T06:19:11Z</time>
      </trkpt>
      <trkpt lat="45.29873" lon="4.68474">
        <ele>553.8</ele>
        <time>2021-07-11T06:19:14Z</time>
      </trkpt>
      <trkpt lat="45.29877" lon="4.6847">
        <ele>554.8</ele>
        <time>2021-07-11T06:19:18Z</time>
      </trkpt>
      <trkpt lat="45.29878" lon="4.6847">
        <ele>555</ele>
        <time>2021-07-11T06:19:19Z</time>
      </trkpt>
      <trkpt lat="45.29884" lon="4.68466">
        <ele>556</ele>
        <time>2021-07-11T06:19:24Z</time>
      </trkpt>
      <trkpt lat="45.29885" lon="4.68463">
        <ele>556.6</ele>
        <time>2021-07-11T06:19:26Z</time>
      </trkpt>
      <trkpt lat="45.29887" lon="4.6846">
        <ele>557</ele>
        <time>2021-07-11T06:19:28Z</time>
      </trkpt>
      <trkpt lat="45.29893" lon="4.68451">
        <ele>558.2</ele>
        <time>2021-07-11T06:19:34Z</time>
      </trkpt>
      <trkpt lat="45.299" lon="4.68436">
        <ele>559.4</ele>
        <time>2021-07-11T06:19:42Z</time>
      </trkpt>
      <trkpt lat="45.29903" lon="4.68421">
        <ele>560.4</ele>
        <time>2021-07-11T06:19:49Z</time>
      </trkpt>
      <trkpt lat="45.29903" lon="4.68419">
        <ele>560.6</ele>
        <time>2021-07-11T06:19:50Z</time>
      </trkpt>
      <trkpt lat="45.29904" lon="4.68413">
        <ele>561.4</ele>
        <time>2021-07-11T06:19:53Z</time>
      </trkpt>
      <trkpt lat="45.29902" lon="4.68401">
        <ele>562.6</ele>
        <time>2021-07-11T06:19:58Z</time>
      </trkpt>
      <trkpt lat="45.299" lon="4.68392">
        <ele>563.6</ele>
        <time>2021-07-11T06:20:03Z</time>
      </trkpt>
      <trkpt lat="45.29898" lon="4.68385">
        <ele>564.2</ele>
        <time>2021-07-11T06:20:06Z</time>
      </trkpt>
      <trkpt lat="45.29897" lon="4.68381">
        <ele>564.8</ele>
        <time>2021-07-11T06:20:08Z</time>
      </trkpt>
      <trkpt lat="45.29898" lon="4.6838">
        <ele>565</ele>
        <time>2021-07-11T06:20:09Z</time>
      </trkpt>
      <trkpt lat="45.29897" lon="4.68376">
        <ele>565.2</ele>
        <time>2021-07-11T06:20:11Z</time>
      </trkpt>
      <trkpt lat="45.29894" lon="4.68374">
        <ele>565.6</ele>
        <time>2021-07-11T06:20:13Z</time>
      </trkpt>
      <trkpt lat="45.29891" lon="4.68371">
        <ele>565.8</ele>
        <time>2021-07-11T06:20:15Z</time>
      </trkpt>
      <trkpt lat="45.29886" lon="4.68365">
        <ele>565.8</ele>
        <time>2021-07-11T06:20:18Z</time>
      </trkpt>
      <trkpt lat="45.29875" lon="4.68353">
        <ele>565.4</ele>
        <time>2021-07-11T06:20:23Z</time>
      </trkpt>
      <trkpt lat="45.29862" lon="4.68334">
        <ele>565.4</ele>
        <time>2021-07-11T06:20:30Z</time>
      </trkpt>
      <trkpt lat="45.29845" lon="4.68318">
        <ele>565.4</ele>
        <time>2021-07-11T06:20:37Z</time>
      </trkpt>
      <trkpt lat="45.29831" lon="4.68298">
        <ele>565.8</ele>
        <time>2021-07-11T06:20:44Z</time>
      </trkpt>
      <trkpt lat="45.29818" lon="4.68289">
        <ele>566.4</ele>
        <time>2021-07-11T06:20:50Z</time>
      </trkpt>
      <trkpt lat="45.29805" lon="4.68283">
        <ele>566.8</ele>
        <time>2021-07-11T06:20:55Z</time>
      </trkpt>
      <trkpt lat="45.29798" lon="4.68279">
        <ele>566.8</ele>
        <time>2021-07-11T06:20:57Z</time>
      </trkpt>
      <trkpt lat="45.29773" lon="4.68267">
        <ele>566.4</ele>
        <time>2021-07-11T06:21:02Z</time>
      </trkpt>
      <trkpt lat="45.29762" lon="4.68262">
        <ele>565.6</ele>
        <time>2021-07-11T06:21:04Z</time>
      </trkpt>
      <trkpt lat="45.2975" lon="4.68257">
        <ele>565.4</ele>
        <time>2021-07-11T06:21:06Z</time>
      </trkpt>
      <trkpt lat="45.29738" lon="4.68252">
        <ele>565.2</ele>
        <time>2021-07-11T06:21:08Z</time>
      </trkpt>
      <trkpt lat="45.29734" lon="4.68246">
        <ele>565</ele>
        <time>2021-07-11T06:21:09Z</time>
      </trkpt>
      <trkpt lat="45.29733" lon="4.68231">
        <ele>564.6</ele>
        <time>2021-07-11T06:21:11Z</time>
      </trkpt>
      <trkpt lat="45.29734" lon="4.68225">
        <ele>564.4</ele>
        <time>2021-07-11T06:21:12Z</time>
      </trkpt>
      <trkpt lat="45.29737" lon="4.68212">
        <ele>564.4</ele>
        <time>2021-07-11T06:21:15Z</time>
      </trkpt>
      <trkpt lat="45.2974" lon="4.68203">
        <ele>565.8</ele>
        <time>2021-07-11T06:21:19Z</time>
      </trkpt>
      <trkpt lat="45.29743" lon="4.68195">
        <ele>566.8</ele>
        <time>2021-07-11T06:21:22Z</time>
      </trkpt>
      <trkpt lat="45.29745" lon="4.68188">
        <ele>568</ele>
        <time>2021-07-11T06:21:25Z</time>
      </trkpt>
      <trkpt lat="45.29744" lon="4.6818">
        <ele>569.4</ele>
        <time>2021-07-11T06:21:28Z</time>
      </trkpt>
      <trkpt lat="45.29743" lon="4.68178">
        <ele>569.6</ele>
        <time>2021-07-11T06:21:29Z</time>
      </trkpt>
      <trkpt lat="45.2974" lon="4.68168">
        <ele>570.4</ele>
        <time>2021-07-11T06:21:33Z</time>
      </trkpt>
      <trkpt lat="45.29737" lon="4.68157">
        <ele>571</ele>
        <time>2021-07-11T06:21:37Z</time>
      </trkpt>
      <trkpt lat="45.29731" lon="4.68138">
        <ele>571.6</ele>
        <time>2021-07-11T06:21:44Z</time>
      </trkpt>
      <trkpt lat="45.29728" lon="4.68128">
        <ele>572</ele>
        <time>2021-07-11T06:21:48Z</time>
      </trkpt>
      <trkpt lat="45.29725" lon="4.6812">
        <ele>572.6</ele>
        <time>2021-07-11T06:21:51Z</time>
      </trkpt>
      <trkpt lat="45.2972" lon="4.68105">
        <ele>573.6</ele>
        <time>2021-07-11T06:21:57Z</time>
      </trkpt>
      <trkpt lat="45.29719" lon="4.68102">
        <ele>573.8</ele>
        <time>2021-07-11T06:21:58Z</time>
      </trkpt>
      <trkpt lat="45.29712" lon="4.68087">
        <ele>574.8</ele>
        <time>2021-07-11T06:22:04Z</time>
      </trkpt>
      <trkpt lat="45.29707" lon="4.6808">
        <ele>575.4</ele>
        <time>2021-07-11T06:22:07Z</time>
      </trkpt>
      <trkpt lat="45.29703" lon="4.68073">
        <ele>576</ele>
        <time>2021-07-11T06:22:10Z</time>
      </trkpt>
      <trkpt lat="45.29692" lon="4.68061">
        <ele>577.2</ele>
        <time>2021-07-11T06:22:16Z</time>
      </trkpt>
      <trkpt lat="45.29679" lon="4.68049">
        <ele>578.4</ele>
        <time>2021-07-11T06:22:23Z</time>
      </trkpt>
      <trkpt lat="45.29673" lon="4.68044">
        <ele>578.8</ele>
        <time>2021-07-11T06:22:26Z</time>
      </trkpt>
      <trkpt lat="45.29664" lon="4.68034">
        <ele>579.4</ele>
        <time>2021-07-11T06:22:31Z</time>
      </trkpt>
      <trkpt lat="45.29659" lon="4.68027">
        <ele>579.8</ele>
        <time>2021-07-11T06:22:34Z</time>
      </trkpt>
      <trkpt lat="45.29653" lon="4.68017">
        <ele>580.4</ele>
        <time>2021-07-11T06:22:38Z</time>
      </trkpt>
      <trkpt lat="45.2965" lon="4.68013">
        <ele>580.8</ele>
        <time>2021-07-11T06:22:40Z</time>
      </trkpt>
      <trkpt lat="45.29642" lon="4.68001">
        <ele>581.6</ele>
        <time>2021-07-11T06:22:45Z</time>
      </trkpt>
      <trkpt lat="45.29638" lon="4.67995">
        <ele>582.2</ele>
        <time>2021-07-11T06:22:48Z</time>
      </trkpt>
      <trkpt lat="45.29633" lon="4.67987">
        <ele>582.6</ele>
        <time>2021-07-11T06:22:51Z</time>
      </trkpt>
      <trkpt lat="45.29627" lon="4.67975">
        <ele>583.2</ele>
        <time>2021-07-11T06:22:56Z</time>
      </trkpt>
      <trkpt lat="45.29623" lon="4.67968">
        <ele>583.6</ele>
        <time>2021-07-11T06:22:59Z</time>
      </trkpt>
      <trkpt lat="45.29618" lon="4.67957">
        <ele>584</ele>
        <time>2021-07-11T06:23:03Z</time>
      </trkpt>
      <trkpt lat="45.29609" lon="4.67936">
        <ele>584.4</ele>
        <time>2021-07-11T06:23:11Z</time>
      </trkpt>
      <trkpt lat="45.29605" lon="4.67912">
        <ele>584.2</ele>
        <time>2021-07-11T06:23:16Z</time>
      </trkpt>
      <trkpt lat="45.29598" lon="4.67892">
        <ele>583.6</ele>
        <time>2021-07-11T06:23:21Z</time>
      </trkpt>
      <trkpt lat="45.29584" lon="4.67865">
        <ele>584.2</ele>
        <time>2021-07-11T06:23:29Z</time>
      </trkpt>
      <trkpt lat="45.29573" lon="4.67838">
        <ele>584.6</ele>
        <time>2021-07-11T06:23:37Z</time>
      </trkpt>
      <trkpt lat="45.29568" lon="4.67808">
        <ele>585</ele>
        <time>2021-07-11T06:23:45Z</time>
      </trkpt>
      <trkpt lat="45.29559" lon="4.67797">
        <ele>585</ele>
        <time>2021-07-11T06:23:51Z</time>
      </trkpt>
      <trkpt lat="45.29543" lon="4.67796">
        <ele>585.4</ele>
        <time>2021-07-11T06:23:57Z</time>
      </trkpt>
      <trkpt lat="45.29539" lon="4.67795">
        <ele>585.8</ele>
        <time>2021-07-11T06:23:59Z</time>
      </trkpt>
      <trkpt lat="45.29527" lon="4.67791">
        <ele>586.6</ele>
        <time>2021-07-11T06:24:04Z</time>
      </trkpt>
      <trkpt lat="45.29511" lon="4.67777">
        <ele>586.4</ele>
        <time>2021-07-11T06:24:08Z</time>
      </trkpt>
      <trkpt lat="45.29498" lon="4.67765">
        <ele>585.6</ele>
        <time>2021-07-11T06:24:12Z</time>
      </trkpt>
      <trkpt lat="45.29484" lon="4.67765">
        <ele>586.4</ele>
        <time>2021-07-11T06:24:18Z</time>
      </trkpt>
      <trkpt lat="45.2948" lon="4.67768">
        <ele>586.8</ele>
        <time>2021-07-11T06:24:21Z</time>
      </trkpt>
      <trkpt lat="45.29476" lon="4.67769">
        <ele>587.4</ele>
        <time>2021-07-11T06:24:24Z</time>
      </trkpt>
      <trkpt lat="45.29474" lon="4.67768">
        <ele>587.8</ele>
        <time>2021-07-11T06:24:26Z</time>
      </trkpt>
      <trkpt lat="45.29406" lon="4.67665">
        <ele>610.4</ele>
        <time>2021-07-11T06:26:23Z</time>
      </trkpt>
      <trkpt lat="45.29404" lon="4.67665">
        <ele>610.4</ele>
        <time>2021-07-11T06:26:24Z</time>
      </trkpt>
      <trkpt lat="45.29342" lon="4.67381">
        <ele>632.1</ele>
      </trkpt>
      <trkpt lat="45.2934" lon="4.67313">
        <ele>629.4</ele>
      </trkpt>
      <trkpt lat="45.29336" lon="4.67273">
        <ele>626</ele>
      </trkpt>
      <trkpt lat="45.29329" lon="4.67237">
        <ele>623.1</ele>
      </trkpt>
      <trkpt lat="45.2932" lon="4.67206">
        <ele>620.9</ele>
      </trkpt>
      <trkpt lat="45.29318" lon="4.67188">
        <ele>619.4</ele>
      </trkpt>
      <trkpt lat="45.29316" lon="4.67153">
        <ele>616</ele>
      </trkpt>
      <trkpt lat="45.29311" lon="4.67143">
        <ele>615</ele>
      </trkpt>
      <trkpt lat="45.2931" lon="4.67134">
        <ele>614</ele>
      </trkpt>
      <trkpt lat="45.29306" lon="4.67101">
        <ele>610.4</ele>
      </trkpt>
      <trkpt lat="45.29306" lon="4.67073">
        <ele>606.8</ele>
      </trkpt>
      <trkpt lat="45.29312" lon="4.67036">
        <ele>601.5</ele>
      </trkpt>
      <trkpt lat="45.29312" lon="4.67022">
        <ele>599.5</ele>
      </trkpt>
      <trkpt lat="45.2931" lon="4.67007">
        <ele>597.4</ele>
      </trkpt>
      <trkpt lat="45.29307" lon="4.66996">
        <ele>596</ele>
      </trkpt>
      <trkpt lat="45.29311" lon="4.6699">
        <ele>595.7</ele>
      </trkpt>
      <trkpt lat="45.29325" lon="4.6696">
        <ele>594.1</ele>
      </trkpt>
      <trkpt lat="45.29336" lon="4.66889">
        <ele>590.1</ele>
      </trkpt>
      <trkpt lat="45.2934" lon="4.66861">
        <ele>588</ele>
      </trkpt>
      <trkpt lat="45.29339" lon="4.6686">
        <ele>587.9</ele>
      </trkpt>
      <trkpt lat="45.29326" lon="4.66845">
        <ele>586.1</ele>
      </trkpt>
      <trkpt lat="45.29314" lon="4.66828">
        <ele>583.6</ele>
      </trkpt>
      <trkpt lat="45.29308" lon="4.66805">
        <ele>580.7</ele>
      </trkpt>
      <trkpt lat="45.29313" lon="4.66743">
        <ele>574.8</ele>
      </trkpt>
      <trkpt lat="45.29322" lon="4.66722">
        <ele>573.2</ele>
      </trkpt>
      <trkpt lat="45.29323" lon="4.66714">
        <ele>572.4</ele>
      </trkpt>
      <trkpt lat="45.29309" lon="4.66709">
        <ele>571</ele>
      </trkpt>
      <trkpt lat="45.29303" lon="4.66706">
        <ele>570.3</ele>
      </trkpt>
      <trkpt lat="45.29281" lon="4.66708">
        <ele>569</ele>
      </trkpt>
      <trkpt lat="45.29277" lon="4.66705">
        <ele>568.4</ele>
      </trkpt>
      <trkpt lat="45.29269" lon="4.66696">
        <ele>567</ele>
      </trkpt>
      <trkpt lat="45.29266" lon="4.66681">
        <ele>565.4</ele>
      </trkpt>
      <trkpt lat="45.29264" lon="4.66644">
        <ele>562.5</ele>
      </trkpt>
      <trkpt lat="45.29261" lon="4.66629">
        <ele>561.5</ele>
      </trkpt>
      <trkpt lat="45.2925" lon="4.66604">
        <ele>560</ele>
      </trkpt>
      <trkpt lat="45.29246" lon="4.66592">
        <ele>559.2</ele>
      </trkpt>
      <trkpt lat="45.29245" lon="4.66571">
        <ele>557.7</ele>
      </trkpt>
      <trkpt lat="45.29248" lon="4.66566">
        <ele>557.4</ele>
      </trkpt>
      <trkpt lat="45.29231" lon="4.66528">
        <ele>553.1</ele>
      </trkpt>
      <trkpt lat="45.29229" lon="4.66523">
        <ele>552.5</ele>
      </trkpt>
      <trkpt lat="45.2922" lon="4.66519">
        <ele>551.5</ele>
      </trkpt>
      <trkpt lat="45.29219" lon="4.66512">
        <ele>550.8</ele>
      </trkpt>
      <trkpt lat="45.29211" lon="4.66498">
        <ele>549</ele>
      </trkpt>
      <trkpt lat="45.29205" lon="4.66476">
        <ele>546.4</ele>
      </trkpt>
      <trkpt lat="45.29209" lon="4.66443">
        <ele>543.2</ele>
      </trkpt>
      <trkpt lat="45.29205" lon="4.66436">
        <ele>542.4</ele>
      </trkpt>
      <trkpt lat="45.29199" lon="4.6643">
        <ele>541.7</ele>
      </trkpt>
      <trkpt lat="45.29185" lon="4.66428">
        <ele>541.2</ele>
      </trkpt>
      <trkpt lat="45.2918" lon="4.66423">
        <ele>540.7</ele>
      </trkpt>
      <trkpt lat="45.29161" lon="4.66362">
        <ele>535.3</ele>
      </trkpt>
      <trkpt lat="45.29151" lon="4.66346">
        <ele>533.7</ele>
      </trkpt>
      <trkpt lat="45.2912" lon="4.66309">
        <ele>529.7</ele>
      </trkpt>
      <trkpt lat="45.29115" lon="4.66297">
        <ele>528.6</ele>
      </trkpt>
      <trkpt lat="45.29118" lon="4.66274">
        <ele>526.7</ele>
      </trkpt>
      <trkpt lat="45.29125" lon="4.66254">
        <ele>524.9</ele>
      </trkpt>
      <trkpt lat="45.29129" lon="4.6623">
        <ele>522.4</ele>
      </trkpt>
      <trkpt lat="45.29129" lon="4.66183">
        <ele>517.7</ele>
      </trkpt>
      <trkpt lat="45.29135" lon="4.6613">
        <ele>511.4</ele>
      </trkpt>
      <trkpt lat="45.29144" lon="4.66111">
        <ele>508.7</ele>
      </trkpt>
      <trkpt lat="45.29152" lon="4.66077">
        <ele>503.9</ele>
      </trkpt>
      <trkpt lat="45.29145" lon="4.66036">
        <ele>498.8</ele>
      </trkpt>
      <trkpt lat="45.29144" lon="4.66016">
        <ele>496.2</ele>
      </trkpt>
      <trkpt lat="45.29147" lon="4.66005">
        <ele>494.6</ele>
      </trkpt>
      <trkpt lat="45.29157" lon="4.65995">
        <ele>493</ele>
      </trkpt>
      <trkpt lat="45.29165" lon="4.65979">
        <ele>491</ele>
      </trkpt>
      <trkpt lat="45.29167" lon="4.65963">
        <ele>489.4</ele>
      </trkpt>
      <trkpt lat="45.29176" lon="4.65931">
        <ele>486.2</ele>
      </trkpt>
      <trkpt lat="45.29177" lon="4.6592">
        <ele>485.2</ele>
      </trkpt>
      <trkpt lat="45.29172" lon="4.65853">
        <ele>482.1</ele>
      </trkpt>
      <trkpt lat="45.29173" lon="4.65832">
        <ele>481.4</ele>
      </trkpt>
      <trkpt lat="45.29172" lon="4.65818">
        <ele>482.4</ele>
      </trkpt>
      <trkpt lat="45.29167" lon="4.65802">
        <ele>483.3</ele>
      </trkpt>
      <trkpt lat="45.2914" lon="4.65771">
        <ele>483.7</ele>
      </trkpt>
      <trkpt lat="45.29134" lon="4.65763">
        <ele>483.6</ele>
      </trkpt>
      <trkpt lat="45.29047" lon="4.65662">
        <ele>488.3</ele>
      </trkpt>
      <trkpt lat="45.29017" lon="4.65656">
        <ele>486.1</ele>
      </trkpt>
      <trkpt lat="45.29001" lon="4.65651">
        <ele>485.2</ele>
      </trkpt>
      <trkpt lat="45.28977" lon="4.65644">
        <ele>484.3</ele>
      </trkpt>
      <trkpt lat="45.28927" lon="4.65629">
        <ele>482.7</ele>
      </trkpt>
      <trkpt lat="45.28898" lon="4.6563">
        <ele>479.9</ele>
      </trkpt>
      <trkpt lat="45.28882" lon="4.65625">
        <ele>478.8</ele>
      </trkpt>
      <trkpt lat="45.28862" lon="4.65612">
        <ele>477.7</ele>
      </trkpt>
      <trkpt lat="45.2881" lon="4.65597">
        <ele>474.9</ele>
      </trkpt>
      <trkpt lat="45.28791" lon="4.65597">
        <ele>474.8</ele>
      </trkpt>
      <trkpt lat="45.28774" lon="4.65612">
        <ele>473.8</ele>
      </trkpt>
      <trkpt lat="45.28753" lon="4.65624">
        <ele>473.1</ele>
      </trkpt>
      <trkpt lat="45.2874" lon="4.65623">
        <ele>473.2</ele>
      </trkpt>
      <trkpt lat="45.28729" lon="4.65627">
        <ele>473</ele>
      </trkpt>
      <trkpt lat="45.28715" lon="4.65643">
        <ele>472.1</ele>
      </trkpt>
      <trkpt lat="45.28666" lon="4.65659">
        <ele>470.7</ele>
      </trkpt>
      <trkpt lat="45.28636" lon="4.65671">
        <ele>470.4</ele>
      </trkpt>
      <trkpt lat="45.28616" lon="4.65686">
        <ele>470</ele>
      </trkpt>
      <trkpt lat="45.28597" lon="4.65692">
        <ele>469.5</ele>
      </trkpt>
      <trkpt lat="45.2859" lon="4.65691">
        <ele>469.4</ele>
      </trkpt>
      <trkpt lat="45.28591" lon="4.65686">
        <ele>469.7</ele>
      </trkpt>
      <trkpt lat="45.28597" lon="4.65669">
        <ele>470.7</ele>
      </trkpt>
      <trkpt lat="45.28595" lon="4.65654">
        <ele>472.2</ele>
      </trkpt>
      <trkpt lat="45.28588" lon="4.65633">
        <ele>474.5</ele>
      </trkpt>
      <trkpt lat="45.28588" lon="4.65603">
        <ele>477.7</ele>
      </trkpt>
      <trkpt lat="45.28594" lon="4.6551">
        <ele>484.7</ele>
      </trkpt>
      <trkpt lat="45.28592" lon="4.65465">
        <ele>487.7</ele>
      </trkpt>
      <trkpt lat="45.28587" lon="4.65403">
        <ele>491.6</ele>
      </trkpt>
      <trkpt lat="45.28586" lon="4.6537">
        <ele>493.2</ele>
      </trkpt>
      <trkpt lat="45.28585" lon="4.6534">
        <ele>494.7</ele>
      </trkpt>
      <trkpt lat="45.28595" lon="4.65278">
        <ele>500</ele>
      </trkpt>
      <trkpt lat="45.28606" lon="4.65239">
        <ele>504</ele>
      </trkpt>
      <trkpt lat="45.28609" lon="4.65221">
        <ele>506.1</ele>
      </trkpt>
      <trkpt lat="45.28606" lon="4.65219">
        <ele>506.2</ele>
      </trkpt>
      <trkpt lat="45.28599" lon="4.65211">
        <ele>506.8</ele>
      </trkpt>
      <trkpt lat="45.28557" lon="4.65181">
        <ele>508.8</ele>
      </trkpt>
      <trkpt lat="45.2851" lon="4.65143">
        <ele>512</ele>
      </trkpt>
      <trkpt lat="45.285" lon="4.65133">
        <ele>512.6</ele>
      </trkpt>
      <trkpt lat="45.28479" lon="4.65113">
        <ele>512.7</ele>
      </trkpt>
      <trkpt lat="45.28464" lon="4.65102">
        <ele>512.4</ele>
      </trkpt>
      <trkpt lat="45.28434" lon="4.65091">
        <ele>510.8</ele>
      </trkpt>
      <trkpt lat="45.28384" lon="4.65079">
        <ele>508.5</ele>
      </trkpt>
      <trkpt lat="45.28342" lon="4.65061">
        <ele>508</ele>
      </trkpt>
      <trkpt lat="45.28334" lon="4.65063">
        <ele>507.2</ele>
      </trkpt>
      <trkpt lat="45.28316" lon="4.65062">
        <ele>505.1</ele>
      </trkpt>
      <trkpt lat="45.28311" lon="4.65061">
        <ele>504.5</ele>
      </trkpt>
      <trkpt lat="45.28284" lon="4.65053">
        <ele>501.7</ele>
      </trkpt>
      <trkpt lat="45.28226" lon="4.65045">
        <ele>494.7</ele>
      </trkpt>
      <trkpt lat="45.28163" lon="4.65026">
        <ele>488.1</ele>
      </trkpt>
      <trkpt lat="45.28132" lon="4.65013">
        <ele>485.5</ele>
      </trkpt>
      <trkpt lat="45.28081" lon="4.64978">
        <ele>481.3</ele>
      </trkpt>
      <trkpt lat="45.28046" lon="4.64949">
        <ele>477.6</ele>
      </trkpt>
      <trkpt lat="45.27999" lon="4.64907">
        <ele>471.8</ele>
      </trkpt>
      <trkpt lat="45.27948" lon="4.64868">
        <ele>463.2</ele>
      </trkpt>
      <trkpt lat="45.27855" lon="4.64809">
        <ele>447.3</ele>
      </trkpt>
      <trkpt lat="45.27815" lon="4.64793">
        <ele>440.5</ele>
      </trkpt>
      <trkpt lat="45.27758" lon="4.6474">
        <ele>428.2</ele>
      </trkpt>
      <trkpt lat="45.27752" lon="4.64733">
        <ele>426.6</ele>
      </trkpt>
      <trkpt lat="45.27753" lon="4.64726">
        <ele>426.1</ele>
      </trkpt>
      <trkpt lat="45.27752" lon="4.64712">
        <ele>424.6</ele>
      </trkpt>
      <trkpt lat="45.27739" lon="4.64701">
        <ele>422.2</ele>
      </trkpt>
      <trkpt lat="45.27725" lon="4.64691">
        <ele>420</ele>
      </trkpt>
      <trkpt lat="45.27717" lon="4.64678">
        <ele>418.4</ele>
      </trkpt>
      <trkpt lat="45.27699" lon="4.6466">
        <ele>416.2</ele>
      </trkpt>
      <trkpt lat="45.27694" lon="4.64672">
        <ele>416.2</ele>
      </trkpt>
      <trkpt lat="45.2769" lon="4.64681">
        <ele>416.3</ele>
      </trkpt>
      <trkpt lat="45.27694" lon="4.64672">
        <ele>416.2</ele>
      </trkpt>
      <trkpt lat="45.27699" lon="4.6466">
        <ele>416.2</ele>
      </trkpt>
      <trkpt lat="45.27687" lon="4.64648">
        <ele>415.3</ele>
      </trkpt>
      <trkpt lat="45.27613" lon="4.64574">
        <ele>413.6</ele>
      </trkpt>
      <trkpt lat="45.276" lon="4.64561">
        <ele>414.1</ele>
      </trkpt>
      <trkpt lat="45.27597" lon="4.64558">
        <ele>414.2</ele>
      </trkpt>
      <trkpt lat="45.2757" lon="4.6453">
        <ele>416.3</ele>
      </trkpt>
      <trkpt lat="45.27555" lon="4.64514">
        <ele>418.3</ele>
      </trkpt>
      <trkpt lat="45.27532" lon="4.64493">
        <ele>423.4</ele>
      </trkpt>
      <trkpt lat="45.27523" lon="4.64485">
        <ele>426.6</ele>
      </trkpt>
      <trkpt lat="45.27466" lon="4.64476">
        <ele>433.5</ele>
      </trkpt>
      <trkpt lat="45.27436" lon="4.64476">
        <ele>435.1</ele>
      </trkpt>
      <trkpt lat="45.27414" lon="4.64463">
        <ele>440.7</ele>
      </trkpt>
      <trkpt lat="45.27399" lon="4.64464">
        <ele>441.8</ele>
      </trkpt>
      <trkpt lat="45.27381" lon="4.64482">
        <ele>438.4</ele>
      </trkpt>
      <trkpt lat="45.27359" lon="4.64495">
        <ele>437.6</ele>
      </trkpt>
      <trkpt lat="45.27325" lon="4.645">
        <ele>440.1</ele>
      </trkpt>
      <trkpt lat="45.27292" lon="4.64494">
        <ele>441.8</ele>
      </trkpt>
      <trkpt lat="45.27271" lon="4.64485">
        <ele>443.8</ele>
      </trkpt>
      <trkpt lat="45.27252" lon="4.64462">
        <ele>448.3</ele>
      </trkpt>
      <trkpt lat="45.27232" lon="4.64426">
        <ele>453.9</ele>
      </trkpt>
      <trkpt lat="45.27175" lon="4.64389">
        <ele>456.6</ele>
      </trkpt>
      <trkpt lat="45.2714" lon="4.64365">
        <ele>457.4</ele>
      </trkpt>
      <trkpt lat="45.27137" lon="4.64363">
        <ele>457.4</ele>
      </trkpt>
      <trkpt lat="45.27129" lon="4.64353">
        <ele>458</ele>
      </trkpt>
      <trkpt lat="45.27123" lon="4.6435">
        <ele>457.8</ele>
      </trkpt>
      <trkpt lat="45.27129" lon="4.64353">
        <ele>458</ele>
      </trkpt>
      <trkpt lat="45.27133" lon="4.64344">
        <ele>459.9</ele>
      </trkpt>
      <trkpt lat="45.27152" lon="4.64335">
        <ele>463.8</ele>
      </trkpt>
      <trkpt lat="45.27163" lon="4.64322">
        <ele>467.7</ele>
      </trkpt>
      <trkpt lat="45.27165" lon="4.64311">
        <ele>470</ele>
      </trkpt>
      <trkpt lat="45.2716" lon="4.64304">
        <ele>470.6</ele>
      </trkpt>
      <trkpt lat="45.27146" lon="4.64294">
        <ele>470.2</ele>
      </trkpt>
      <trkpt lat="45.27134" lon="4.64275">
        <ele>471.5</ele>
      </trkpt>
      <trkpt lat="45.27103" lon="4.64182">
        <ele>480.2</ele>
      </trkpt>
      <trkpt lat="45.27103" lon="4.64162">
        <ele>483</ele>
      </trkpt>
      <trkpt lat="45.27112" lon="4.64137">
        <ele>487.2</ele>
      </trkpt>
      <trkpt lat="45.27118" lon="4.64097">
        <ele>492.4</ele>
      </trkpt>
      <trkpt lat="45.27132" lon="4.64062">
        <ele>497</ele>
      </trkpt>
      <trkpt lat="45.27137" lon="4.64026">
        <ele>498.9</ele>
      </trkpt>
      <trkpt lat="45.27143" lon="4.6396">
        <ele>501.6</ele>
      </trkpt>
      <trkpt lat="45.27143" lon="4.63918">
        <ele>502.8</ele>
      </trkpt>
      <trkpt lat="45.27137" lon="4.63889">
        <ele>505.7</ele>
      </trkpt>
      <trkpt lat="45.27136" lon="4.63859">
        <ele>508.9</ele>
      </trkpt>
      <trkpt lat="45.27135" lon="4.63836">
        <ele>511.4</ele>
      </trkpt>
      <trkpt lat="45.27131" lon="4.63822">
        <ele>513</ele>
      </trkpt>
      <trkpt lat="45.27118" lon="4.63757">
        <ele>520.6</ele>
      </trkpt>
      <trkpt lat="45.27108" lon="4.63737">
        <ele>521.9</ele>
      </trkpt>
      <trkpt lat="45.27094" lon="4.63723">
        <ele>521.7</ele>
      </trkpt>
      <trkpt lat="45.27077" lon="4.63695">
        <ele>522.7</ele>
      </trkpt>
      <trkpt lat="45.27062" lon="4.63688">
        <ele>521.4</ele>
      </trkpt>
      <trkpt lat="45.27055" lon="4.63679">
        <ele>521.6</ele>
      </trkpt>
      <trkpt lat="45.27047" lon="4.63653">
        <ele>524.1</ele>
      </trkpt>
      <trkpt lat="45.27034" lon="4.63619">
        <ele>527.1</ele>
      </trkpt>
      <trkpt lat="45.27018" lon="4.63591">
        <ele>529.1</ele>
      </trkpt>
      <trkpt lat="45.27001" lon="4.63564">
        <ele>531.1</ele>
      </trkpt>
      <trkpt lat="45.26991" lon="4.63544">
        <ele>532.7</ele>
      </trkpt>
      <trkpt lat="45.2698" lon="4.63513">
        <ele>536</ele>
      </trkpt>
      <trkpt lat="45.26966" lon="4.6348">
        <ele>539.1</ele>
      </trkpt>
      <trkpt lat="45.26952" lon="4.63454">
        <ele>541</ele>
      </trkpt>
      <trkpt lat="45.26938" lon="4.63437">
        <ele>541.7</ele>
      </trkpt>
      <trkpt lat="45.26894" lon="4.63368">
        <ele>541.7</ele>
      </trkpt>
      <trkpt lat="45.26874" lon="4.63328">
        <ele>541.2</ele>
      </trkpt>
      <trkpt lat="45.26856" lon="4.63278">
        <ele>540.6</ele>
      </trkpt>
      <trkpt lat="45.26842" lon="4.6321">
        <ele>544.2</ele>
      </trkpt>
      <trkpt lat="45.2683" lon="4.63193">
        <ele>543.8</ele>
      </trkpt>
      <trkpt lat="45.26784" lon="4.63138">
        <ele>542.3</ele>
      </trkpt>
      <trkpt lat="45.26763" lon="4.63109">
        <ele>542.5</ele>
      </trkpt>
      <trkpt lat="45.26728" lon="4.63036">
        <ele>547</ele>
      </trkpt>
      <trkpt lat="45.26715" lon="4.63004">
        <ele>549.1</ele>
      </trkpt>
      <trkpt lat="45.26707" lon="4.62957">
        <ele>553.5</ele>
      </trkpt>
      <trkpt lat="45.26703" lon="4.62941">
        <ele>554.7</ele>
      </trkpt>
      <trkpt lat="45.26698" lon="4.62916">
        <ele>557</ele>
      </trkpt>
      <trkpt lat="45.26693" lon="4.62897">
        <ele>558</ele>
      </trkpt>
      <trkpt lat="45.2667" lon="4.62896">
        <ele>554.3</ele>
      </trkpt>
      <trkpt lat="45.26661" lon="4.62893">
        <ele>553.1</ele>
      </trkpt>
      <trkpt lat="45.26647" lon="4.6289">
        <ele>551.2</ele>
      </trkpt>
      <trkpt lat="45.26632" lon="4.62881">
        <ele>549.7</ele>
      </trkpt>
      <trkpt lat="45.26615" lon="4.62869">
        <ele>548.4</ele>
      </trkpt>
      <trkpt lat="45.26593" lon="4.62841">
        <ele>548.4</ele>
      </trkpt>
      <trkpt lat="45.26586" lon="4.62839">
        <ele>547.7</ele>
      </trkpt>
      <trkpt lat="45.26577" lon="4.6284">
        <ele>546.9</ele>
      </trkpt>
      <trkpt lat="45.26561" lon="4.62846">
        <ele>545.5</ele>
      </trkpt>
      <trkpt lat="45.26539" lon="4.6286">
        <ele>543</ele>
      </trkpt>
      <trkpt lat="45.26537" lon="4.6286">
        <ele>542.9</ele>
      </trkpt>
      <trkpt lat="45.26527" lon="4.62843">
        <ele>544.3</ele>
      </trkpt>
      <trkpt lat="45.26506" lon="4.62834">
        <ele>544.2</ele>
      </trkpt>
      <trkpt lat="45.26475" lon="4.6284">
        <ele>545.2</ele>
      </trkpt>
      <trkpt lat="45.26456" lon="4.62865">
        <ele>544.7</ele>
      </trkpt>
      <trkpt lat="45.26382" lon="4.62971">
        <ele>546.1</ele>
      </trkpt>
      <trkpt lat="45.26381" lon="4.62974">
        <ele>546</ele>
      </trkpt>
      <trkpt lat="45.26374" lon="4.62998">
        <ele>545.3</ele>
      </trkpt>
      <trkpt lat="45.26368" lon="4.63022">
        <ele>543.7</ele>
      </trkpt>
      <trkpt lat="45.26328" lon="4.63063">
        <ele>542.6</ele>
      </trkpt>
      <trkpt lat="45.26326" lon="4.63062">
        <ele>542.7</ele>
      </trkpt>
      <trkpt lat="45.26298" lon="4.6306">
        <ele>542.4</ele>
      </trkpt>
      <trkpt lat="45.26257" lon="4.63048">
        <ele>543.2</ele>
      </trkpt>
      <trkpt lat="45.26208" lon="4.63008">
        <ele>545.2</ele>
      </trkpt>
      <trkpt lat="45.2615" lon="4.62944">
        <ele>549.5</ele>
      </trkpt>
      <trkpt lat="45.26095" lon="4.62897">
        <ele>554.5</ele>
      </trkpt>
      <trkpt lat="45.26087" lon="4.62894">
        <ele>554.7</ele>
      </trkpt>
      <trkpt lat="45.26078" lon="4.62908">
        <ele>554.8</ele>
      </trkpt>
      <trkpt lat="45.26069" lon="4.62972">
        <ele>555.5</ele>
      </trkpt>
      <trkpt lat="45.26049" lon="4.62995">
        <ele>559.5</ele>
      </trkpt>
      <trkpt lat="45.26045" lon="4.63016">
        <ele>559.5</ele>
      </trkpt>
      <trkpt lat="45.26035" lon="4.63043">
        <ele>560.2</ele>
      </trkpt>
      <trkpt lat="45.2603" lon="4.63022">
        <ele>562.3</ele>
      </trkpt>
      <trkpt lat="45.26023" lon="4.63008">
        <ele>564.6</ele>
      </trkpt>
      <trkpt lat="45.26015" lon="4.63003">
        <ele>566.6</ele>
      </trkpt>
      <trkpt lat="45.25994" lon="4.62988">
        <ele>571.8</ele>
      </trkpt>
      <trkpt lat="45.25986" lon="4.62971">
        <ele>574.4</ele>
      </trkpt>
      <trkpt lat="45.25979" lon="4.62922">
        <ele>578.3</ele>
      </trkpt>
      <trkpt lat="45.25972" lon="4.62908">
        <ele>580</ele>
      </trkpt>
      <trkpt lat="45.25938" lon="4.62867">
        <ele>587</ele>
      </trkpt>
      <trkpt lat="45.25907" lon="4.62813">
        <ele>595.3</ele>
      </trkpt>
      <trkpt lat="45.25867" lon="4.62732">
        <ele>607.9</ele>
      </trkpt>
      <trkpt lat="45.25856" lon="4.62704">
        <ele>611.1</ele>
      </trkpt>
      <trkpt lat="45.25842" lon="4.62688">
        <ele>613.3</ele>
      </trkpt>
      <trkpt lat="45.25832" lon="4.6267">
        <ele>614</ele>
      </trkpt>
      <trkpt lat="45.25833" lon="4.62664">
        <ele>614.2</ele>
      </trkpt>
      <trkpt lat="45.25835" lon="4.62658">
        <ele>614.6</ele>
      </trkpt>
      <trkpt lat="45.25843" lon="4.62629">
        <ele>616.8</ele>
      </trkpt>
      <trkpt lat="45.25848" lon="4.62614">
        <ele>618.1</ele>
      </trkpt>
      <trkpt lat="45.25876" lon="4.6256">
        <ele>624.2</ele>
      </trkpt>
      <trkpt lat="45.25889" lon="4.62547">
        <ele>626.2</ele>
      </trkpt>
      <trkpt lat="45.25894" lon="4.62532">
        <ele>628.3</ele>
      </trkpt>
      <trkpt lat="45.25896" lon="4.62519">
        <ele>630.1</ele>
      </trkpt>
      <trkpt lat="45.25894" lon="4.62503">
        <ele>632</ele>
      </trkpt>
      <trkpt lat="45.25904" lon="4.62457">
        <ele>632.2</ele>
      </trkpt>
      <trkpt lat="45.25916" lon="4.62422">
        <ele>633</ele>
      </trkpt>
      <trkpt lat="45.25933" lon="4.6238">
        <ele>632.1</ele>
      </trkpt>
      <trkpt lat="45.25939" lon="4.62356">
        <ele>632</ele>
      </trkpt>
      <trkpt lat="45.25947" lon="4.62319">
        <ele>632.8</ele>
      </trkpt>
      <trkpt lat="45.25953" lon="4.62287">
        <ele>634.3</ele>
      </trkpt>
      <trkpt lat="45.25961" lon="4.62226">
        <ele>635.5</ele>
      </trkpt>
      <trkpt lat="45.25967" lon="4.62192">
        <ele>635.6</ele>
      </trkpt>
      <trkpt lat="45.25969" lon="4.62175">
        <ele>635.4</ele>
      </trkpt>
      <trkpt lat="45.25975" lon="4.62156">
        <ele>635.7</ele>
      </trkpt>
      <trkpt lat="45.25979" lon="4.62136">
        <ele>634.9</ele>
      </trkpt>
      <trkpt lat="45.25995" lon="4.62106">
        <ele>636.7</ele>
      </trkpt>
      <trkpt lat="45.26008" lon="4.62089">
        <ele>637.7</ele>
      </trkpt>
      <trkpt lat="45.26018" lon="4.62081">
        <ele>638.1</ele>
      </trkpt>
      <trkpt lat="45.26096" lon="4.62054">
        <ele>644.2</ele>
      </trkpt>
      <trkpt lat="45.26107" lon="4.62051">
        <ele>645.2</ele>
      </trkpt>
      <trkpt lat="45.26131" lon="4.62057">
        <ele>649.5</ele>
      </trkpt>
      <trkpt lat="45.26141" lon="4.62053">
        <ele>650.4</ele>
      </trkpt>
      <trkpt lat="45.26174" lon="4.6198">
        <ele>648.4</ele>
      </trkpt>
      <trkpt lat="45.26195" lon="4.61943">
        <ele>650</ele>
      </trkpt>
      <trkpt lat="45.26218" lon="4.61908">
        <ele>652.4</ele>
      </trkpt>
      <trkpt lat="45.26269" lon="4.61877">
        <ele>661.4</ele>
      </trkpt>
      <trkpt lat="45.26307" lon="4.61864">
        <ele>666.6</ele>
      </trkpt>
      <trkpt lat="45.26314" lon="4.61869">
        <ele>669.1</ele>
      </trkpt>
      <trkpt lat="45.26352" lon="4.61872">
        <ele>676.3</ele>
      </trkpt>
      <trkpt lat="45.26416" lon="4.61874">
        <ele>685.2</ele>
      </trkpt>
      <trkpt lat="45.26436" lon="4.61879">
        <ele>690.3</ele>
      </trkpt>
      <trkpt lat="45.2646" lon="4.61866">
        <ele>693.4</ele>
      </trkpt>
      <trkpt lat="45.26462" lon="4.61861">
        <ele>693.2</ele>
      </trkpt>
      <trkpt lat="45.26461" lon="4.61848">
        <ele>691.2</ele>
      </trkpt>
      <trkpt lat="45.26457" lon="4.61835">
        <ele>688.4</ele>
      </trkpt>
      <trkpt lat="45.26436" lon="4.61758">
        <ele>685.4</ele>
      </trkpt>
      <trkpt lat="45.26432" lon="4.61717">
        <ele>685.8</ele>
      </trkpt>
      <trkpt lat="45.26432" lon="4.61712">
        <ele>686.1</ele>
      </trkpt>
      <trkpt lat="45.26432" lon="4.6169">
        <ele>687.1</ele>
      </trkpt>
      <trkpt lat="45.26435" lon="4.61659">
        <ele>688.7</ele>
      </trkpt>
      <trkpt lat="45.26444" lon="4.6162">
        <ele>689.4</ele>
      </trkpt>
      <trkpt lat="45.26464" lon="4.61585">
        <ele>693.3</ele>
      </trkpt>
      <trkpt lat="45.26489" lon="4.61571">
        <ele>699.3</ele>
      </trkpt>
      <trkpt lat="45.26514" lon="4.6157">
        <ele>707.1</ele>
      </trkpt>
      <trkpt lat="45.26518" lon="4.61567">
        <ele>708.2</ele>
      </trkpt>
      <trkpt lat="45.26522" lon="4.6156">
        <ele>708.9</ele>
      </trkpt>
      <trkpt lat="45.26527" lon="4.61547">
        <ele>709.6</ele>
      </trkpt>
      <trkpt lat="45.26536" lon="4.61495">
        <ele>709.7</ele>
      </trkpt>
      <trkpt lat="45.26544" lon="4.61474">
        <ele>712.8</ele>
      </trkpt>
      <trkpt lat="45.26547" lon="4.61457">
        <ele>713.8</ele>
      </trkpt>
      <trkpt lat="45.2655" lon="4.61438">
        <ele>714.8</ele>
      </trkpt>
      <trkpt lat="45.26553" lon="4.61389">
        <ele>715</ele>
      </trkpt>
      <trkpt lat="45.26559" lon="4.61369">
        <ele>716.4</ele>
      </trkpt>
      <trkpt lat="45.26584" lon="4.61308">
        <ele>721.7</ele>
      </trkpt>
      <trkpt lat="45.26595" lon="4.61269">
        <ele>721.5</ele>
      </trkpt>
      <trkpt lat="45.26597" lon="4.61247">
        <ele>721.7</ele>
      </trkpt>
      <trkpt lat="45.26601" lon="4.61211">
        <ele>724.3</ele>
      </trkpt>
      <trkpt lat="45.26601" lon="4.61203">
        <ele>724.8</ele>
      </trkpt>
      <trkpt lat="45.26601" lon="4.61183">
        <ele>726.2</ele>
      </trkpt>
      <trkpt lat="45.26607" lon="4.61157">
        <ele>729.1</ele>
      </trkpt>
      <trkpt lat="45.26613" lon="4.61124">
        <ele>734.2</ele>
      </trkpt>
      <trkpt lat="45.26624" lon="4.61104">
        <ele>737.3</ele>
      </trkpt>
      <trkpt lat="45.26634" lon="4.61076">
        <ele>740.9</ele>
      </trkpt>
      <trkpt lat="45.26649" lon="4.61055">
        <ele>742.9</ele>
      </trkpt>
      <trkpt lat="45.26653" lon="4.61038">
        <ele>744.4</ele>
      </trkpt>
      <trkpt lat="45.26658" lon="4.60981">
        <ele>750.5</ele>
      </trkpt>
      <trkpt lat="45.26666" lon="4.60926">
        <ele>757.7</ele>
      </trkpt>
      <trkpt lat="45.26678" lon="4.60893">
        <ele>756.5</ele>
      </trkpt>
      <trkpt lat="45.26688" lon="4.60855">
        <ele>756</ele>
      </trkpt>
      <trkpt lat="45.26704" lon="4.6081">
        <ele>757.5</ele>
      </trkpt>
      <trkpt lat="45.26721" lon="4.6072">
        <ele>771.7</ele>
      </trkpt>
      <trkpt lat="45.2673" lon="4.60687">
        <ele>776.3</ele>
      </trkpt>
      <trkpt lat="45.26784" lon="4.60589">
        <ele>787.3</ele>
      </trkpt>
      <trkpt lat="45.26803" lon="4.60559">
        <ele>791.5</ele>
      </trkpt>
      <trkpt lat="45.26829" lon="4.60529">
        <ele>794.1</ele>
      </trkpt>
      <trkpt lat="45.26855" lon="4.60502">
        <ele>796.4</ele>
      </trkpt>
      <trkpt lat="45.2688" lon="4.60472">
        <ele>800</ele>
      </trkpt>
      <trkpt lat="45.26923" lon="4.60415">
        <ele>806.8</ele>
      </trkpt>
      <trkpt lat="45.26936" lon="4.60394">
        <ele>810.2</ele>
      </trkpt>
      <trkpt lat="45.26951" lon="4.6036">
        <ele>816.3</ele>
      </trkpt>
      <trkpt lat="45.26968" lon="4.60338">
        <ele>819.4</ele>
      </trkpt>
      <trkpt lat="45.26982" lon="4.6031">
        <ele>824.2</ele>
      </trkpt>
      <trkpt lat="45.27" lon="4.60283">
        <ele>827.9</ele>
      </trkpt>
      <trkpt lat="45.27018" lon="4.60271">
        <ele>829.8</ele>
      </trkpt>
      <trkpt lat="45.27031" lon="4.60255">
        <ele>832.5</ele>
      </trkpt>
      <trkpt lat="45.27053" lon="4.60227">
        <ele>836.2</ele>
      </trkpt>
      <trkpt lat="45.27048" lon="4.60228">
        <ele>836.3</ele>
      </trkpt>
      <trkpt lat="45.27037" lon="4.60235">
        <ele>835.8</ele>
      </trkpt>
      <trkpt lat="45.27048" lon="4.60228">
        <ele>836.3</ele>
      </trkpt>
      <trkpt lat="45.27053" lon="4.60227">
        <ele>836.2</ele>
      </trkpt>
      <trkpt lat="45.2706" lon="4.60237">
        <ele>834.2</ele>
      </trkpt>
      <trkpt lat="45.27152" lon="4.60332">
        <ele>817.1</ele>
      </trkpt>
      <trkpt lat="45.2716" lon="4.60338">
        <ele>816.6</ele>
      </trkpt>
      <trkpt lat="45.27163" lon="4.60344">
        <ele>816.1</ele>
      </trkpt>
      <trkpt lat="45.27164" lon="4.60355">
        <ele>815.1</ele>
      </trkpt>
      <trkpt lat="45.2716" lon="4.6037">
        <ele>813.8</ele>
      </trkpt>
      <trkpt lat="45.27154" lon="4.60383">
        <ele>812.5</ele>
      </trkpt>
      <trkpt lat="45.27144" lon="4.6041">
        <ele>809.6</ele>
      </trkpt>
      <trkpt lat="45.27145" lon="4.60437">
        <ele>806.6</ele>
      </trkpt>
      <trkpt lat="45.27148" lon="4.60456">
        <ele>804.6</ele>
      </trkpt>
      <trkpt lat="45.27149" lon="4.6047">
        <ele>803.1</ele>
      </trkpt>
      <trkpt lat="45.27148" lon="4.60492">
        <ele>800.5</ele>
      </trkpt>
      <trkpt lat="45.2715" lon="4.60501">
        <ele>799.7</ele>
      </trkpt>
      <trkpt lat="45.27154" lon="4.60506">
        <ele>799.5</ele>
      </trkpt>
      <trkpt lat="45.27159" lon="4.60507">
        <ele>800</ele>
      </trkpt>
      <trkpt lat="45.27177" lon="4.60504">
        <ele>799.9</ele>
      </trkpt>
      <trkpt lat="45.2722" lon="4.60485">
        <ele>794.9</ele>
      </trkpt>
      <trkpt lat="45.27233" lon="4.60483">
        <ele>793</ele>
      </trkpt>
      <trkpt lat="45.27251" lon="4.60484">
        <ele>789.9</ele>
      </trkpt>
      <trkpt lat="45.27272" lon="4.60476">
        <ele>785.4</ele>
      </trkpt>
      <trkpt lat="45.27302" lon="4.60457">
        <ele>779.3</ele>
      </trkpt>
      <trkpt lat="45.2733" lon="4.60427">
        <ele>774.2</ele>
      </trkpt>
      <trkpt lat="45.27336" lon="4.60432">
        <ele>772.2</ele>
      </trkpt>
      <trkpt lat="45.2736" lon="4.60537">
        <ele>759.4</ele>
      </trkpt>
      <trkpt lat="45.27365" lon="4.6055">
        <ele>757.4</ele>
      </trkpt>
      <trkpt lat="45.27371" lon="4.60552">
        <ele>755.8</ele>
      </trkpt>
      <trkpt lat="45.27376" lon="4.60549">
        <ele>754.8</ele>
      </trkpt>
      <trkpt lat="45.27388" lon="4.60526">
        <ele>753.2</ele>
      </trkpt>
      <trkpt lat="45.27398" lon="4.60499">
        <ele>751.9</ele>
      </trkpt>
      <trkpt lat="45.27402" lon="4.60498">
        <ele>750.9</ele>
      </trkpt>
      <trkpt lat="45.27405" lon="4.605">
        <ele>750.1</ele>
      </trkpt>
      <trkpt lat="45.27408" lon="4.60507">
        <ele>749</ele>
      </trkpt>
      <trkpt lat="45.27418" lon="4.60553">
        <ele>744.6</ele>
      </trkpt>
      <trkpt lat="45.27423" lon="4.6059">
        <ele>741.3</ele>
      </trkpt>
      <trkpt lat="45.27423" lon="4.60618">
        <ele>738.7</ele>
      </trkpt>
      <trkpt lat="45.27419" lon="4.60688">
        <ele>732.3</ele>
      </trkpt>
      <trkpt lat="45.27418" lon="4.60723">
        <ele>727.6</ele>
      </trkpt>
      <trkpt lat="45.27429" lon="4.60776">
        <ele>719.5</ele>
      </trkpt>
      <trkpt lat="45.27431" lon="4.608">
        <ele>717</ele>
      </trkpt>
      <trkpt lat="45.27432" lon="4.60805">
        <ele>716.4</ele>
      </trkpt>
      <trkpt lat="45.2743" lon="4.60829">
        <ele>714.6</ele>
      </trkpt>
      <trkpt lat="45.27433" lon="4.60855">
        <ele>711.7</ele>
      </trkpt>
      <trkpt lat="45.2743" lon="4.60876">
        <ele>710</ele>
      </trkpt>
      <trkpt lat="45.27424" lon="4.6089">
        <ele>709.5</ele>
      </trkpt>
      <trkpt lat="45.27416" lon="4.60903">
        <ele>709.2</ele>
      </trkpt>
      <trkpt lat="45.27404" lon="4.60911">
        <ele>707.1</ele>
      </trkpt>
      <trkpt lat="45.2739" lon="4.60931">
        <ele>703.3</ele>
      </trkpt>
      <trkpt lat="45.27376" lon="4.60957">
        <ele>699.7</ele>
      </trkpt>
      <trkpt lat="45.27369" lon="4.60982">
        <ele>697.4</ele>
      </trkpt>
      <trkpt lat="45.27363" lon="4.60996">
        <ele>696.3</ele>
      </trkpt>
      <trkpt lat="45.27359" lon="4.61016">
        <ele>694</ele>
      </trkpt>
      <trkpt lat="45.27358" lon="4.6105">
        <ele>689.8</ele>
      </trkpt>
      <trkpt lat="45.27348" lon="4.61111">
        <ele>682.7</ele>
      </trkpt>
      <trkpt lat="45.27343" lon="4.61121">
        <ele>681.9</ele>
      </trkpt>
      <trkpt lat="45.27337" lon="4.61124">
        <ele>682.2</ele>
      </trkpt>
      <trkpt lat="45.2733" lon="4.61122">
        <ele>681.9</ele>
      </trkpt>
      <trkpt lat="45.2732" lon="4.61111">
        <ele>680.1</ele>
      </trkpt>
      <trkpt lat="45.2731" lon="4.61086">
        <ele>679.9</ele>
      </trkpt>
      <trkpt lat="45.27272" lon="4.60952">
        <ele>686.7</ele>
      </trkpt>
      <trkpt lat="45.27266" lon="4.60948">
        <ele>686.4</ele>
      </trkpt>
      <trkpt lat="45.27247" lon="4.6095">
        <ele>683.5</ele>
      </trkpt>
      <trkpt lat="45.27208" lon="4.60962">
        <ele>681.1</ele>
      </trkpt>
      <trkpt lat="45.27196" lon="4.60963">
        <ele>680.9</ele>
      </trkpt>
      <trkpt lat="45.27188" lon="4.6096">
        <ele>681.8</ele>
      </trkpt>
      <trkpt lat="45.27178" lon="4.60969">
        <ele>679.5</ele>
      </trkpt>
      <trkpt lat="45.27175" lon="4.60979">
        <ele>676.8</ele>
      </trkpt>
      <trkpt lat="45.27177" lon="4.61015">
        <ele>667.5</ele>
      </trkpt>
      <trkpt lat="45.27176" lon="4.61036">
        <ele>662.5</ele>
      </trkpt>
      <trkpt lat="45.27165" lon="4.61082">
        <ele>650.6</ele>
      </trkpt>
      <trkpt lat="45.27142" lon="4.61132">
        <ele>641.9</ele>
      </trkpt>
      <trkpt lat="45.27109" lon="4.61198">
        <ele>629.9</ele>
      </trkpt>
      <trkpt lat="45.27081" lon="4.61236">
        <ele>622.6</ele>
      </trkpt>
      <trkpt lat="45.27072" lon="4.61244">
        <ele>621.5</ele>
      </trkpt>
      <trkpt lat="45.27061" lon="4.61249">
        <ele>621.6</ele>
      </trkpt>
      <trkpt lat="45.2703" lon="4.61252">
        <ele>624.7</ele>
      </trkpt>
      <trkpt lat="45.27026" lon="4.61262">
        <ele>624.7</ele>
      </trkpt>
      <trkpt lat="45.2703" lon="4.6128">
        <ele>623.2</ele>
      </trkpt>
      <trkpt lat="45.27035" lon="4.61319">
        <ele>619.8</ele>
      </trkpt>
      <trkpt lat="45.27052" lon="4.61341">
        <ele>613.4</ele>
      </trkpt>
      <trkpt lat="45.27111" lon="4.61423">
        <ele>595.7</ele>
      </trkpt>
      <trkpt lat="45.27122" lon="4.61441">
        <ele>593.6</ele>
      </trkpt>
      <trkpt lat="45.27124" lon="4.6146">
        <ele>592.3</ele>
      </trkpt>
      <trkpt lat="45.27121" lon="4.61473">
        <ele>592.1</ele>
      </trkpt>
      <trkpt lat="45.27116" lon="4.61485">
        <ele>592.2</ele>
      </trkpt>
      <trkpt lat="45.27107" lon="4.61495">
        <ele>593.2</ele>
      </trkpt>
      <trkpt lat="45.27104" lon="4.61506">
        <ele>594</ele>
      </trkpt>
      <trkpt lat="45.27108" lon="4.61515">
        <ele>594.2</ele>
      </trkpt>
      <trkpt lat="45.27132" lon="4.61523">
        <ele>590.9</ele>
      </trkpt>
      <trkpt lat="45.27147" lon="4.61542">
        <ele>590.2</ele>
      </trkpt>
      <trkpt lat="45.27169" lon="4.61575">
        <ele>589.7</ele>
      </trkpt>
      <trkpt lat="45.27213" lon="4.61627">
        <ele>586</ele>
      </trkpt>
      <trkpt lat="45.27222" lon="4.61639">
        <ele>585.1</ele>
      </trkpt>
      <trkpt lat="45.27182" lon="4.61614">
        <ele>592.2</ele>
      </trkpt>
      <trkpt lat="45.27169" lon="4.61603">
        <ele>593.7</ele>
      </trkpt>
      <trkpt lat="45.27161" lon="4.61602">
        <ele>595</ele>
      </trkpt>
      <trkpt lat="45.27156" lon="4.61603">
        <ele>595.9</ele>
      </trkpt>
      <trkpt lat="45.27161" lon="4.61602">
        <ele>595</ele>
      </trkpt>
      <trkpt lat="45.27169" lon="4.61603">
        <ele>593.7</ele>
      </trkpt>
      <trkpt lat="45.27182" lon="4.61614">
        <ele>592.2</ele>
      </trkpt>
      <trkpt lat="45.27222" lon="4.61639">
        <ele>585.1</ele>
      </trkpt>
      <trkpt lat="45.27232" lon="4.61645">
        <ele>583</ele>
      </trkpt>
      <trkpt lat="45.27264" lon="4.61674">
        <ele>578.1</ele>
      </trkpt>
      <trkpt lat="45.27277" lon="4.61693">
        <ele>578.2</ele>
      </trkpt>
      <trkpt lat="45.27315" lon="4.61765">
        <ele>578.8</ele>
      </trkpt>
      <trkpt lat="45.27369" lon="4.61873">
        <ele>573.2</ele>
      </trkpt>
      <trkpt lat="45.27374" lon="4.61902">
        <ele>573.8</ele>
      </trkpt>
      <trkpt lat="45.27382" lon="4.61918">
        <ele>572.9</ele>
      </trkpt>
      <trkpt lat="45.27408" lon="4.61951">
        <ele>570.2</ele>
      </trkpt>
      <trkpt lat="45.27422" lon="4.61974">
        <ele>569.9</ele>
      </trkpt>
      <trkpt lat="45.27429" lon="4.61992">
        <ele>570.6</ele>
      </trkpt>
      <trkpt lat="45.27441" lon="4.62057">
        <ele>570.9</ele>
      </trkpt>
      <trkpt lat="45.27443" lon="4.62087">
        <ele>571.1</ele>
      </trkpt>
      <trkpt lat="45.27441" lon="4.62116">
        <ele>569.5</ele>
      </trkpt>
      <trkpt lat="45.27436" lon="4.62133">
        <ele>569.2</ele>
      </trkpt>
      <trkpt lat="45.27431" lon="4.62144">
        <ele>569.3</ele>
      </trkpt>
      <trkpt lat="45.27415" lon="4.62169">
        <ele>570.5</ele>
      </trkpt>
      <trkpt lat="45.27411" lon="4.62172">
        <ele>571.8</ele>
      </trkpt>
      <trkpt lat="45.274" lon="4.62188">
        <ele>575.1</ele>
      </trkpt>
      <trkpt lat="45.27404" lon="4.6224">
        <ele>573.4</ele>
      </trkpt>
      <trkpt lat="45.27397" lon="4.62275">
        <ele>576.3</ele>
      </trkpt>
      <trkpt lat="45.27401" lon="4.6229">
        <ele>576</ele>
      </trkpt>
      <trkpt lat="45.27408" lon="4.62297">
        <ele>574.8</ele>
      </trkpt>
      <trkpt lat="45.27418" lon="4.62299">
        <ele>572.7</ele>
      </trkpt>
      <trkpt lat="45.27434" lon="4.62313">
        <ele>571.3</ele>
      </trkpt>
      <trkpt lat="45.27464" lon="4.62349">
        <ele>570.2</ele>
      </trkpt>
      <trkpt lat="45.27473" lon="4.62373">
        <ele>570.9</ele>
      </trkpt>
      <trkpt lat="45.2748" lon="4.62415">
        <ele>573</ele>
      </trkpt>
      <trkpt lat="45.27491" lon="4.62452">
        <ele>574.5</ele>
      </trkpt>
      <trkpt lat="45.27513" lon="4.62501">
        <ele>576.8</ele>
      </trkpt>
      <trkpt lat="45.27572" lon="4.62573">
        <ele>576.5</ele>
      </trkpt>
      <trkpt lat="45.27585" lon="4.62596">
        <ele>576</ele>
      </trkpt>
      <trkpt lat="45.2759" lon="4.62614">
        <ele>575.9</ele>
      </trkpt>
      <trkpt lat="45.27593" lon="4.62624">
        <ele>575.8</ele>
      </trkpt>
      <trkpt lat="45.27606" lon="4.62667">
        <ele>575.7</ele>
      </trkpt>
      <trkpt lat="45.2763" lon="4.62693">
        <ele>573.1</ele>
      </trkpt>
      <trkpt lat="45.27665" lon="4.62723">
        <ele>570.3</ele>
      </trkpt>
      <trkpt lat="45.27698" lon="4.62745">
        <ele>569.5</ele>
      </trkpt>
      <trkpt lat="45.27707" lon="4.62756">
        <ele>568.7</ele>
      </trkpt>
      <trkpt lat="45.27735" lon="4.62809">
        <ele>563.1</ele>
      </trkpt>
      <trkpt lat="45.2774" lon="4.62817">
        <ele>562.4</ele>
      </trkpt>
      <trkpt lat="45.27753" lon="4.62836">
        <ele>560.9</ele>
      </trkpt>
      <trkpt lat="45.2776" lon="4.62859">
        <ele>558.1</ele>
      </trkpt>
      <trkpt lat="45.27767" lon="4.62871">
        <ele>557</ele>
      </trkpt>
      <trkpt lat="45.27777" lon="4.62887">
        <ele>555.8</ele>
      </trkpt>
      <trkpt lat="45.27786" lon="4.62917">
        <ele>552.7</ele>
      </trkpt>
      <trkpt lat="45.2779" lon="4.62938">
        <ele>549.6</ele>
      </trkpt>
      <trkpt lat="45.27795" lon="4.62968">
        <ele>544.9</ele>
      </trkpt>
      <trkpt lat="45.27809" lon="4.62989">
        <ele>542.7</ele>
      </trkpt>
      <trkpt lat="45.27821" lon="4.63006">
        <ele>540.8</ele>
      </trkpt>
      <trkpt lat="45.27848" lon="4.63046">
        <ele>535.8</ele>
      </trkpt>
      <trkpt lat="45.27856" lon="4.6307">
        <ele>531.9</ele>
      </trkpt>
      <trkpt lat="45.27859" lon="4.63076">
        <ele>530.9</ele>
      </trkpt>
      <trkpt lat="45.27866" lon="4.63088">
        <ele>529</ele>
      </trkpt>
      <trkpt lat="45.27891" lon="4.63112">
        <ele>525.5</ele>
      </trkpt>
      <trkpt lat="45.27914" lon="4.63118">
        <ele>525.1</ele>
      </trkpt>
      <trkpt lat="45.27924" lon="4.6312">
        <ele>523.9</ele>
      </trkpt>
      <trkpt lat="45.27949" lon="4.63123">
        <ele>520.4</ele>
      </trkpt>
      <trkpt lat="45.2799" lon="4.63116">
        <ele>516.5</ele>
      </trkpt>
      <trkpt lat="45.28007" lon="4.63114">
        <ele>513.9</ele>
      </trkpt>
      <trkpt lat="45.28025" lon="4.6311">
        <ele>510.1</ele>
      </trkpt>
      <trkpt lat="45.28067" lon="4.63089">
        <ele>503.7</ele>
      </trkpt>
      <trkpt lat="45.28149" lon="4.63049">
        <ele>492.6</ele>
      </trkpt>
      <trkpt lat="45.28263" lon="4.62981">
        <ele>480.2</ele>
      </trkpt>
      <trkpt lat="45.28282" lon="4.62956">
        <ele>479</ele>
      </trkpt>
      <trkpt lat="45.28302" lon="4.62925">
        <ele>478.2</ele>
      </trkpt>
      <trkpt lat="45.2831" lon="4.62904">
        <ele>476.8</ele>
      </trkpt>
      <trkpt lat="45.28309" lon="4.62891">
        <ele>476.1</ele>
      </trkpt>
      <trkpt lat="45.28306" lon="4.62879">
        <ele>475.8</ele>
      </trkpt>
      <trkpt lat="45.28306" lon="4.62878">
        <ele>475.8</ele>
      </trkpt>
      <trkpt lat="45.2829" lon="4.6284">
        <ele>476.2</ele>
      </trkpt>
      <trkpt lat="45.28287" lon="4.62827">
        <ele>476.4</ele>
      </trkpt>
      <trkpt lat="45.2829" lon="4.62818">
        <ele>476</ele>
      </trkpt>
      <trkpt lat="45.2829" lon="4.62815">
        <ele>476</ele>
      </trkpt>
      <trkpt lat="45.28295" lon="4.6281">
        <ele>475.2</ele>
      </trkpt>
      <trkpt lat="45.28308" lon="4.62798">
        <ele>472.8</ele>
      </trkpt>
      <trkpt lat="45.28334" lon="4.6277">
        <ele>467.9</ele>
      </trkpt>
      <trkpt lat="45.28342" lon="4.62757">
        <ele>466.9</ele>
      </trkpt>
      <trkpt lat="45.28349" lon="4.62745">
        <ele>466.4</ele>
      </trkpt>
      <trkpt lat="45.28351" lon="4.62742">
        <ele>466.4</ele>
      </trkpt>
      <trkpt lat="45.28369" lon="4.62746">
        <ele>464</ele>
      </trkpt>
      <trkpt lat="45.28389" lon="4.62751">
        <ele>461.3</ele>
      </trkpt>
      <trkpt lat="45.2841" lon="4.62749">
        <ele>458.9</ele>
      </trkpt>
      <trkpt lat="45.28425" lon="4.62744">
        <ele>456.9</ele>
      </trkpt>
      <trkpt lat="45.28432" lon="4.62736">
        <ele>456.2</ele>
      </trkpt>
      <trkpt lat="45.28435" lon="4.62733">
        <ele>455.9</ele>
      </trkpt>
      <trkpt lat="45.2844" lon="4.62721">
        <ele>455.6</ele>
      </trkpt>
      <trkpt lat="45.28442" lon="4.62716">
        <ele>455.5</ele>
      </trkpt>
      <trkpt lat="45.28447" lon="4.627">
        <ele>455.5</ele>
      </trkpt>
      <trkpt lat="45.28454" lon="4.62697">
        <ele>454.3</ele>
      </trkpt>
      <trkpt lat="45.28457" lon="4.62702">
        <ele>453.5</ele>
      </trkpt>
      <trkpt lat="45.28464" lon="4.62784">
        <ele>448.7</ele>
      </trkpt>
      <trkpt lat="45.28472" lon="4.62789">
        <ele>447.3</ele>
      </trkpt>
      <trkpt lat="45.2848" lon="4.62781">
        <ele>446.3</ele>
      </trkpt>
      <trkpt lat="45.28486" lon="4.62763">
        <ele>446</ele>
      </trkpt>
      <trkpt lat="45.28508" lon="4.62752">
        <ele>444</ele>
      </trkpt>
      <trkpt lat="45.28514" lon="4.62753">
        <ele>444.1</ele>
      </trkpt>
      <trkpt lat="45.28517" lon="4.62768">
        <ele>443.8</ele>
      </trkpt>
      <trkpt lat="45.28516" lon="4.628">
        <ele>443</ele>
      </trkpt>
      <trkpt lat="45.28511" lon="4.63002">
        <ele>435</ele>
      </trkpt>
      <trkpt lat="45.28513" lon="4.63035">
        <ele>434.4</ele>
      </trkpt>
      <trkpt lat="45.28517" lon="4.63065">
        <ele>434.1</ele>
      </trkpt>
      <trkpt lat="45.28523" lon="4.631">
        <ele>435.4</ele>
      </trkpt>
      <trkpt lat="45.28514" lon="4.63103">
        <ele>435.1</ele>
      </trkpt>
      <trkpt lat="45.28506" lon="4.63107">
        <ele>434.8</ele>
      </trkpt>
      <trkpt lat="45.28472" lon="4.6312">
        <ele>434.5</ele>
      </trkpt>
      <trkpt lat="45.2845" lon="4.63132">
        <ele>434.1</ele>
      </trkpt>
      <trkpt lat="45.28419" lon="4.63153">
        <ele>432.5</ele>
      </trkpt>
      <trkpt lat="45.28414" lon="4.6316">
        <ele>432.1</ele>
      </trkpt>
      <trkpt lat="45.28414" lon="4.6317">
        <ele>432.2</ele>
      </trkpt>
      <trkpt lat="45.28417" lon="4.63181">
        <ele>433.2</ele>
      </trkpt>
      <trkpt lat="45.28419" lon="4.63188">
        <ele>434</ele>
      </trkpt>
      <trkpt lat="45.28433" lon="4.63179">
        <ele>434.3</ele>
      </trkpt>
      <trkpt lat="45.28424" lon="4.63205">
        <ele>435.9</ele>
      </trkpt>
      <trkpt lat="45.28433" lon="4.63205">
        <ele>436.8</ele>
      </trkpt>
      <trkpt lat="45.28443" lon="4.63218">
        <ele>439</ele>
      </trkpt>
      <trkpt lat="45.28457" lon="4.63223">
        <ele>440.9</ele>
      </trkpt>
      <trkpt lat="45.28463" lon="4.63229">
        <ele>442.2</ele>
      </trkpt>
      <trkpt lat="45.28472" lon="4.63253">
        <ele>445.9</ele>
      </trkpt>
      <trkpt lat="45.28483" lon="4.63278">
        <ele>449.2</ele>
      </trkpt>
      <trkpt lat="45.28487" lon="4.63276">
        <ele>449.5</ele>
      </trkpt>
      <trkpt lat="45.28546" lon="4.63253">
        <ele>454.2</ele>
      </trkpt>
      <trkpt lat="45.28543" lon="4.63264">
        <ele>454.8</ele>
      </trkpt>
      <trkpt lat="45.28539" lon="4.63282">
        <ele>455.9</ele>
      </trkpt>
      <trkpt lat="45.28532" lon="4.63308">
        <ele>457.3</ele>
      </trkpt>
      <trkpt lat="45.28539" lon="4.63318">
        <ele>458.9</ele>
      </trkpt>
      <trkpt lat="45.28558" lon="4.63348">
        <ele>462.5</ele>
      </trkpt>
      <trkpt lat="45.28569" lon="4.63352">
        <ele>463.8</ele>
      </trkpt>
      <trkpt lat="45.28591" lon="4.63343">
        <ele>466.2</ele>
      </trkpt>
      <trkpt lat="45.28593" lon="4.63341">
        <ele>466.4</ele>
      </trkpt>
      <trkpt lat="45.28602" lon="4.63336">
        <ele>467.5</ele>
      </trkpt>
      <trkpt lat="45.28616" lon="4.63325">
        <ele>468.6</ele>
      </trkpt>
      <trkpt lat="45.28624" lon="4.63326">
        <ele>469.7</ele>
      </trkpt>
      <trkpt lat="45.2863" lon="4.63326">
        <ele>470.5</ele>
      </trkpt>
      <trkpt lat="45.2863" lon="4.63328">
        <ele>470.7</ele>
      </trkpt>
      <trkpt lat="45.28635" lon="4.63342">
        <ele>472</ele>
      </trkpt>
      <trkpt lat="45.28635" lon="4.63361">
        <ele>472.3</ele>
      </trkpt>
      <trkpt lat="45.28631" lon="4.63367">
        <ele>471.9</ele>
      </trkpt>
      <trkpt lat="45.2863" lon="4.63368">
        <ele>471.8</ele>
      </trkpt>
      <trkpt lat="45.28647" lon="4.63415">
        <ele>474.6</ele>
      </trkpt>
      <trkpt lat="45.28668" lon="4.63465">
        <ele>473.1</ele>
      </trkpt>
      <trkpt lat="45.28688" lon="4.63472">
        <ele>474.7</ele>
      </trkpt>
      <trkpt lat="45.28696" lon="4.63474">
        <ele>475.4</ele>
      </trkpt>
      <trkpt lat="45.28703" lon="4.63476">
        <ele>475.9</ele>
      </trkpt>
      <trkpt lat="45.28708" lon="4.63473">
        <ele>476.7</ele>
      </trkpt>
      <trkpt lat="45.28712" lon="4.63484">
        <ele>476.2</ele>
      </trkpt>
      <trkpt lat="45.28723" lon="4.63493">
        <ele>476.7</ele>
      </trkpt>
      <trkpt lat="45.28728" lon="4.63498">
        <ele>476.8</ele>
      </trkpt>
      <trkpt lat="45.28735" lon="4.63518">
        <ele>473.8</ele>
      </trkpt>
      <trkpt lat="45.28732" lon="4.63532">
        <ele>470.7</ele>
      </trkpt>
      <trkpt lat="45.28725" lon="4.63544">
        <ele>467.6</ele>
      </trkpt>
      <trkpt lat="45.28763" lon="4.63552">
        <ele>470.2</ele>
      </trkpt>
      <trkpt lat="45.28792" lon="4.63558">
        <ele>473</ele>
      </trkpt>
      <trkpt lat="45.28794" lon="4.63559">
        <ele>473.1</ele>
      </trkpt>
      <trkpt lat="45.28836" lon="4.63574">
        <ele>475.5</ele>
      </trkpt>
      <trkpt lat="45.28911" lon="4.63592">
        <ele>480.2</ele>
      </trkpt>
      <trkpt lat="45.28948" lon="4.63592">
        <ele>486.3</ele>
      </trkpt>
      <trkpt lat="45.28966" lon="4.63597">
        <ele>488.4</ele>
      </trkpt>
      <trkpt lat="45.29002" lon="4.63612">
        <ele>492</ele>
      </trkpt>
      <trkpt lat="45.29031" lon="4.63632">
        <ele>495.8</ele>
      </trkpt>
      <trkpt lat="45.29069" lon="4.63658">
        <ele>500.2</ele>
      </trkpt>
      <trkpt lat="45.29113" lon="4.63698">
        <ele>504.8</ele>
      </trkpt>
      <trkpt lat="45.29161" lon="4.63729">
        <ele>512.4</ele>
      </trkpt>
      <trkpt lat="45.29207" lon="4.63765">
        <ele>517.5</ele>
      </trkpt>
      <trkpt lat="45.2925" lon="4.63794">
        <ele>523.4</ele>
      </trkpt>
      <trkpt lat="45.29277" lon="4.63814">
        <ele>528</ele>
      </trkpt>
      <trkpt lat="45.29326" lon="4.63867">
        <ele>532.4</ele>
      </trkpt>
      <trkpt lat="45.29366" lon="4.63902">
        <ele>534.6</ele>
      </trkpt>
      <trkpt lat="45.29387" lon="4.63915">
        <ele>536.3</ele>
      </trkpt>
      <trkpt lat="45.29413" lon="4.63918">
        <ele>541.7</ele>
      </trkpt>
      <trkpt lat="45.29463" lon="4.6389">
        <ele>546.8</ele>
      </trkpt>
      <trkpt lat="45.29492" lon="4.63863">
        <ele>553.5</ele>
      </trkpt>
      <trkpt lat="45.29594" lon="4.63805">
        <ele>540.4</ele>
      </trkpt>
      <trkpt lat="45.2963" lon="4.63783">
        <ele>538.5</ele>
      </trkpt>
      <trkpt lat="45.29656" lon="4.63764">
        <ele>538.5</ele>
      </trkpt>
      <trkpt lat="45.29681" lon="4.63743">
        <ele>540.2</ele>
      </trkpt>
      <trkpt lat="45.29697" lon="4.63732">
        <ele>540.4</ele>
      </trkpt>
      <trkpt lat="45.29742" lon="4.63749">
        <ele>540.9</ele>
      </trkpt>
      <trkpt lat="45.29825" lon="4.6379">
        <ele>540</ele>
      </trkpt>
      <trkpt lat="45.29868" lon="4.63803">
        <ele>540.5</ele>
      </trkpt>
      <trkpt lat="45.29921" lon="4.63812">
        <ele>541.1</ele>
      </trkpt>
      <trkpt lat="45.29968" lon="4.63814">
        <ele>539.3</ele>
      </trkpt>
      <trkpt lat="45.29999" lon="4.63809">
        <ele>538.5</ele>
      </trkpt>
      <trkpt lat="45.30037" lon="4.63799">
        <ele>538.4</ele>
      </trkpt>
      <trkpt lat="45.3012" lon="4.6379">
        <ele>538.3</ele>
      </trkpt>
      <trkpt lat="45.30125" lon="4.63789">
        <ele>538.4</ele>
      </trkpt>
      <trkpt lat="45.30133" lon="4.6379">
        <ele>538.4</ele>
      </trkpt>
      <trkpt lat="45.3015" lon="4.63816">
        <ele>536.9</ele>
      </trkpt>
      <trkpt lat="45.30184" lon="4.63847">
        <ele>535.6</ele>
      </trkpt>
      <trkpt lat="45.30186" lon="4.6385">
        <ele>535.4</ele>
      </trkpt>
      <trkpt lat="45.3021" lon="4.63909">
        <ele>532.9</ele>
      </trkpt>
      <trkpt lat="45.30202" lon="4.63931">
        <ele>531.3</ele>
      </trkpt>
      <trkpt lat="45.30207" lon="4.63931">
        <ele>531.3</ele>
      </trkpt>
      <trkpt lat="45.30202" lon="4.63931">
        <ele>531.3</ele>
      </trkpt>
      <trkpt lat="45.30208" lon="4.63946">
        <ele>530</ele>
      </trkpt>
      <trkpt lat="45.30217" lon="4.63959">
        <ele>528.7</ele>
      </trkpt>
      <trkpt lat="45.30221" lon="4.63964">
        <ele>528.2</ele>
      </trkpt>
      <trkpt lat="45.30232" lon="4.63978">
        <ele>526.4</ele>
      </trkpt>
      <trkpt lat="45.30239" lon="4.63986">
        <ele>525.2</ele>
      </trkpt>
      <trkpt lat="45.30259" lon="4.64005">
        <ele>521.8</ele>
      </trkpt>
      <trkpt lat="45.30273" lon="4.64012">
        <ele>519.9</ele>
      </trkpt>
      <trkpt lat="45.30275" lon="4.64012">
        <ele>519.7</ele>
      </trkpt>
      <trkpt lat="45.30297" lon="4.64016">
        <ele>517.1</ele>
      </trkpt>
      <trkpt lat="45.30324" lon="4.63996">
        <ele>514.8</ele>
      </trkpt>
      <trkpt lat="45.30377" lon="4.63945">
        <ele>517.4</ele>
      </trkpt>
      <trkpt lat="45.30448" lon="4.63903">
        <ele>515.9</ele>
      </trkpt>
      <trkpt lat="45.3047" lon="4.63886">
        <ele>519</ele>
      </trkpt>
      <trkpt lat="45.30506" lon="4.63868">
        <ele>521.1</ele>
      </trkpt>
      <trkpt lat="45.30544" lon="4.63869">
        <ele>517</ele>
      </trkpt>
      <trkpt lat="45.30588" lon="4.63859">
        <ele>513</ele>
      </trkpt>
      <trkpt lat="45.30606" lon="4.63849">
        <ele>513</ele>
      </trkpt>
      <trkpt lat="45.30644" lon="4.63819">
        <ele>516.8</ele>
      </trkpt>
      <trkpt lat="45.30655" lon="4.63812">
        <ele>518.3</ele>
      </trkpt>
      <trkpt lat="45.30671" lon="4.63802">
        <ele>519.8</ele>
      </trkpt>
      <trkpt lat="45.30706" lon="4.63756">
        <ele>522.3</ele>
      </trkpt>
      <trkpt lat="45.30753" lon="4.63719">
        <ele>522.1</ele>
      </trkpt>
      <trkpt lat="45.30791" lon="4.63703">
        <ele>523.8</ele>
      </trkpt>
      <trkpt lat="45.30833" lon="4.63678">
        <ele>524.3</ele>
      </trkpt>
      <trkpt lat="45.30851" lon="4.63664">
        <ele>525</ele>
      </trkpt>
      <trkpt lat="45.30881" lon="4.63658">
        <ele>523.4</ele>
      </trkpt>
      <trkpt lat="45.30893" lon="4.63656">
        <ele>522.6</ele>
      </trkpt>
      <trkpt lat="45.30955" lon="4.63639">
        <ele>520</ele>
      </trkpt>
      <trkpt lat="45.30963" lon="4.63644">
        <ele>519.5</ele>
      </trkpt>
      <trkpt lat="45.30975" lon="4.63655">
        <ele>518.8</ele>
      </trkpt>
      <trkpt lat="45.30977" lon="4.63658">
        <ele>518.7</ele>
      </trkpt>
      <trkpt lat="45.30982" lon="4.63668">
        <ele>518.5</ele>
      </trkpt>
      <trkpt lat="45.30983" lon="4.63683">
        <ele>518.8</ele>
      </trkpt>
      <trkpt lat="45.30928" lon="4.63715">
        <ele>519</ele>
      </trkpt>
      <trkpt lat="45.30909" lon="4.63743">
        <ele>517.8</ele>
      </trkpt>
      <trkpt lat="45.30898" lon="4.63799">
        <ele>518.3</ele>
      </trkpt>
      <trkpt lat="45.30875" lon="4.63847">
        <ele>519.7</ele>
      </trkpt>
      <trkpt lat="45.30852" lon="4.63876">
        <ele>520.8</ele>
      </trkpt>
      <trkpt lat="45.30814" lon="4.63884">
        <ele>519.3</ele>
      </trkpt>
      <trkpt lat="45.30795" lon="4.63917">
        <ele>520.6</ele>
      </trkpt>
      <trkpt lat="45.30805" lon="4.63942">
        <ele>522.6</ele>
      </trkpt>
      <trkpt lat="45.30812" lon="4.63955">
        <ele>523.8</ele>
      </trkpt>
      <trkpt lat="45.30819" lon="4.63959">
        <ele>524.4</ele>
      </trkpt>
      <trkpt lat="45.30824" lon="4.63963">
        <ele>524.9</ele>
      </trkpt>
      <trkpt lat="45.30827" lon="4.63959">
        <ele>524.7</ele>
      </trkpt>
      <trkpt lat="45.3083" lon="4.63953">
        <ele>524.5</ele>
      </trkpt>
      <trkpt lat="45.30848" lon="4.63952">
        <ele>525.8</ele>
      </trkpt>
      <trkpt lat="45.30854" lon="4.63953">
        <ele>526.4</ele>
      </trkpt>
      <trkpt lat="45.30866" lon="4.63964">
        <ele>528.1</ele>
      </trkpt>
      <trkpt lat="45.30915" lon="4.63956">
        <ele>531.7</ele>
      </trkpt>
      <trkpt lat="45.30921" lon="4.63957">
        <ele>532.3</ele>
      </trkpt>
      <trkpt lat="45.3094" lon="4.63951">
        <ele>533.4</ele>
      </trkpt>
      <trkpt lat="45.30946" lon="4.63949">
        <ele>533.7</ele>
      </trkpt>
      <trkpt lat="45.30954" lon="4.63939">
        <ele>533.7</ele>
      </trkpt>
      <trkpt lat="45.30979" lon="4.63915">
        <ele>533.6</ele>
      </trkpt>
      <trkpt lat="45.31009" lon="4.63889">
        <ele>534.6</ele>
      </trkpt>
      <trkpt lat="45.31021" lon="4.63911">
        <ele>538.1</ele>
      </trkpt>
      <trkpt lat="45.31036" lon="4.6392">
        <ele>541.2</ele>
      </trkpt>
      <trkpt lat="45.31056" lon="4.63932">
        <ele>545.1</ele>
      </trkpt>
      <trkpt lat="45.31082" lon="4.63985">
        <ele>550.5</ele>
      </trkpt>
      <trkpt lat="45.3109" lon="4.63992">
        <ele>551.4</ele>
      </trkpt>
      <trkpt lat="45.31108" lon="4.64037">
        <ele>554.4</ele>
      </trkpt>
      <trkpt lat="45.31136" lon="4.64093">
        <ele>558.9</ele>
      </trkpt>
      <trkpt lat="45.31147" lon="4.64127">
        <ele>560.8</ele>
      </trkpt>
      <trkpt lat="45.31163" lon="4.64166">
        <ele>563.5</ele>
      </trkpt>
      <trkpt lat="45.31236" lon="4.64321">
        <ele>569.4</ele>
      </trkpt>
      <trkpt lat="45.31259" lon="4.6439">
        <ele>573.4</ele>
      </trkpt>
      <trkpt lat="45.31263" lon="4.64414">
        <ele>574.5</ele>
      </trkpt>
      <trkpt lat="45.31268" lon="4.64472">
        <ele>576.6</ele>
      </trkpt>
      <trkpt lat="45.31276" lon="4.64505">
        <ele>578.3</ele>
      </trkpt>
      <trkpt lat="45.31284" lon="4.64515">
        <ele>579.1</ele>
      </trkpt>
      <trkpt lat="45.31301" lon="4.64522">
        <ele>581</ele>
      </trkpt>
      <trkpt lat="45.31324" lon="4.64539">
        <ele>583.1</ele>
      </trkpt>
      <trkpt lat="45.31345" lon="4.64577">
        <ele>583.3</ele>
      </trkpt>
      <trkpt lat="45.31378" lon="4.64674">
        <ele>588.4</ele>
      </trkpt>
      <trkpt lat="45.31398" lon="4.64718">
        <ele>591.2</ele>
      </trkpt>
      <trkpt lat="45.31401" lon="4.64741">
        <ele>592.2</ele>
      </trkpt>
      <trkpt lat="45.31383" lon="4.64798">
        <ele>593</ele>
      </trkpt>
      <trkpt lat="45.31327" lon="4.64923">
        <ele>595.8</ele>
      </trkpt>
      <trkpt lat="45.31313" lon="4.64946">
        <ele>595.9</ele>
      </trkpt>
      <trkpt lat="45.31298" lon="4.64968">
        <ele>595.9</ele>
      </trkpt>
      <trkpt lat="45.31277" lon="4.65003">
        <ele>596.4</ele>
      </trkpt>
      <trkpt lat="45.31264" lon="4.65043">
        <ele>597.7</ele>
      </trkpt>
      <trkpt lat="45.3125" lon="4.65086">
        <ele>599</ele>
      </trkpt>
      <trkpt lat="45.31236" lon="4.65158">
        <ele>598.3</ele>
      </trkpt>
      <trkpt lat="45.31235" lon="4.65167">
        <ele>598.3</ele>
      </trkpt>
      <trkpt lat="45.3123" lon="4.65186">
        <ele>597.9</ele>
      </trkpt>
      <trkpt lat="45.31222" lon="4.65266">
        <ele>596.9</ele>
      </trkpt>
      <trkpt lat="45.31222" lon="4.65293">
        <ele>596.6</ele>
      </trkpt>
      <trkpt lat="45.31224" lon="4.65302">
        <ele>596.7</ele>
      </trkpt>
      <trkpt lat="45.31231" lon="4.65332">
        <ele>596.9</ele>
      </trkpt>
      <trkpt lat="45.31234" lon="4.65356">
        <ele>597.2</ele>
      </trkpt>
      <trkpt lat="45.31235" lon="4.6539">
        <ele>597.5</ele>
      </trkpt>
      <trkpt lat="45.31231" lon="4.6541">
        <ele>597.5</ele>
      </trkpt>
      <trkpt lat="45.31225" lon="4.65434">
        <ele>598.3</ele>
      </trkpt>
      <trkpt lat="45.31224" lon="4.65437">
        <ele>598.4</ele>
      </trkpt>
      <trkpt lat="45.31219" lon="4.65453">
        <ele>599.2</ele>
      </trkpt>
      <trkpt lat="45.31209" lon="4.6548">
        <ele>600.4</ele>
      </trkpt>
      <trkpt lat="45.31208" lon="4.65483">
        <ele>600.6</ele>
      </trkpt>
      <trkpt lat="45.312" lon="4.65505">
        <ele>601.9</ele>
      </trkpt>
      <trkpt lat="45.31193" lon="4.65521">
        <ele>603.2</ele>
      </trkpt>
      <trkpt lat="45.31181" lon="4.65554">
        <ele>605.9</ele>
      </trkpt>
      <trkpt lat="45.31167" lon="4.65599">
        <ele>609.7</ele>
      </trkpt>
      <trkpt lat="45.31163" lon="4.65609">
        <ele>610.7</ele>
      </trkpt>
      <trkpt lat="45.31173" lon="4.65614">
        <ele>611.6</ele>
      </trkpt>
      <trkpt lat="45.31197" lon="4.65612">
        <ele>612.3</ele>
      </trkpt>
      <trkpt lat="45.31218" lon="4.65629">
        <ele>615.1</ele>
      </trkpt>
      <trkpt lat="45.31223" lon="4.65649">
        <ele>617.7</ele>
      </trkpt>
      <trkpt lat="45.31229" lon="4.65668">
        <ele>620.2</ele>
      </trkpt>
      <trkpt lat="45.31236" lon="4.65671">
        <ele>621</ele>
      </trkpt>
      <trkpt lat="45.31251" lon="4.65675">
        <ele>622.3</ele>
      </trkpt>
      <trkpt lat="45.31267" lon="4.65677">
        <ele>623.3</ele>
      </trkpt>
      <trkpt lat="45.31279" lon="4.65677">
        <ele>623.7</ele>
      </trkpt>
      <trkpt lat="45.31294" lon="4.65677">
        <ele>624.3</ele>
      </trkpt>
      <trkpt lat="45.31295" lon="4.65677">
        <ele>624.4</ele>
      </trkpt>
      <trkpt lat="45.31305" lon="4.65673">
        <ele>624.1</ele>
      </trkpt>
      <trkpt lat="45.31322" lon="4.65663">
        <ele>623.1</ele>
      </trkpt>
      <trkpt lat="45.31336" lon="4.65655">
        <ele>622.6</ele>
      </trkpt>
      <trkpt lat="45.31351" lon="4.65656">
        <ele>623.4</ele>
      </trkpt>
      <trkpt lat="45.31356" lon="4.65657">
        <ele>623.8</ele>
      </trkpt>
      <trkpt lat="45.31379" lon="4.65662">
        <ele>625.6</ele>
      </trkpt>
      <trkpt lat="45.31409" lon="4.65672">
        <ele>628.4</ele>
      </trkpt>
      <trkpt lat="45.31414" lon="4.65676">
        <ele>629.2</ele>
      </trkpt>
      <trkpt lat="45.31426" lon="4.65686">
        <ele>631.1</ele>
      </trkpt>
      <trkpt lat="45.31464" lon="4.65725">
        <ele>637.3</ele>
      </trkpt>
      <trkpt lat="45.31475" lon="4.65733">
        <ele>638.5</ele>
      </trkpt>
      <trkpt lat="45.31507" lon="4.65747">
        <ele>640.5</ele>
      </trkpt>
      <trkpt lat="45.31513" lon="4.65752">
        <ele>640.9</ele>
      </trkpt>
      <trkpt lat="45.31514" lon="4.65758">
        <ele>641.4</ele>
      </trkpt>
      <trkpt lat="45.31512" lon="4.65766">
        <ele>642.2</ele>
      </trkpt>
      <trkpt lat="45.31468" lon="4.6579">
        <ele>645</ele>
      </trkpt>
      <trkpt lat="45.31467" lon="4.65791">
        <ele>645.1</ele>
      </trkpt>
      <trkpt lat="45.31457" lon="4.65795">
        <ele>645.6</ele>
      </trkpt>
      <trkpt lat="45.31455" lon="4.65797">
        <ele>645.9</ele>
      </trkpt>
      <trkpt lat="45.31419" lon="4.65814">
        <ele>648.4</ele>
      </trkpt>
      <trkpt lat="45.31394" lon="4.65833">
        <ele>651.8</ele>
      </trkpt>
      <trkpt lat="45.31382" lon="4.65848">
        <ele>653.2</ele>
      </trkpt>
      <trkpt lat="45.31381" lon="4.65866">
        <ele>654.4</ele>
      </trkpt>
      <trkpt lat="45.31384" lon="4.65882">
        <ele>655.5</ele>
      </trkpt>
      <trkpt lat="45.31387" lon="4.65898">
        <ele>656.6</ele>
      </trkpt>
      <trkpt lat="45.31389" lon="4.65928">
        <ele>658.5</ele>
      </trkpt>
      <trkpt lat="45.31388" lon="4.65986">
        <ele>660.7</ele>
      </trkpt>
      <trkpt lat="45.31395" lon="4.66014">
        <ele>662.3</ele>
      </trkpt>
      <trkpt lat="45.31401" lon="4.66029">
        <ele>663.1</ele>
      </trkpt>
      <trkpt lat="45.31406" lon="4.66041">
        <ele>663.8</ele>
      </trkpt>
      <trkpt lat="45.31383" lon="4.66007">
        <ele>660.7</ele>
      </trkpt>
      <trkpt lat="45.3134" lon="4.6594">
        <ele>655.9</ele>
      </trkpt>
      <trkpt lat="45.31326" lon="4.65927">
        <ele>654.6</ele>
      </trkpt>
      <trkpt lat="45.31304" lon="4.65912">
        <ele>651</ele>
      </trkpt>
      <trkpt lat="45.31289" lon="4.65895">
        <ele>648.4</ele>
      </trkpt>
      <trkpt lat="45.31268" lon="4.6587">
        <ele>645.2</ele>
      </trkpt>
      <trkpt lat="45.31256" lon="4.65859">
        <ele>643.6</ele>
      </trkpt>
      <trkpt lat="45.31244" lon="4.65846">
        <ele>642.2</ele>
      </trkpt>
      <trkpt lat="45.31236" lon="4.65834">
        <ele>641.2</ele>
      </trkpt>
      <trkpt lat="45.31223" lon="4.65818">
        <ele>637.8</ele>
      </trkpt>
      <trkpt lat="45.31218" lon="4.65821">
        <ele>637.5</ele>
      </trkpt>
      <trkpt lat="45.3121" lon="4.65825">
        <ele>636.9</ele>
      </trkpt>
      <trkpt lat="45.31202" lon="4.65833">
        <ele>636.6</ele>
      </trkpt>
      <trkpt lat="45.31198" lon="4.65839">
        <ele>636.6</ele>
      </trkpt>
      <trkpt lat="45.31198" lon="4.65848">
        <ele>637.3</ele>
      </trkpt>
      <trkpt lat="45.312" lon="4.65856">
        <ele>638.1</ele>
      </trkpt>
      <trkpt lat="45.31192" lon="4.65857">
        <ele>637.4</ele>
      </trkpt>
      <trkpt lat="45.31173" lon="4.65879">
        <ele>638.4</ele>
      </trkpt>
      <trkpt lat="45.31166" lon="4.659">
        <ele>640.9</ele>
      </trkpt>
      <trkpt lat="45.31149" lon="4.65935">
        <ele>649.4</ele>
      </trkpt>
      <trkpt lat="45.31134" lon="4.6596">
        <ele>656.7</ele>
      </trkpt>
      <trkpt lat="45.31039" lon="4.66086">
        <ele>690.7</ele>
      </trkpt>
      <trkpt lat="45.31025" lon="4.66105">
        <ele>691.3</ele>
      </trkpt>
      <trkpt lat="45.31017" lon="4.66095">
        <ele>691.8</ele>
      </trkpt>
      <trkpt lat="45.30999" lon="4.66062">
        <ele>690.8</ele>
      </trkpt>
      <trkpt lat="45.30982" lon="4.66038">
        <ele>687.1</ele>
      </trkpt>
      <trkpt lat="45.3092" lon="4.65957">
        <ele>681.2</ele>
      </trkpt>
      <trkpt lat="45.30903" lon="4.6594">
        <ele>678.6</ele>
      </trkpt>
      <trkpt lat="45.30886" lon="4.65925">
        <ele>675.9</ele>
      </trkpt>
      <trkpt lat="45.30878" lon="4.65925">
        <ele>675</ele>
      </trkpt>
      <trkpt lat="45.30864" lon="4.65931">
        <ele>673.3</ele>
      </trkpt>
      <trkpt lat="45.30821" lon="4.65964">
        <ele>664.4</ele>
      </trkpt>
      <trkpt lat="45.30818" lon="4.65971">
        <ele>663.3</ele>
      </trkpt>
      <trkpt lat="45.30821" lon="4.66007">
        <ele>662.3</ele>
      </trkpt>
      <trkpt lat="45.30825" lon="4.66035">
        <ele>659.9</ele>
      </trkpt>
      <trkpt lat="45.30833" lon="4.66054">
        <ele>659.2</ele>
      </trkpt>
      <trkpt lat="45.30841" lon="4.66069">
        <ele>659.1</ele>
      </trkpt>
      <trkpt lat="45.30843" lon="4.66071">
        <ele>659.3</ele>
      </trkpt>
      <trkpt lat="45.30853" lon="4.6608">
        <ele>660.9</ele>
      </trkpt>
      <trkpt lat="45.30872" lon="4.66097">
        <ele>663.6</ele>
      </trkpt>
      <trkpt lat="45.30881" lon="4.66109">
        <ele>664.4</ele>
      </trkpt>
      <trkpt lat="45.30886" lon="4.66128">
        <ele>663</ele>
      </trkpt>
      <trkpt lat="45.30883" lon="4.66204">
        <ele>655.8</ele>
      </trkpt>
      <trkpt lat="45.30879" lon="4.66226">
        <ele>654.1</ele>
      </trkpt>
      <trkpt lat="45.30874" lon="4.66232">
        <ele>652.5</ele>
      </trkpt>
      <trkpt lat="45.3087" lon="4.66232">
        <ele>651.3</ele>
      </trkpt>
      <trkpt lat="45.30866" lon="4.66227">
        <ele>650.2</ele>
      </trkpt>
      <trkpt lat="45.30868" lon="4.66208">
        <ele>651.1</ele>
      </trkpt>
      <trkpt lat="45.30867" lon="4.662">
        <ele>650.9</ele>
      </trkpt>
      <trkpt lat="45.30845" lon="4.66165">
        <ele>644.9</ele>
      </trkpt>
      <trkpt lat="45.30839" lon="4.6616">
        <ele>643.9</ele>
      </trkpt>
      <trkpt lat="45.30835" lon="4.66159">
        <ele>642.8</ele>
      </trkpt>
      <trkpt lat="45.3083" lon="4.66159">
        <ele>641.9</ele>
      </trkpt>
      <trkpt lat="45.30811" lon="4.66169">
        <ele>638.2</ele>
      </trkpt>
      <trkpt lat="45.30795" lon="4.66175">
        <ele>635.8</ele>
      </trkpt>
      <trkpt lat="45.30775" lon="4.66179">
        <ele>632.7</ele>
      </trkpt>
      <trkpt lat="45.3073" lon="4.66174">
        <ele>627.5</ele>
      </trkpt>
      <trkpt lat="45.30698" lon="4.66186">
        <ele>622</ele>
      </trkpt>
      <trkpt lat="45.30688" lon="4.66186">
        <ele>620.8</ele>
      </trkpt>
      <trkpt lat="45.30675" lon="4.66182">
        <ele>619.8</ele>
      </trkpt>
      <trkpt lat="45.30661" lon="4.66175">
        <ele>619</ele>
      </trkpt>
      <trkpt lat="45.30656" lon="4.66176">
        <ele>618.2</ele>
      </trkpt>
      <trkpt lat="45.30657" lon="4.66184">
        <ele>617.3</ele>
      </trkpt>
      <trkpt lat="45.30681" lon="4.66218">
        <ele>615.3</ele>
      </trkpt>
      <trkpt lat="45.30698" lon="4.66248">
        <ele>613</ele>
      </trkpt>
      <trkpt lat="45.30701" lon="4.66258">
        <ele>613</ele>
      </trkpt>
      <trkpt lat="45.30692" lon="4.66275">
        <ele>611.9</ele>
      </trkpt>
      <trkpt lat="45.30694" lon="4.66276">
        <ele>612.1</ele>
      </trkpt>
      <trkpt lat="45.30701" lon="4.66288">
        <ele>612.6</ele>
      </trkpt>
      <trkpt lat="45.30705" lon="4.663">
        <ele>612.8</ele>
      </trkpt>
      <trkpt lat="45.30705" lon="4.66318">
        <ele>612.5</ele>
      </trkpt>
      <trkpt lat="45.30692" lon="4.66341">
        <ele>612.5</ele>
      </trkpt>
      <trkpt lat="45.30686" lon="4.66344">
        <ele>612.7</ele>
      </trkpt>
      <trkpt lat="45.30671" lon="4.66343">
        <ele>611.9</ele>
      </trkpt>
      <trkpt lat="45.30624" lon="4.66323">
        <ele>611.3</ele>
      </trkpt>
      <trkpt lat="45.30605" lon="4.66322">
        <ele>611.8</ele>
      </trkpt>
      <trkpt lat="45.30579" lon="4.66324">
        <ele>612.6</ele>
      </trkpt>
      <trkpt lat="45.30554" lon="4.66339">
        <ele>613.6</ele>
      </trkpt>
      <trkpt lat="45.30552" lon="4.66343">
        <ele>614</ele>
      </trkpt>
      <trkpt lat="45.30525" lon="4.66384">
        <ele>617.1</ele>
      </trkpt>
      <trkpt lat="45.30502" lon="4.66425">
        <ele>618.2</ele>
      </trkpt>
      <trkpt lat="45.30495" lon="4.66447">
        <ele>617.9</ele>
      </trkpt>
      <trkpt lat="45.30493" lon="4.66465">
        <ele>617.8</ele>
      </trkpt>
      <trkpt lat="45.30494" lon="4.66482">
        <ele>617.7</ele>
      </trkpt>
      <trkpt lat="45.30487" lon="4.66484">
        <ele>617.4</ele>
      </trkpt>
      <trkpt lat="45.30481" lon="4.66491">
        <ele>617</ele>
      </trkpt>
      <trkpt lat="45.30476" lon="4.66509">
        <ele>615.8</ele>
      </trkpt>
      <trkpt lat="45.3049" lon="4.66586">
        <ele>611.2</ele>
      </trkpt>
      <trkpt lat="45.30492" lon="4.66612">
        <ele>609.7</ele>
      </trkpt>
      <trkpt lat="45.30504" lon="4.66642">
        <ele>610.3</ele>
      </trkpt>
      <trkpt lat="45.30511" lon="4.66661">
        <ele>610.8</ele>
      </trkpt>
      <trkpt lat="45.3052" lon="4.66705">
        <ele>610.2</ele>
      </trkpt>
      <trkpt lat="45.30522" lon="4.66752">
        <ele>608</ele>
      </trkpt>
      <trkpt lat="45.30528" lon="4.66802">
        <ele>607.2</ele>
      </trkpt>
      <trkpt lat="45.30528" lon="4.66837">
        <ele>605.5</ele>
      </trkpt>
      <trkpt lat="45.30535" lon="4.66873">
        <ele>605.4</ele>
      </trkpt>
      <trkpt lat="45.30541" lon="4.66903">
        <ele>605.2</ele>
      </trkpt>
      <trkpt lat="45.30553" lon="4.66961">
        <ele>603.9</ele>
      </trkpt>
      <trkpt lat="45.30574" lon="4.67005">
        <ele>605.4</ele>
      </trkpt>
      <trkpt lat="45.30589" lon="4.67047">
        <ele>605.1</ele>
      </trkpt>
      <trkpt lat="45.30596" lon="4.67072">
        <ele>605</ele>
      </trkpt>
      <trkpt lat="45.30596" lon="4.67085">
        <ele>604</ele>
      </trkpt>
      <trkpt lat="45.30593" lon="4.67095">
        <ele>603.3</ele>
      </trkpt>
      <trkpt lat="45.30574" lon="4.67125">
        <ele>598.5</ele>
      </trkpt>
      <trkpt lat="45.30553" lon="4.67187">
        <ele>593.8</ele>
      </trkpt>
      <trkpt lat="45.3055" lon="4.6721">
        <ele>593.4</ele>
      </trkpt>
      <trkpt lat="45.30552" lon="4.67233">
        <ele>594.6</ele>
      </trkpt>
      <trkpt lat="45.30559" lon="4.67263">
        <ele>595.9</ele>
      </trkpt>
      <trkpt lat="45.30573" lon="4.67303">
        <ele>596.7</ele>
      </trkpt>
      <trkpt lat="45.306" lon="4.67396">
        <ele>593.7</ele>
      </trkpt>
      <trkpt lat="45.30621" lon="4.67441">
        <ele>594.5</ele>
      </trkpt>
      <trkpt lat="45.30634" lon="4.67459">
        <ele>596</ele>
      </trkpt>
      <trkpt lat="45.30654" lon="4.67478">
        <ele>598.6</ele>
      </trkpt>
      <trkpt lat="45.30662" lon="4.67488">
        <ele>599.3</ele>
      </trkpt>
      <trkpt lat="45.30677" lon="4.67523">
        <ele>599.7</ele>
      </trkpt>
      <trkpt lat="45.30699" lon="4.67561">
        <ele>601.6</ele>
      </trkpt>
      <trkpt lat="45.30719" lon="4.67592">
        <ele>602.9</ele>
      </trkpt>
      <trkpt lat="45.30749" lon="4.67623">
        <ele>605.1</ele>
      </trkpt>
      <trkpt lat="45.30755" lon="4.67645">
        <ele>602.9</ele>
      </trkpt>
      <trkpt lat="45.30766" lon="4.67667">
        <ele>601.3</ele>
      </trkpt>
      <trkpt lat="45.30783" lon="4.67689">
        <ele>601.9</ele>
      </trkpt>
      <trkpt lat="45.308" lon="4.67699">
        <ele>603.4</ele>
      </trkpt>
      <trkpt lat="45.30815" lon="4.67708">
        <ele>604.6</ele>
      </trkpt>
      <trkpt lat="45.30817" lon="4.67724">
        <ele>603.4</ele>
      </trkpt>
      <trkpt lat="45.30816" lon="4.6773">
        <ele>602.7</ele>
      </trkpt>
      <trkpt lat="45.30814" lon="4.67747">
        <ele>601</ele>
      </trkpt>
      <trkpt lat="45.30812" lon="4.67779">
        <ele>601.8</ele>
      </trkpt>
      <trkpt lat="45.30778" lon="4.67839">
        <ele>601.8</ele>
      </trkpt>
      <trkpt lat="45.30766" lon="4.67873">
        <ele>604.2</ele>
      </trkpt>
      <trkpt lat="45.30781" lon="4.67903">
        <ele>607.6</ele>
      </trkpt>
      <trkpt lat="45.30798" lon="4.67933">
        <ele>610.1</ele>
      </trkpt>
      <trkpt lat="45.30817" lon="4.67967">
        <ele>611.3</ele>
      </trkpt>
      <trkpt lat="45.30823" lon="4.67974">
        <ele>611.2</ele>
      </trkpt>
      <trkpt lat="45.30829" lon="4.6798">
        <ele>611</ele>
      </trkpt>
      <trkpt lat="45.30822" lon="4.68035">
        <ele>612.8</ele>
      </trkpt>
      <trkpt lat="45.30826" lon="4.6806">
        <ele>612.8</ele>
      </trkpt>
      <trkpt lat="45.30839" lon="4.68114">
        <ele>612.5</ele>
      </trkpt>
      <trkpt lat="45.30841" lon="4.68129">
        <ele>612.6</ele>
      </trkpt>
      <trkpt lat="45.30833" lon="4.68208">
        <ele>618.6</ele>
      </trkpt>
      <trkpt lat="45.30833" lon="4.68233">
        <ele>620.1</ele>
      </trkpt>
      <trkpt lat="45.30838" lon="4.68249">
        <ele>619.3</ele>
      </trkpt>
      <trkpt lat="45.30859" lon="4.68298">
        <ele>614.6</ele>
      </trkpt>
      <trkpt lat="45.30865" lon="4.68318">
        <ele>613.8</ele>
      </trkpt>
      <trkpt lat="45.30868" lon="4.68345">
        <ele>613.5</ele>
      </trkpt>
      <trkpt lat="45.30869" lon="4.68366">
        <ele>612.7</ele>
      </trkpt>
      <trkpt lat="45.30865" lon="4.68402">
        <ele>613</ele>
      </trkpt>
      <trkpt lat="45.30857" lon="4.68443">
        <ele>612.7</ele>
      </trkpt>
      <trkpt lat="45.30835" lon="4.68503">
        <ele>613.5</ele>
      </trkpt>
      <trkpt lat="45.3082" lon="4.68533">
        <ele>613.5</ele>
      </trkpt>
      <trkpt lat="45.308" lon="4.68567">
        <ele>613.2</ele>
      </trkpt>
      <trkpt lat="45.30799" lon="4.68569">
        <ele>613.2</ele>
      </trkpt>
      <trkpt lat="45.3078" lon="4.68593">
        <ele>613.9</ele>
      </trkpt>
      <trkpt lat="45.30793" lon="4.68601">
        <ele>613.6</ele>
      </trkpt>
      <trkpt lat="45.30805" lon="4.68603">
        <ele>613.1</ele>
      </trkpt>
      <trkpt lat="45.30805" lon="4.6862">
        <ele>613.8</ele>
      </trkpt>
      <trkpt lat="45.30807" lon="4.68648">
        <ele>614.9</ele>
      </trkpt>
      <trkpt lat="45.30813" lon="4.68681">
        <ele>616.4</ele>
      </trkpt>
      <trkpt lat="45.30813" lon="4.68695">
        <ele>617.4</ele>
      </trkpt>
      <trkpt lat="45.3078" lon="4.68735">
        <ele>621.4</ele>
      </trkpt>
      <trkpt lat="45.30776" lon="4.68742">
        <ele>622.1</ele>
      </trkpt>
      <trkpt lat="45.30765" lon="4.68765">
        <ele>623.9</ele>
      </trkpt>
      <trkpt lat="45.30756" lon="4.68802">
        <ele>626.1</ele>
      </trkpt>
      <trkpt lat="45.30761" lon="4.68856">
        <ele>627.6</ele>
      </trkpt>
      <trkpt lat="45.30771" lon="4.68898">
        <ele>627.1</ele>
      </trkpt>
      <trkpt lat="45.30772" lon="4.68925">
        <ele>626.6</ele>
      </trkpt>
      <trkpt lat="45.30768" lon="4.68958">
        <ele>625.5</ele>
      </trkpt>
      <trkpt lat="45.30759" lon="4.6899">
        <ele>625.6</ele>
      </trkpt>
      <trkpt lat="45.30745" lon="4.69031">
        <ele>624.6</ele>
      </trkpt>
      <trkpt lat="45.30738" lon="4.69066">
        <ele>622.4</ele>
      </trkpt>
      <trkpt lat="45.30725" lon="4.69188">
        <ele>622.2</ele>
      </trkpt>
      <trkpt lat="45.30724" lon="4.69211">
        <ele>623.6</ele>
      </trkpt>
      <trkpt lat="45.30726" lon="4.69236">
        <ele>624.6</ele>
      </trkpt>
      <trkpt lat="45.30736" lon="4.69269">
        <ele>626.3</ele>
      </trkpt>
      <trkpt lat="45.30745" lon="4.69278">
        <ele>626.2</ele>
      </trkpt>
      <trkpt lat="45.30789" lon="4.69325">
        <ele>620.4</ele>
      </trkpt>
      <trkpt lat="45.30807" lon="4.69352">
        <ele>619.1</ele>
      </trkpt>
      <trkpt lat="45.30835" lon="4.69382">
        <ele>615</ele>
      </trkpt>
      <trkpt lat="45.30854" lon="4.69413">
        <ele>613.2</ele>
      </trkpt>
      <trkpt lat="45.30869" lon="4.6945">
        <ele>611.4</ele>
      </trkpt>
      <trkpt lat="45.30874" lon="4.69491">
        <ele>612.7</ele>
      </trkpt>
      <trkpt lat="45.30875" lon="4.6954">
        <ele>615.4</ele>
      </trkpt>
      <trkpt lat="45.30875" lon="4.69553">
        <ele>616.2</ele>
      </trkpt>
      <trkpt lat="45.3088" lon="4.69574">
        <ele>615.2</ele>
      </trkpt>
      <trkpt lat="45.30886" lon="4.696">
        <ele>614.7</ele>
      </trkpt>
      <trkpt lat="45.30904" lon="4.69663">
        <ele>613.2</ele>
      </trkpt>
      <trkpt lat="45.30922" lon="4.69707">
        <ele>610</ele>
      </trkpt>
      <trkpt lat="45.30944" lon="4.69756">
        <ele>605.5</ele>
      </trkpt>
      <trkpt lat="45.30968" lon="4.69821">
        <ele>601.5</ele>
      </trkpt>
      <trkpt lat="45.30994" lon="4.69898">
        <ele>597.8</ele>
      </trkpt>
      <trkpt lat="45.31023" lon="4.69973">
        <ele>596.4</ele>
      </trkpt>
      <trkpt lat="45.31049" lon="4.70034">
        <ele>594.5</ele>
      </trkpt>
      <trkpt lat="45.31074" lon="4.70134">
        <ele>593</ele>
      </trkpt>
      <trkpt lat="45.31082" lon="4.70164">
        <ele>592.2</ele>
      </trkpt>
      <trkpt lat="45.311" lon="4.70207">
        <ele>589.2</ele>
      </trkpt>
      <trkpt lat="45.31104" lon="4.70238">
        <ele>588.6</ele>
      </trkpt>
      <trkpt lat="45.31112" lon="4.7026">
        <ele>587.6</ele>
      </trkpt>
      <trkpt lat="45.31129" lon="4.70296">
        <ele>585.8</ele>
      </trkpt>
      <trkpt lat="45.31149" lon="4.70336">
        <ele>584.9</ele>
      </trkpt>
      <trkpt lat="45.31165" lon="4.70377">
        <ele>583.9</ele>
      </trkpt>
      <trkpt lat="45.31187" lon="4.70415">
        <ele>583.3</ele>
      </trkpt>
      <trkpt lat="45.31208" lon="4.70459">
        <ele>581.5</ele>
      </trkpt>
      <trkpt lat="45.3122" lon="4.70509">
        <ele>579.3</ele>
      </trkpt>
      <trkpt lat="45.31226" lon="4.70624">
        <ele>571.6</ele>
      </trkpt>
      <trkpt lat="45.31235" lon="4.7066">
        <ele>569.6</ele>
      </trkpt>
      <trkpt lat="45.3125" lon="4.70691">
        <ele>567.7</ele>
      </trkpt>
      <trkpt lat="45.31252" lon="4.70711">
        <ele>565.5</ele>
      </trkpt>
      <trkpt lat="45.3124" lon="4.70741">
        <ele>562.6</ele>
      </trkpt>
      <trkpt lat="45.31223" lon="4.70768">
        <ele>558.7</ele>
      </trkpt>
      <trkpt lat="45.31186" lon="4.7079">
        <ele>555</ele>
      </trkpt>
      <trkpt lat="45.31178" lon="4.70798">
        <ele>553.8</ele>
      </trkpt>
      <trkpt lat="45.31145" lon="4.70802">
        <ele>550.2</ele>
      </trkpt>
      <trkpt lat="45.31151" lon="4.70821">
        <ele>548.8</ele>
      </trkpt>
      <trkpt lat="45.31145" lon="4.70802">
        <ele>550.2</ele>
      </trkpt>
      <trkpt lat="45.3113" lon="4.70768">
        <ele>551.6</ele>
      </trkpt>
      <trkpt lat="45.31122" lon="4.70708">
        <ele>554.5</ele>
      </trkpt>
      <trkpt lat="45.31115" lon="4.70686">
        <ele>554.5</ele>
      </trkpt>
      <trkpt lat="45.31101" lon="4.7068">
        <ele>552.4</ele>
      </trkpt>
      <trkpt lat="45.31075" lon="4.70679">
        <ele>547.8</ele>
      </trkpt>
      <trkpt lat="45.3106" lon="4.70674">
        <ele>545.6</ele>
      </trkpt>
      <trkpt lat="45.31045" lon="4.70658">
        <ele>544.7</ele>
      </trkpt>
      <trkpt lat="45.31024" lon="4.70643">
        <ele>543.5</ele>
      </trkpt>
      <trkpt lat="45.31016" lon="4.70638">
        <ele>543</ele>
      </trkpt>
      <trkpt lat="45.30995" lon="4.70635">
        <ele>540.4</ele>
      </trkpt>
      <trkpt lat="45.30972" lon="4.70627">
        <ele>539.3</ele>
      </trkpt>
      <trkpt lat="45.30956" lon="4.70607">
        <ele>540.7</ele>
      </trkpt>
      <trkpt lat="45.3094" lon="4.70578">
        <ele>543.3</ele>
      </trkpt>
      <trkpt lat="45.30929" lon="4.70571">
        <ele>543.2</ele>
      </trkpt>
      <trkpt lat="45.30921" lon="4.70574">
        <ele>541.9</ele>
      </trkpt>
      <trkpt lat="45.30912" lon="4.70577">
        <ele>541.6</ele>
      </trkpt>
      <trkpt lat="45.30899" lon="4.70595">
        <ele>540.9</ele>
      </trkpt>
      <trkpt lat="45.30894" lon="4.70607">
        <ele>540</ele>
      </trkpt>
      <trkpt lat="45.30891" lon="4.70618">
        <ele>539</ele>
      </trkpt>
      <trkpt lat="45.30889" lon="4.70623">
        <ele>538.6</ele>
      </trkpt>
      <trkpt lat="45.30884" lon="4.70643">
        <ele>536.7</ele>
      </trkpt>
      <trkpt lat="45.30876" lon="4.70677">
        <ele>533.5</ele>
      </trkpt>
      <trkpt lat="45.30871" lon="4.70695">
        <ele>532.1</ele>
      </trkpt>
      <trkpt lat="45.30859" lon="4.70706">
        <ele>532.6</ele>
      </trkpt>
      <trkpt lat="45.30847" lon="4.70713">
        <ele>533.7</ele>
      </trkpt>
      <trkpt lat="45.30842" lon="4.70715">
        <ele>534.2</ele>
      </trkpt>
      <trkpt lat="45.30836" lon="4.70731">
        <ele>533.1</ele>
      </trkpt>
      <trkpt lat="45.30825" lon="4.70773">
        <ele>531.2</ele>
      </trkpt>
      <trkpt lat="45.30822" lon="4.70798">
        <ele>529.4</ele>
      </trkpt>
      <trkpt lat="45.30824" lon="4.70865">
        <ele>519.8</ele>
      </trkpt>
    </trkseg>
  </trk>
</gpx>